<?xml version="1.0" encoding="UTF-8" standalone="no" ?>
<gpx xmlns="http://www.topografix.com/GPX/1/1" xmlns:xsi="http://www.w3.org/2001/XMLSchema-instance" xsi:schemaLocation="http://www.topografix.com/GPX/1/1 http://www.topografix.com/GPX/1/1/gpx.xsd" version="1.1" creator="VisuGPX - https://www.visugpx.com">
  <metadata>
    <name>2009 LAGAHL</name>
    <desc><![CDATA[Lozère-Aveyron-Gard-Ardèche-Haute Loire]]></desc>
  </metadata>
  <trk>
    <name><![CDATA[B01]]></name>
    <trkseg>
      <trkpt lat="44.66805" lon="3.59678">
        <ele>1279</ele>
        <time>2009-07-07T06:37:28Z</time>
      </trkpt>
      <trkpt lat="44.66816" lon="3.59683">
        <ele>1282</ele>
        <time>2009-07-07T06:37:54Z</time>
      </trkpt>
      <trkpt lat="44.66815" lon="3.59682">
        <ele>1286</ele>
        <time>2009-07-07T06:38:08Z</time>
      </trkpt>
      <trkpt lat="44.66823" lon="3.59679">
        <ele>1287</ele>
        <time>2009-07-07T06:42:53Z</time>
      </trkpt>
      <trkpt lat="44.66819" lon="3.59676">
        <ele>1287</ele>
        <time>2009-07-07T06:42:56Z</time>
      </trkpt>
      <trkpt lat="44.6681" lon="3.59664">
        <ele>1283</ele>
        <time>2009-07-07T06:43:02Z</time>
      </trkpt>
      <trkpt lat="44.6679" lon="3.59662">
        <ele>1281</ele>
        <time>2009-07-07T06:43:08Z</time>
      </trkpt>
      <trkpt lat="44.66772" lon="3.59648">
        <ele>1281</ele>
        <time>2009-07-07T06:43:13Z</time>
      </trkpt>
      <trkpt lat="44.66773" lon="3.59632">
        <ele>1280</ele>
        <time>2009-07-07T06:43:17Z</time>
      </trkpt>
      <trkpt lat="44.66781" lon="3.59554">
        <ele>1281</ele>
        <time>2009-07-07T06:43:32Z</time>
      </trkpt>
      <trkpt lat="44.66781" lon="3.59543">
        <ele>1281</ele>
        <time>2009-07-07T06:43:34Z</time>
      </trkpt>
      <trkpt lat="44.66774" lon="3.59516">
        <ele>1281</ele>
        <time>2009-07-07T06:43:40Z</time>
      </trkpt>
      <trkpt lat="44.66765" lon="3.59482">
        <ele>1282</ele>
        <time>2009-07-07T06:43:52Z</time>
      </trkpt>
      <trkpt lat="44.66759" lon="3.59473">
        <ele>1282</ele>
        <time>2009-07-07T06:43:59Z</time>
      </trkpt>
      <trkpt lat="44.66744" lon="3.59421">
        <ele>1283</ele>
        <time>2009-07-07T06:44:12Z</time>
      </trkpt>
      <trkpt lat="44.66754" lon="3.59366">
        <ele>1284</ele>
        <time>2009-07-07T06:44:25Z</time>
      </trkpt>
      <trkpt lat="44.66774" lon="3.59308">
        <ele>1285</ele>
        <time>2009-07-07T06:44:43Z</time>
      </trkpt>
      <trkpt lat="44.66752" lon="3.59278">
        <ele>1289</ele>
        <time>2009-07-07T06:44:58Z</time>
      </trkpt>
      <trkpt lat="44.66723" lon="3.59264">
        <ele>1290</ele>
        <time>2009-07-07T06:45:14Z</time>
      </trkpt>
      <trkpt lat="44.66708" lon="3.59258">
        <ele>1291</ele>
        <time>2009-07-07T06:45:23Z</time>
      </trkpt>
      <trkpt lat="44.66697" lon="3.59233">
        <ele>1294</ele>
        <time>2009-07-07T06:45:38Z</time>
      </trkpt>
      <trkpt lat="44.66698" lon="3.59222">
        <ele>1295</ele>
        <time>2009-07-07T06:45:43Z</time>
      </trkpt>
      <trkpt lat="44.66698" lon="3.59218">
        <ele>1296</ele>
        <time>2009-07-07T06:45:45Z</time>
      </trkpt>
      <trkpt lat="44.66702" lon="3.59191">
        <ele>1300</ele>
        <time>2009-07-07T06:45:57Z</time>
      </trkpt>
      <trkpt lat="44.66701" lon="3.59146">
        <ele>1303</ele>
        <time>2009-07-07T06:46:16Z</time>
      </trkpt>
      <trkpt lat="44.66701" lon="3.59125">
        <ele>1306</ele>
        <time>2009-07-07T06:46:25Z</time>
      </trkpt>
      <trkpt lat="44.66701" lon="3.59123">
        <ele>1306</ele>
        <time>2009-07-07T06:46:26Z</time>
      </trkpt>
      <trkpt lat="44.66701" lon="3.59094">
        <ele>1309</ele>
        <time>2009-07-07T06:46:39Z</time>
      </trkpt>
      <trkpt lat="44.66701" lon="3.59086">
        <ele>1310</ele>
        <time>2009-07-07T06:46:43Z</time>
      </trkpt>
      <trkpt lat="44.66701" lon="3.59044">
        <ele>1313</ele>
        <time>2009-07-07T06:47:02Z</time>
      </trkpt>
      <trkpt lat="44.66701" lon="3.59017">
        <ele>1316</ele>
        <time>2009-07-07T06:47:13Z</time>
      </trkpt>
      <trkpt lat="44.66702" lon="3.58971">
        <ele>1319</ele>
        <time>2009-07-07T06:47:31Z</time>
      </trkpt>
      <trkpt lat="44.66707" lon="3.58929">
        <ele>1322</ele>
        <time>2009-07-07T06:47:47Z</time>
      </trkpt>
      <trkpt lat="44.66711" lon="3.58892">
        <ele>1324</ele>
        <time>2009-07-07T06:48:02Z</time>
      </trkpt>
      <trkpt lat="44.66709" lon="3.5885">
        <ele>1325</ele>
        <time>2009-07-07T06:48:19Z</time>
      </trkpt>
      <trkpt lat="44.66709" lon="3.58834">
        <ele>1327</ele>
        <time>2009-07-07T06:48:26Z</time>
      </trkpt>
      <trkpt lat="44.66708" lon="3.5881">
        <ele>1330</ele>
        <time>2009-07-07T06:48:37Z</time>
      </trkpt>
      <trkpt lat="44.66705" lon="3.58785">
        <ele>1333</ele>
        <time>2009-07-07T06:48:48Z</time>
      </trkpt>
      <trkpt lat="44.66705" lon="3.58754">
        <ele>1337</ele>
        <time>2009-07-07T06:49:01Z</time>
      </trkpt>
      <trkpt lat="44.66706" lon="3.58734">
        <ele>1340</ele>
        <time>2009-07-07T06:49:10Z</time>
      </trkpt>
      <trkpt lat="44.66705" lon="3.58709">
        <ele>1343</ele>
        <time>2009-07-07T06:49:22Z</time>
      </trkpt>
      <trkpt lat="44.66705" lon="3.58675">
        <ele>1346</ele>
        <time>2009-07-07T06:49:39Z</time>
      </trkpt>
      <trkpt lat="44.66706" lon="3.58653">
        <ele>1349</ele>
        <time>2009-07-07T06:49:51Z</time>
      </trkpt>
      <trkpt lat="44.66706" lon="3.58635">
        <ele>1351</ele>
        <time>2009-07-07T06:50:00Z</time>
      </trkpt>
      <trkpt lat="44.66704" lon="3.58618">
        <ele>1353</ele>
        <time>2009-07-07T06:50:09Z</time>
      </trkpt>
      <trkpt lat="44.66703" lon="3.5861">
        <ele>1355</ele>
        <time>2009-07-07T06:50:13Z</time>
      </trkpt>
      <trkpt lat="44.66694" lon="3.58568">
        <ele>1358</ele>
        <time>2009-07-07T06:50:34Z</time>
      </trkpt>
      <trkpt lat="44.66675" lon="3.58544">
        <ele>1361</ele>
        <time>2009-07-07T06:50:51Z</time>
      </trkpt>
      <trkpt lat="44.66656" lon="3.58528">
        <ele>1365</ele>
        <time>2009-07-07T06:51:06Z</time>
      </trkpt>
      <trkpt lat="44.66632" lon="3.58506">
        <ele>1369</ele>
        <time>2009-07-07T06:51:25Z</time>
      </trkpt>
      <trkpt lat="44.66631" lon="3.58504">
        <ele>1369</ele>
        <time>2009-07-07T06:51:26Z</time>
      </trkpt>
      <trkpt lat="44.66613" lon="3.58482">
        <ele>1372</ele>
        <time>2009-07-07T06:51:41Z</time>
      </trkpt>
      <trkpt lat="44.66596" lon="3.58461">
        <ele>1375</ele>
        <time>2009-07-07T06:51:55Z</time>
      </trkpt>
      <trkpt lat="44.66585" lon="3.58435">
        <ele>1376</ele>
        <time>2009-07-07T06:52:09Z</time>
      </trkpt>
      <trkpt lat="44.66585" lon="3.58435">
        <ele>1375</ele>
        <time>2009-07-07T06:52:54Z</time>
      </trkpt>
      <trkpt lat="44.66586" lon="3.58434">
        <ele>1377</ele>
        <time>2009-07-07T06:54:20Z</time>
      </trkpt>
      <trkpt lat="44.66578" lon="3.58417">
        <ele>1376</ele>
        <time>2009-07-07T06:55:02Z</time>
      </trkpt>
      <trkpt lat="44.66551" lon="3.58368">
        <ele>1378</ele>
        <time>2009-07-07T06:55:20Z</time>
      </trkpt>
      <trkpt lat="44.66528" lon="3.5833">
        <ele>1378</ele>
        <time>2009-07-07T06:55:35Z</time>
      </trkpt>
      <trkpt lat="44.66499" lon="3.58305">
        <ele>1378</ele>
        <time>2009-07-07T06:55:50Z</time>
      </trkpt>
      <trkpt lat="44.66457" lon="3.58324">
        <ele>1378</ele>
        <time>2009-07-07T06:56:05Z</time>
      </trkpt>
      <trkpt lat="44.66398" lon="3.58339">
        <ele>1380</ele>
        <time>2009-07-07T06:56:25Z</time>
      </trkpt>
      <trkpt lat="44.66373" lon="3.58345">
        <ele>1382</ele>
        <time>2009-07-07T06:56:35Z</time>
      </trkpt>
      <trkpt lat="44.66312" lon="3.58355">
        <ele>1384</ele>
        <time>2009-07-07T06:56:59Z</time>
      </trkpt>
      <trkpt lat="44.66305" lon="3.58355">
        <ele>1386</ele>
        <time>2009-07-07T06:57:02Z</time>
      </trkpt>
      <trkpt lat="44.66284" lon="3.58329">
        <ele>1388</ele>
        <time>2009-07-07T06:57:16Z</time>
      </trkpt>
      <trkpt lat="44.66284" lon="3.58325">
        <ele>1388</ele>
        <time>2009-07-07T06:57:17Z</time>
      </trkpt>
      <trkpt lat="44.6627" lon="3.58267">
        <ele>1389</ele>
        <time>2009-07-07T06:57:35Z</time>
      </trkpt>
      <trkpt lat="44.66261" lon="3.58222">
        <ele>1393</ele>
        <time>2009-07-07T06:57:49Z</time>
      </trkpt>
      <trkpt lat="44.66241" lon="3.58156">
        <ele>1395</ele>
        <time>2009-07-07T06:58:10Z</time>
      </trkpt>
      <trkpt lat="44.66228" lon="3.58134">
        <ele>1396</ele>
        <time>2009-07-07T06:58:18Z</time>
      </trkpt>
      <trkpt lat="44.66211" lon="3.58108">
        <ele>1399</ele>
        <time>2009-07-07T06:58:28Z</time>
      </trkpt>
      <trkpt lat="44.66175" lon="3.58069">
        <ele>1400</ele>
        <time>2009-07-07T06:58:45Z</time>
      </trkpt>
      <trkpt lat="44.66133" lon="3.58021">
        <ele>1403</ele>
        <time>2009-07-07T06:59:08Z</time>
      </trkpt>
      <trkpt lat="44.66131" lon="3.58019">
        <ele>1404</ele>
        <time>2009-07-07T06:59:09Z</time>
      </trkpt>
      <trkpt lat="44.66086" lon="3.57981">
        <ele>1406</ele>
        <time>2009-07-07T06:59:29Z</time>
      </trkpt>
      <trkpt lat="44.66028" lon="3.5795">
        <ele>1408</ele>
        <time>2009-07-07T06:59:50Z</time>
      </trkpt>
      <trkpt lat="44.65993" lon="3.5793">
        <ele>1412</ele>
        <time>2009-07-07T07:00:03Z</time>
      </trkpt>
      <trkpt lat="44.6596" lon="3.57889">
        <ele>1410</ele>
        <time>2009-07-07T07:00:17Z</time>
      </trkpt>
      <trkpt lat="44.65934" lon="3.57811">
        <ele>1414</ele>
        <time>2009-07-07T07:00:36Z</time>
      </trkpt>
      <trkpt lat="44.65895" lon="3.57733">
        <ele>1414</ele>
        <time>2009-07-07T07:00:55Z</time>
      </trkpt>
      <trkpt lat="44.65848" lon="3.57649">
        <ele>1415</ele>
        <time>2009-07-07T07:01:16Z</time>
      </trkpt>
      <trkpt lat="44.65839" lon="3.5764">
        <ele>1416</ele>
        <time>2009-07-07T07:01:19Z</time>
      </trkpt>
      <trkpt lat="44.6578" lon="3.57614">
        <ele>1418</ele>
        <time>2009-07-07T07:01:36Z</time>
      </trkpt>
      <trkpt lat="44.65735" lon="3.57594">
        <ele>1418</ele>
        <time>2009-07-07T07:01:52Z</time>
      </trkpt>
      <trkpt lat="44.65701" lon="3.57577">
        <ele>1417</ele>
        <time>2009-07-07T07:02:05Z</time>
      </trkpt>
      <trkpt lat="44.65644" lon="3.57549">
        <ele>1415</ele>
        <time>2009-07-07T07:02:21Z</time>
      </trkpt>
      <trkpt lat="44.65577" lon="3.57503">
        <ele>1414</ele>
        <time>2009-07-07T07:02:39Z</time>
      </trkpt>
      <trkpt lat="44.65506" lon="3.57461">
        <ele>1411</ele>
        <time>2009-07-07T07:02:54Z</time>
      </trkpt>
      <trkpt lat="44.65493" lon="3.57457">
        <ele>1410</ele>
        <time>2009-07-07T07:02:56Z</time>
      </trkpt>
      <trkpt lat="44.65425" lon="3.57438">
        <ele>1407</ele>
        <time>2009-07-07T07:03:06Z</time>
      </trkpt>
      <trkpt lat="44.65372" lon="3.57417">
        <ele>1404</ele>
        <time>2009-07-07T07:03:13Z</time>
      </trkpt>
      <trkpt lat="44.65347" lon="3.57412">
        <ele>1402</ele>
        <time>2009-07-07T07:03:16Z</time>
      </trkpt>
      <trkpt lat="44.65273" lon="3.57409">
        <ele>1399</ele>
        <time>2009-07-07T07:03:25Z</time>
      </trkpt>
      <trkpt lat="44.65175" lon="3.57405">
        <ele>1397</ele>
        <time>2009-07-07T07:03:38Z</time>
      </trkpt>
      <trkpt lat="44.65139" lon="3.57405">
        <ele>1395</ele>
        <time>2009-07-07T07:03:43Z</time>
      </trkpt>
      <trkpt lat="44.651" lon="3.5741">
        <ele>1394</ele>
        <time>2009-07-07T07:03:48Z</time>
      </trkpt>
      <trkpt lat="44.65046" lon="3.57414">
        <ele>1393</ele>
        <time>2009-07-07T07:03:55Z</time>
      </trkpt>
      <trkpt lat="44.64966" lon="3.5742">
        <ele>1389</ele>
        <time>2009-07-07T07:04:06Z</time>
      </trkpt>
      <trkpt lat="44.64911" lon="3.57439">
        <ele>1387</ele>
        <time>2009-07-07T07:04:14Z</time>
      </trkpt>
      <trkpt lat="44.6478" lon="3.57492">
        <ele>1385</ele>
        <time>2009-07-07T07:04:33Z</time>
      </trkpt>
      <trkpt lat="44.64774" lon="3.57496">
        <ele>1386</ele>
        <time>2009-07-07T07:04:34Z</time>
      </trkpt>
      <trkpt lat="44.64718" lon="3.57513">
        <ele>1386</ele>
        <time>2009-07-07T07:04:43Z</time>
      </trkpt>
      <trkpt lat="44.64693" lon="3.57504">
        <ele>1384</ele>
        <time>2009-07-07T07:04:47Z</time>
      </trkpt>
      <trkpt lat="44.64662" lon="3.57487">
        <ele>1383</ele>
        <time>2009-07-07T07:04:52Z</time>
      </trkpt>
      <trkpt lat="44.64623" lon="3.57493">
        <ele>1383</ele>
        <time>2009-07-07T07:04:58Z</time>
      </trkpt>
      <trkpt lat="44.64537" lon="3.57528">
        <ele>1380</ele>
        <time>2009-07-07T07:05:11Z</time>
      </trkpt>
      <trkpt lat="44.64447" lon="3.57567">
        <ele>1377</ele>
        <time>2009-07-07T07:05:24Z</time>
      </trkpt>
      <trkpt lat="44.6444" lon="3.57571">
        <ele>1377</ele>
        <time>2009-07-07T07:05:25Z</time>
      </trkpt>
      <trkpt lat="44.64345" lon="3.57619">
        <ele>1376</ele>
        <time>2009-07-07T07:05:39Z</time>
      </trkpt>
      <trkpt lat="44.64256" lon="3.57621">
        <ele>1374</ele>
        <time>2009-07-07T07:05:52Z</time>
      </trkpt>
      <trkpt lat="44.6423" lon="3.57608">
        <ele>1373</ele>
        <time>2009-07-07T07:05:56Z</time>
      </trkpt>
      <trkpt lat="44.64186" lon="3.57586">
        <ele>1373</ele>
        <time>2009-07-07T07:06:03Z</time>
      </trkpt>
      <trkpt lat="44.64148" lon="3.57577">
        <ele>1372</ele>
        <time>2009-07-07T07:06:09Z</time>
      </trkpt>
      <trkpt lat="44.64114" lon="3.57576">
        <ele>1371</ele>
        <time>2009-07-07T07:06:14Z</time>
      </trkpt>
      <trkpt lat="44.64053" lon="3.57581">
        <ele>1367</ele>
        <time>2009-07-07T07:06:22Z</time>
      </trkpt>
      <trkpt lat="44.64046" lon="3.57583">
        <ele>1367</ele>
        <time>2009-07-07T07:06:23Z</time>
      </trkpt>
      <trkpt lat="44.6403" lon="3.57588">
        <ele>1366</ele>
        <time>2009-07-07T07:06:25Z</time>
      </trkpt>
      <trkpt lat="44.64016" lon="3.57596">
        <ele>1365</ele>
        <time>2009-07-07T07:06:27Z</time>
      </trkpt>
      <trkpt lat="44.63988" lon="3.57627">
        <ele>1366</ele>
        <time>2009-07-07T07:06:32Z</time>
      </trkpt>
      <trkpt lat="44.63973" lon="3.57655">
        <ele>1368</ele>
        <time>2009-07-07T07:06:36Z</time>
      </trkpt>
      <trkpt lat="44.63939" lon="3.57711">
        <ele>1370</ele>
        <time>2009-07-07T07:06:48Z</time>
      </trkpt>
      <trkpt lat="44.63926" lon="3.5771">
        <ele>1369</ele>
        <time>2009-07-07T07:06:58Z</time>
      </trkpt>
      <trkpt lat="44.63916" lon="3.57697">
        <ele>1368</ele>
        <time>2009-07-07T07:07:27Z</time>
      </trkpt>
      <trkpt lat="44.6391" lon="3.57689">
        <ele>1368</ele>
        <time>2009-07-07T07:07:29Z</time>
      </trkpt>
      <trkpt lat="44.63897" lon="3.57674">
        <ele>1367</ele>
        <time>2009-07-07T07:07:32Z</time>
      </trkpt>
      <trkpt lat="44.63872" lon="3.57642">
        <ele>1365</ele>
        <time>2009-07-07T07:07:38Z</time>
      </trkpt>
      <trkpt lat="44.63854" lon="3.5762">
        <ele>1365</ele>
        <time>2009-07-07T07:07:42Z</time>
      </trkpt>
      <trkpt lat="44.6377" lon="3.57509">
        <ele>1363</ele>
        <time>2009-07-07T07:07:59Z</time>
      </trkpt>
      <trkpt lat="44.63705" lon="3.57402">
        <ele>1361</ele>
        <time>2009-07-07T07:08:14Z</time>
      </trkpt>
      <trkpt lat="44.63645" lon="3.57305">
        <ele>1358</ele>
        <time>2009-07-07T07:08:29Z</time>
      </trkpt>
      <trkpt lat="44.63581" lon="3.57211">
        <ele>1356</ele>
        <time>2009-07-07T07:08:45Z</time>
      </trkpt>
      <trkpt lat="44.63573" lon="3.572">
        <ele>1355</ele>
        <time>2009-07-07T07:08:47Z</time>
      </trkpt>
      <trkpt lat="44.63531" lon="3.57154">
        <ele>1353</ele>
        <time>2009-07-07T07:08:56Z</time>
      </trkpt>
      <trkpt lat="44.63516" lon="3.5714">
        <ele>1352</ele>
        <time>2009-07-07T07:08:59Z</time>
      </trkpt>
      <trkpt lat="44.63421" lon="3.57042">
        <ele>1350</ele>
        <time>2009-07-07T07:09:19Z</time>
      </trkpt>
      <trkpt lat="44.63357" lon="3.56977">
        <ele>1347</ele>
        <time>2009-07-07T07:09:32Z</time>
      </trkpt>
      <trkpt lat="44.63352" lon="3.56973">
        <ele>1348</ele>
        <time>2009-07-07T07:09:33Z</time>
      </trkpt>
      <trkpt lat="44.63342" lon="3.56938">
        <ele>1346</ele>
        <time>2009-07-07T07:09:38Z</time>
      </trkpt>
      <trkpt lat="44.63354" lon="3.5686">
        <ele>1343</ele>
        <time>2009-07-07T07:09:49Z</time>
      </trkpt>
      <trkpt lat="44.63355" lon="3.56853">
        <ele>1343</ele>
        <time>2009-07-07T07:09:50Z</time>
      </trkpt>
      <trkpt lat="44.6336" lon="3.56812">
        <ele>1339</ele>
        <time>2009-07-07T07:09:55Z</time>
      </trkpt>
      <trkpt lat="44.63362" lon="3.56803">
        <ele>1339</ele>
        <time>2009-07-07T07:09:56Z</time>
      </trkpt>
      <trkpt lat="44.63366" lon="3.56774">
        <ele>1337</ele>
        <time>2009-07-07T07:09:59Z</time>
      </trkpt>
      <trkpt lat="44.63368" lon="3.56753">
        <ele>1334</ele>
        <time>2009-07-07T07:10:01Z</time>
      </trkpt>
      <trkpt lat="44.63385" lon="3.56644">
        <ele>1338</ele>
        <time>2009-07-07T07:10:14Z</time>
      </trkpt>
      <trkpt lat="44.63366" lon="3.56598">
        <ele>1338</ele>
        <time>2009-07-07T07:10:23Z</time>
      </trkpt>
      <trkpt lat="44.63313" lon="3.56566">
        <ele>1339</ele>
        <time>2009-07-07T07:10:37Z</time>
      </trkpt>
      <trkpt lat="44.63287" lon="3.5655">
        <ele>1339</ele>
        <time>2009-07-07T07:10:43Z</time>
      </trkpt>
      <trkpt lat="44.6327" lon="3.56527">
        <ele>1339</ele>
        <time>2009-07-07T07:10:48Z</time>
      </trkpt>
      <trkpt lat="44.63255" lon="3.5649">
        <ele>1341</ele>
        <time>2009-07-07T07:10:56Z</time>
      </trkpt>
      <trkpt lat="44.63238" lon="3.56425">
        <ele>1344</ele>
        <time>2009-07-07T07:11:11Z</time>
      </trkpt>
      <trkpt lat="44.63227" lon="3.56359">
        <ele>1347</ele>
        <time>2009-07-07T07:11:27Z</time>
      </trkpt>
      <trkpt lat="44.6323" lon="3.56306">
        <ele>1350</ele>
        <time>2009-07-07T07:11:40Z</time>
      </trkpt>
      <trkpt lat="44.63241" lon="3.56248">
        <ele>1352</ele>
        <time>2009-07-07T07:11:57Z</time>
      </trkpt>
      <trkpt lat="44.63248" lon="3.56217">
        <ele>1353</ele>
        <time>2009-07-07T07:12:11Z</time>
      </trkpt>
      <trkpt lat="44.63249" lon="3.56214">
        <ele>1353</ele>
        <time>2009-07-07T07:12:23Z</time>
      </trkpt>
      <trkpt lat="44.63248" lon="3.56213">
        <ele>1352</ele>
        <time>2009-07-07T07:12:38Z</time>
      </trkpt>
      <trkpt lat="44.63242" lon="3.56206">
        <ele>1353</ele>
        <time>2009-07-07T07:12:43Z</time>
      </trkpt>
      <trkpt lat="44.63208" lon="3.56157">
        <ele>1351</ele>
        <time>2009-07-07T07:12:59Z</time>
      </trkpt>
      <trkpt lat="44.63149" lon="3.56117">
        <ele>1350</ele>
        <time>2009-07-07T07:13:14Z</time>
      </trkpt>
      <trkpt lat="44.63072" lon="3.56091">
        <ele>1347</ele>
        <time>2009-07-07T07:13:29Z</time>
      </trkpt>
      <trkpt lat="44.63067" lon="3.56089">
        <ele>1349</ele>
        <time>2009-07-07T07:13:30Z</time>
      </trkpt>
      <trkpt lat="44.63047" lon="3.56082">
        <ele>1348</ele>
        <time>2009-07-07T07:13:34Z</time>
      </trkpt>
      <trkpt lat="44.62984" lon="3.56067">
        <ele>1346</ele>
        <time>2009-07-07T07:13:45Z</time>
      </trkpt>
      <trkpt lat="44.62897" lon="3.56063">
        <ele>1344</ele>
        <time>2009-07-07T07:14:00Z</time>
      </trkpt>
      <trkpt lat="44.6285" lon="3.56069">
        <ele>1342</ele>
        <time>2009-07-07T07:14:08Z</time>
      </trkpt>
      <trkpt lat="44.62811" lon="3.56077">
        <ele>1341</ele>
        <time>2009-07-07T07:14:14Z</time>
      </trkpt>
      <trkpt lat="44.62798" lon="3.56076">
        <ele>1340</ele>
        <time>2009-07-07T07:14:16Z</time>
      </trkpt>
      <trkpt lat="44.62786" lon="3.56073">
        <ele>1340</ele>
        <time>2009-07-07T07:14:18Z</time>
      </trkpt>
      <trkpt lat="44.62755" lon="3.5607">
        <ele>1340</ele>
        <time>2009-07-07T07:14:23Z</time>
      </trkpt>
      <trkpt lat="44.6268" lon="3.56098">
        <ele>1338</ele>
        <time>2009-07-07T07:14:36Z</time>
      </trkpt>
      <trkpt lat="44.62658" lon="3.56107">
        <ele>1338</ele>
        <time>2009-07-07T07:14:40Z</time>
      </trkpt>
      <trkpt lat="44.62624" lon="3.56109">
        <ele>1336</ele>
        <time>2009-07-07T07:14:46Z</time>
      </trkpt>
      <trkpt lat="44.62591" lon="3.56121">
        <ele>1334</ele>
        <time>2009-07-07T07:14:55Z</time>
      </trkpt>
      <trkpt lat="44.62573" lon="3.56128">
        <ele>1333</ele>
        <time>2009-07-07T07:15:08Z</time>
      </trkpt>
      <trkpt lat="44.62567" lon="3.56128">
        <ele>1334</ele>
        <time>2009-07-07T07:15:24Z</time>
      </trkpt>
      <trkpt lat="44.62563" lon="3.5613">
        <ele>1334</ele>
        <time>2009-07-07T07:15:33Z</time>
      </trkpt>
      <trkpt lat="44.62547" lon="3.56129">
        <ele>1335</ele>
        <time>2009-07-07T07:15:43Z</time>
      </trkpt>
      <trkpt lat="44.62521" lon="3.56126">
        <ele>1336</ele>
        <time>2009-07-07T07:15:56Z</time>
      </trkpt>
      <trkpt lat="44.62501" lon="3.56123">
        <ele>1335</ele>
        <time>2009-07-07T07:16:08Z</time>
      </trkpt>
      <trkpt lat="44.62474" lon="3.56118">
        <ele>1334</ele>
        <time>2009-07-07T07:16:25Z</time>
      </trkpt>
      <trkpt lat="44.62467" lon="3.56115">
        <ele>1335</ele>
        <time>2009-07-07T07:16:42Z</time>
      </trkpt>
      <trkpt lat="44.62465" lon="3.56115">
        <ele>1335</ele>
        <time>2009-07-07T07:16:43Z</time>
      </trkpt>
      <trkpt lat="44.6243" lon="3.56105">
        <ele>1334</ele>
        <time>2009-07-07T07:16:58Z</time>
      </trkpt>
      <trkpt lat="44.62381" lon="3.56087">
        <ele>1333</ele>
        <time>2009-07-07T07:17:16Z</time>
      </trkpt>
      <trkpt lat="44.62377" lon="3.56084">
        <ele>1334</ele>
        <time>2009-07-07T07:17:27Z</time>
      </trkpt>
      <trkpt lat="44.62374" lon="3.56082">
        <ele>1334</ele>
        <time>2009-07-07T07:17:36Z</time>
      </trkpt>
      <trkpt lat="44.62371" lon="3.56076">
        <ele>1335</ele>
        <time>2009-07-07T07:17:54Z</time>
      </trkpt>
      <trkpt lat="44.62371" lon="3.56078">
        <ele>1335</ele>
        <time>2009-07-07T07:20:29Z</time>
      </trkpt>
      <trkpt lat="44.62371" lon="3.5608">
        <ele>1334</ele>
        <time>2009-07-07T07:21:17Z</time>
      </trkpt>
      <trkpt lat="44.62371" lon="3.5608">
        <ele>1335</ele>
        <time>2009-07-07T07:21:53Z</time>
      </trkpt>
      <trkpt lat="44.6237" lon="3.56081">
        <ele>1335</ele>
        <time>2009-07-07T07:22:02Z</time>
      </trkpt>
      <trkpt lat="44.62368" lon="3.56086">
        <ele>1335</ele>
        <time>2009-07-07T07:22:05Z</time>
      </trkpt>
      <trkpt lat="44.62371" lon="3.56113">
        <ele>1335</ele>
        <time>2009-07-07T07:22:18Z</time>
      </trkpt>
      <trkpt lat="44.62371" lon="3.56115">
        <ele>1335</ele>
        <time>2009-07-07T07:22:58Z</time>
      </trkpt>
      <trkpt lat="44.62372" lon="3.56116">
        <ele>1335</ele>
        <time>2009-07-07T07:23:24Z</time>
      </trkpt>
      <trkpt lat="44.62372" lon="3.56119">
        <ele>1334</ele>
        <time>2009-07-07T07:24:08Z</time>
      </trkpt>
      <trkpt lat="44.6237" lon="3.56167">
        <ele>1334</ele>
        <time>2009-07-07T07:24:20Z</time>
      </trkpt>
      <trkpt lat="44.62368" lon="3.56176">
        <ele>1334</ele>
        <time>2009-07-07T07:24:28Z</time>
      </trkpt>
      <trkpt lat="44.62368" lon="3.56174">
        <ele>1334</ele>
        <time>2009-07-07T07:24:47Z</time>
      </trkpt>
      <trkpt lat="44.62369" lon="3.56168">
        <ele>1334</ele>
        <time>2009-07-07T07:24:53Z</time>
      </trkpt>
      <trkpt lat="44.62368" lon="3.56154">
        <ele>1334</ele>
        <time>2009-07-07T07:25:00Z</time>
      </trkpt>
      <trkpt lat="44.62366" lon="3.56149">
        <ele>1335</ele>
        <time>2009-07-07T07:25:02Z</time>
      </trkpt>
      <trkpt lat="44.62358" lon="3.56147">
        <ele>1335</ele>
        <time>2009-07-07T07:25:07Z</time>
      </trkpt>
      <trkpt lat="44.62353" lon="3.56145">
        <ele>1335</ele>
        <time>2009-07-07T07:25:11Z</time>
      </trkpt>
      <trkpt lat="44.62351" lon="3.56136">
        <ele>1335</ele>
        <time>2009-07-07T07:25:17Z</time>
      </trkpt>
      <trkpt lat="44.62347" lon="3.56131">
        <ele>1335</ele>
        <time>2009-07-07T07:25:21Z</time>
      </trkpt>
      <trkpt lat="44.62344" lon="3.56123">
        <ele>1335</ele>
        <time>2009-07-07T07:25:25Z</time>
      </trkpt>
      <trkpt lat="44.62336" lon="3.56115">
        <ele>1335</ele>
        <time>2009-07-07T07:25:29Z</time>
      </trkpt>
      <trkpt lat="44.62302" lon="3.56094">
        <ele>1336</ele>
        <time>2009-07-07T07:25:42Z</time>
      </trkpt>
      <trkpt lat="44.62264" lon="3.56088">
        <ele>1337</ele>
        <time>2009-07-07T07:25:55Z</time>
      </trkpt>
      <trkpt lat="44.62256" lon="3.56087">
        <ele>1337</ele>
        <time>2009-07-07T07:26:00Z</time>
      </trkpt>
      <trkpt lat="44.62238" lon="3.56066">
        <ele>1339</ele>
        <time>2009-07-07T07:26:09Z</time>
      </trkpt>
      <trkpt lat="44.62233" lon="3.56073">
        <ele>1340</ele>
        <time>2009-07-07T07:26:16Z</time>
      </trkpt>
      <trkpt lat="44.62234" lon="3.56077">
        <ele>1340</ele>
        <time>2009-07-07T07:26:17Z</time>
      </trkpt>
      <trkpt lat="44.6223" lon="3.56119">
        <ele>1339</ele>
        <time>2009-07-07T07:26:28Z</time>
      </trkpt>
      <trkpt lat="44.62227" lon="3.56157">
        <ele>1338</ele>
        <time>2009-07-07T07:26:36Z</time>
      </trkpt>
      <trkpt lat="44.62213" lon="3.56198">
        <ele>1337</ele>
        <time>2009-07-07T07:26:43Z</time>
      </trkpt>
      <trkpt lat="44.62187" lon="3.56312">
        <ele>1334</ele>
        <time>2009-07-07T07:27:00Z</time>
      </trkpt>
      <trkpt lat="44.62172" lon="3.56371">
        <ele>1338</ele>
        <time>2009-07-07T07:27:13Z</time>
      </trkpt>
      <trkpt lat="44.62168" lon="3.56454">
        <ele>1339</ele>
        <time>2009-07-07T07:27:30Z</time>
      </trkpt>
      <trkpt lat="44.62162" lon="3.56523">
        <ele>1340</ele>
        <time>2009-07-07T07:27:43Z</time>
      </trkpt>
      <trkpt lat="44.62159" lon="3.56559">
        <ele>1339</ele>
        <time>2009-07-07T07:27:49Z</time>
      </trkpt>
      <trkpt lat="44.62152" lon="3.5664">
        <ele>1340</ele>
        <time>2009-07-07T07:28:02Z</time>
      </trkpt>
      <trkpt lat="44.62148" lon="3.56723">
        <ele>1340</ele>
        <time>2009-07-07T07:28:15Z</time>
      </trkpt>
      <trkpt lat="44.62145" lon="3.5681">
        <ele>1341</ele>
        <time>2009-07-07T07:28:28Z</time>
      </trkpt>
      <trkpt lat="44.6214" lon="3.56872">
        <ele>1340</ele>
        <time>2009-07-07T07:28:37Z</time>
      </trkpt>
      <trkpt lat="44.62127" lon="3.56999">
        <ele>1341</ele>
        <time>2009-07-07T07:28:55Z</time>
      </trkpt>
      <trkpt lat="44.62112" lon="3.57102">
        <ele>1341</ele>
        <time>2009-07-07T07:29:09Z</time>
      </trkpt>
      <trkpt lat="44.62104" lon="3.5713">
        <ele>1341</ele>
        <time>2009-07-07T07:29:13Z</time>
      </trkpt>
      <trkpt lat="44.62101" lon="3.57151">
        <ele>1340</ele>
        <time>2009-07-07T07:29:16Z</time>
      </trkpt>
      <trkpt lat="44.62068" lon="3.5727">
        <ele>1341</ele>
        <time>2009-07-07T07:29:34Z</time>
      </trkpt>
      <trkpt lat="44.6206" lon="3.57299">
        <ele>1341</ele>
        <time>2009-07-07T07:29:38Z</time>
      </trkpt>
      <trkpt lat="44.62049" lon="3.57332">
        <ele>1340</ele>
        <time>2009-07-07T07:29:43Z</time>
      </trkpt>
      <trkpt lat="44.62027" lon="3.57399">
        <ele>1340</ele>
        <time>2009-07-07T07:29:53Z</time>
      </trkpt>
      <trkpt lat="44.62013" lon="3.57471">
        <ele>1341</ele>
        <time>2009-07-07T07:30:03Z</time>
      </trkpt>
      <trkpt lat="44.62008" lon="3.57595">
        <ele>1340</ele>
        <time>2009-07-07T07:30:20Z</time>
      </trkpt>
      <trkpt lat="44.62013" lon="3.57733">
        <ele>1340</ele>
        <time>2009-07-07T07:30:38Z</time>
      </trkpt>
      <trkpt lat="44.62017" lon="3.57762">
        <ele>1341</ele>
        <time>2009-07-07T07:30:42Z</time>
      </trkpt>
      <trkpt lat="44.62004" lon="3.5788">
        <ele>1342</ele>
        <time>2009-07-07T07:30:59Z</time>
      </trkpt>
      <trkpt lat="44.61996" lon="3.57905">
        <ele>1343</ele>
        <time>2009-07-07T07:31:03Z</time>
      </trkpt>
      <trkpt lat="44.61956" lon="3.5796">
        <ele>1344</ele>
        <time>2009-07-07T07:31:14Z</time>
      </trkpt>
      <trkpt lat="44.61938" lon="3.57971">
        <ele>1344</ele>
        <time>2009-07-07T07:31:18Z</time>
      </trkpt>
      <trkpt lat="44.61872" lon="3.58001">
        <ele>1345</ele>
        <time>2009-07-07T07:31:33Z</time>
      </trkpt>
      <trkpt lat="44.61832" lon="3.58036">
        <ele>1346</ele>
        <time>2009-07-07T07:31:46Z</time>
      </trkpt>
      <trkpt lat="44.61796" lon="3.58095">
        <ele>1348</ele>
        <time>2009-07-07T07:32:01Z</time>
      </trkpt>
      <trkpt lat="44.61775" lon="3.58189">
        <ele>1349</ele>
        <time>2009-07-07T07:32:18Z</time>
      </trkpt>
      <trkpt lat="44.61772" lon="3.582">
        <ele>1349</ele>
        <time>2009-07-07T07:32:20Z</time>
      </trkpt>
      <trkpt lat="44.6174" lon="3.58284">
        <ele>1350</ele>
        <time>2009-07-07T07:32:36Z</time>
      </trkpt>
      <trkpt lat="44.61723" lon="3.58319">
        <ele>1352</ele>
        <time>2009-07-07T07:32:43Z</time>
      </trkpt>
      <trkpt lat="44.61682" lon="3.58388">
        <ele>1354</ele>
        <time>2009-07-07T07:32:58Z</time>
      </trkpt>
      <trkpt lat="44.61675" lon="3.58395">
        <ele>1354</ele>
        <time>2009-07-07T07:33:00Z</time>
      </trkpt>
      <trkpt lat="44.61596" lon="3.58436">
        <ele>1356</ele>
        <time>2009-07-07T07:33:19Z</time>
      </trkpt>
      <trkpt lat="44.61576" lon="3.5845">
        <ele>1357</ele>
        <time>2009-07-07T07:33:24Z</time>
      </trkpt>
      <trkpt lat="44.6156" lon="3.58462">
        <ele>1358</ele>
        <time>2009-07-07T07:33:28Z</time>
      </trkpt>
      <trkpt lat="44.61534" lon="3.58498">
        <ele>1359</ele>
        <time>2009-07-07T07:33:36Z</time>
      </trkpt>
      <trkpt lat="44.6151" lon="3.58581">
        <ele>1362</ele>
        <time>2009-07-07T07:33:50Z</time>
      </trkpt>
      <trkpt lat="44.61505" lon="3.58702">
        <ele>1364</ele>
        <time>2009-07-07T07:34:09Z</time>
      </trkpt>
      <trkpt lat="44.61494" lon="3.58805">
        <ele>1364</ele>
        <time>2009-07-07T07:34:24Z</time>
      </trkpt>
      <trkpt lat="44.61488" lon="3.58825">
        <ele>1363</ele>
        <time>2009-07-07T07:34:27Z</time>
      </trkpt>
      <trkpt lat="44.61481" lon="3.58844">
        <ele>1362</ele>
        <time>2009-07-07T07:34:30Z</time>
      </trkpt>
      <trkpt lat="44.61474" lon="3.58856">
        <ele>1362</ele>
        <time>2009-07-07T07:34:32Z</time>
      </trkpt>
      <trkpt lat="44.61467" lon="3.58867">
        <ele>1362</ele>
        <time>2009-07-07T07:34:34Z</time>
      </trkpt>
      <trkpt lat="44.61455" lon="3.58873">
        <ele>1362</ele>
        <time>2009-07-07T07:34:38Z</time>
      </trkpt>
      <trkpt lat="44.61453" lon="3.58869">
        <ele>1361</ele>
        <time>2009-07-07T07:34:54Z</time>
      </trkpt>
      <trkpt lat="44.6145" lon="3.58864">
        <ele>1363</ele>
        <time>2009-07-07T07:36:40Z</time>
      </trkpt>
      <trkpt lat="44.61455" lon="3.58864">
        <ele>1363</ele>
        <time>2009-07-07T07:37:57Z</time>
      </trkpt>
      <trkpt lat="44.61454" lon="3.58864">
        <ele>1363</ele>
        <time>2009-07-07T07:38:07Z</time>
      </trkpt>
      <trkpt lat="44.61447" lon="3.58888">
        <ele>1361</ele>
        <time>2009-07-07T07:38:14Z</time>
      </trkpt>
      <trkpt lat="44.61401" lon="3.58925">
        <ele>1359</ele>
        <time>2009-07-07T07:38:27Z</time>
      </trkpt>
      <trkpt lat="44.61334" lon="3.58981">
        <ele>1357</ele>
        <time>2009-07-07T07:38:42Z</time>
      </trkpt>
      <trkpt lat="44.61291" lon="3.59018">
        <ele>1360</ele>
        <time>2009-07-07T07:38:53Z</time>
      </trkpt>
      <trkpt lat="44.61233" lon="3.59076">
        <ele>1360</ele>
        <time>2009-07-07T07:39:08Z</time>
      </trkpt>
      <trkpt lat="44.61168" lon="3.59146">
        <ele>1362</ele>
        <time>2009-07-07T07:39:26Z</time>
      </trkpt>
      <trkpt lat="44.61118" lon="3.59202">
        <ele>1363</ele>
        <time>2009-07-07T07:39:40Z</time>
      </trkpt>
      <trkpt lat="44.61071" lon="3.59255">
        <ele>1364</ele>
        <time>2009-07-07T07:39:55Z</time>
      </trkpt>
      <trkpt lat="44.61045" lon="3.59293">
        <ele>1367</ele>
        <time>2009-07-07T07:40:05Z</time>
      </trkpt>
      <trkpt lat="44.60997" lon="3.59383">
        <ele>1368</ele>
        <time>2009-07-07T07:40:25Z</time>
      </trkpt>
      <trkpt lat="44.60981" lon="3.59421">
        <ele>1369</ele>
        <time>2009-07-07T07:40:33Z</time>
      </trkpt>
      <trkpt lat="44.60955" lon="3.59493">
        <ele>1371</ele>
        <time>2009-07-07T07:40:47Z</time>
      </trkpt>
      <trkpt lat="44.60951" lon="3.59577">
        <ele>1372</ele>
        <time>2009-07-07T07:41:02Z</time>
      </trkpt>
      <trkpt lat="44.60956" lon="3.5961">
        <ele>1373</ele>
        <time>2009-07-07T07:41:08Z</time>
      </trkpt>
      <trkpt lat="44.60967" lon="3.59641">
        <ele>1372</ele>
        <time>2009-07-07T07:41:14Z</time>
      </trkpt>
      <trkpt lat="44.60982" lon="3.59677">
        <ele>1373</ele>
        <time>2009-07-07T07:41:21Z</time>
      </trkpt>
      <trkpt lat="44.60996" lon="3.5973">
        <ele>1374</ele>
        <time>2009-07-07T07:41:31Z</time>
      </trkpt>
      <trkpt lat="44.61" lon="3.59797">
        <ele>1375</ele>
        <time>2009-07-07T07:41:43Z</time>
      </trkpt>
      <trkpt lat="44.60987" lon="3.59868">
        <ele>1378</ele>
        <time>2009-07-07T07:41:56Z</time>
      </trkpt>
      <trkpt lat="44.6098" lon="3.59901">
        <ele>1379</ele>
        <time>2009-07-07T07:42:02Z</time>
      </trkpt>
      <trkpt lat="44.60969" lon="3.59983">
        <ele>1380</ele>
        <time>2009-07-07T07:42:17Z</time>
      </trkpt>
      <trkpt lat="44.60965" lon="3.60051">
        <ele>1381</ele>
        <time>2009-07-07T07:42:30Z</time>
      </trkpt>
      <trkpt lat="44.60954" lon="3.6014">
        <ele>1384</ele>
        <time>2009-07-07T07:42:47Z</time>
      </trkpt>
      <trkpt lat="44.60945" lon="3.60251">
        <ele>1386</ele>
        <time>2009-07-07T07:43:08Z</time>
      </trkpt>
      <trkpt lat="44.60959" lon="3.60334">
        <ele>1387</ele>
        <time>2009-07-07T07:43:24Z</time>
      </trkpt>
      <trkpt lat="44.60963" lon="3.6038">
        <ele>1389</ele>
        <time>2009-07-07T07:43:33Z</time>
      </trkpt>
      <trkpt lat="44.60947" lon="3.60476">
        <ele>1392</ele>
        <time>2009-07-07T07:43:52Z</time>
      </trkpt>
      <trkpt lat="44.60943" lon="3.60495">
        <ele>1392</ele>
        <time>2009-07-07T07:43:57Z</time>
      </trkpt>
      <trkpt lat="44.60936" lon="3.60495">
        <ele>1393</ele>
        <time>2009-07-07T07:44:07Z</time>
      </trkpt>
      <trkpt lat="44.60937" lon="3.60492">
        <ele>1393</ele>
        <time>2009-07-07T07:44:49Z</time>
      </trkpt>
      <trkpt lat="44.60936" lon="3.60491">
        <ele>1389</ele>
        <time>2009-07-07T07:45:32Z</time>
      </trkpt>
      <trkpt lat="44.60937" lon="3.60491">
        <ele>1395</ele>
        <time>2009-07-07T07:45:33Z</time>
      </trkpt>
      <trkpt lat="44.60936" lon="3.60491">
        <ele>1392</ele>
        <time>2009-07-07T07:45:38Z</time>
      </trkpt>
      <trkpt lat="44.60936" lon="3.60491">
        <ele>1388</ele>
        <time>2009-07-07T07:45:47Z</time>
      </trkpt>
      <trkpt lat="44.60936" lon="3.60491">
        <ele>1396</ele>
        <time>2009-07-07T07:45:48Z</time>
      </trkpt>
      <trkpt lat="44.60936" lon="3.60491">
        <ele>1391</ele>
        <time>2009-07-07T07:45:49Z</time>
      </trkpt>
      <trkpt lat="44.60937" lon="3.6049">
        <ele>1391</ele>
        <time>2009-07-07T07:46:42Z</time>
      </trkpt>
      <trkpt lat="44.60921" lon="3.60468">
        <ele>1391</ele>
        <time>2009-07-07T07:47:11Z</time>
      </trkpt>
      <trkpt lat="44.60861" lon="3.60378">
        <ele>1389</ele>
        <time>2009-07-07T07:47:31Z</time>
      </trkpt>
      <trkpt lat="44.60832" lon="3.60294">
        <ele>1390</ele>
        <time>2009-07-07T07:47:45Z</time>
      </trkpt>
      <trkpt lat="44.60828" lon="3.6026">
        <ele>1391</ele>
        <time>2009-07-07T07:47:51Z</time>
      </trkpt>
      <trkpt lat="44.60824" lon="3.60227">
        <ele>1394</ele>
        <time>2009-07-07T07:47:57Z</time>
      </trkpt>
      <trkpt lat="44.6082" lon="3.602">
        <ele>1395</ele>
        <time>2009-07-07T07:48:02Z</time>
      </trkpt>
      <trkpt lat="44.60799" lon="3.60086">
        <ele>1398</ele>
        <time>2009-07-07T07:48:24Z</time>
      </trkpt>
      <trkpt lat="44.60769" lon="3.6003">
        <ele>1394</ele>
        <time>2009-07-07T07:48:34Z</time>
      </trkpt>
      <trkpt lat="44.6075" lon="3.60004">
        <ele>1391</ele>
        <time>2009-07-07T07:48:38Z</time>
      </trkpt>
      <trkpt lat="44.60745" lon="3.59996">
        <ele>1392</ele>
        <time>2009-07-07T07:48:39Z</time>
      </trkpt>
      <trkpt lat="44.60734" lon="3.59981">
        <ele>1388</ele>
        <time>2009-07-07T07:48:41Z</time>
      </trkpt>
      <trkpt lat="44.60728" lon="3.59973">
        <ele>1388</ele>
        <time>2009-07-07T07:48:42Z</time>
      </trkpt>
      <trkpt lat="44.60661" lon="3.59881">
        <ele>1385</ele>
        <time>2009-07-07T07:48:53Z</time>
      </trkpt>
      <trkpt lat="44.60599" lon="3.59791">
        <ele>1386</ele>
        <time>2009-07-07T07:49:06Z</time>
      </trkpt>
      <trkpt lat="44.60542" lon="3.59689">
        <ele>1388</ele>
        <time>2009-07-07T07:49:24Z</time>
      </trkpt>
      <trkpt lat="44.60508" lon="3.59611">
        <ele>1392</ele>
        <time>2009-07-07T07:49:40Z</time>
      </trkpt>
      <trkpt lat="44.60504" lon="3.59609">
        <ele>1391</ele>
        <time>2009-07-07T07:49:42Z</time>
      </trkpt>
      <trkpt lat="44.60491" lon="3.59628">
        <ele>1392</ele>
        <time>2009-07-07T07:49:54Z</time>
      </trkpt>
      <trkpt lat="44.60479" lon="3.59654">
        <ele>1391</ele>
        <time>2009-07-07T07:50:03Z</time>
      </trkpt>
      <trkpt lat="44.60448" lon="3.59729">
        <ele>1389</ele>
        <time>2009-07-07T07:50:17Z</time>
      </trkpt>
      <trkpt lat="44.60386" lon="3.59801">
        <ele>1386</ele>
        <time>2009-07-07T07:50:29Z</time>
      </trkpt>
      <trkpt lat="44.60365" lon="3.59819">
        <ele>1383</ele>
        <time>2009-07-07T07:50:32Z</time>
      </trkpt>
      <trkpt lat="44.60358" lon="3.59825">
        <ele>1383</ele>
        <time>2009-07-07T07:50:33Z</time>
      </trkpt>
      <trkpt lat="44.60287" lon="3.5991">
        <ele>1380</ele>
        <time>2009-07-07T07:50:43Z</time>
      </trkpt>
      <trkpt lat="44.60269" lon="3.59945">
        <ele>1376</ele>
        <time>2009-07-07T07:50:46Z</time>
      </trkpt>
      <trkpt lat="44.60218" lon="3.60031">
        <ele>1373</ele>
        <time>2009-07-07T07:50:53Z</time>
      </trkpt>
      <trkpt lat="44.60177" lon="3.60095">
        <ele>1368</ele>
        <time>2009-07-07T07:50:58Z</time>
      </trkpt>
      <trkpt lat="44.60159" lon="3.60123">
        <ele>1368</ele>
        <time>2009-07-07T07:51:00Z</time>
      </trkpt>
      <trkpt lat="44.6012" lon="3.60174">
        <ele>1364</ele>
        <time>2009-07-07T07:51:04Z</time>
      </trkpt>
      <trkpt lat="44.601" lon="3.60199">
        <ele>1362</ele>
        <time>2009-07-07T07:51:06Z</time>
      </trkpt>
      <trkpt lat="44.60091" lon="3.60212">
        <ele>1363</ele>
        <time>2009-07-07T07:51:07Z</time>
      </trkpt>
      <trkpt lat="44.60074" lon="3.60255">
        <ele>1360</ele>
        <time>2009-07-07T07:51:10Z</time>
      </trkpt>
      <trkpt lat="44.60056" lon="3.60291">
        <ele>1361</ele>
        <time>2009-07-07T07:51:13Z</time>
      </trkpt>
      <trkpt lat="44.60019" lon="3.60377">
        <ele>1361</ele>
        <time>2009-07-07T07:51:21Z</time>
      </trkpt>
      <trkpt lat="44.59966" lon="3.60434">
        <ele>1363</ele>
        <time>2009-07-07T07:51:30Z</time>
      </trkpt>
      <trkpt lat="44.5995" lon="3.60446">
        <ele>1364</ele>
        <time>2009-07-07T07:51:33Z</time>
      </trkpt>
      <trkpt lat="44.59869" lon="3.60503">
        <ele>1366</ele>
        <time>2009-07-07T07:51:50Z</time>
      </trkpt>
      <trkpt lat="44.59837" lon="3.6052">
        <ele>1366</ele>
        <time>2009-07-07T07:51:57Z</time>
      </trkpt>
      <trkpt lat="44.59808" lon="3.60519">
        <ele>1367</ele>
        <time>2009-07-07T07:52:03Z</time>
      </trkpt>
      <trkpt lat="44.59732" lon="3.60484">
        <ele>1369</ele>
        <time>2009-07-07T07:52:20Z</time>
      </trkpt>
      <trkpt lat="44.59719" lon="3.60473">
        <ele>1369</ele>
        <time>2009-07-07T07:52:23Z</time>
      </trkpt>
      <trkpt lat="44.59693" lon="3.60433">
        <ele>1370</ele>
        <time>2009-07-07T07:52:35Z</time>
      </trkpt>
      <trkpt lat="44.59677" lon="3.604">
        <ele>1368</ele>
        <time>2009-07-07T07:52:47Z</time>
      </trkpt>
      <trkpt lat="44.59671" lon="3.6034">
        <ele>1368</ele>
        <time>2009-07-07T07:52:57Z</time>
      </trkpt>
      <trkpt lat="44.59673" lon="3.60295">
        <ele>1365</ele>
        <time>2009-07-07T07:53:05Z</time>
      </trkpt>
      <trkpt lat="44.59673" lon="3.60246">
        <ele>1361</ele>
        <time>2009-07-07T07:53:11Z</time>
      </trkpt>
      <trkpt lat="44.59673" lon="3.60236">
        <ele>1363</ele>
        <time>2009-07-07T07:53:12Z</time>
      </trkpt>
      <trkpt lat="44.59674" lon="3.60207">
        <ele>1360</ele>
        <time>2009-07-07T07:53:15Z</time>
      </trkpt>
      <trkpt lat="44.59668" lon="3.6015">
        <ele>1360</ele>
        <time>2009-07-07T07:53:21Z</time>
      </trkpt>
      <trkpt lat="44.59653" lon="3.60119">
        <ele>1360</ele>
        <time>2009-07-07T07:53:26Z</time>
      </trkpt>
      <trkpt lat="44.59638" lon="3.60096">
        <ele>1358</ele>
        <time>2009-07-07T07:53:30Z</time>
      </trkpt>
      <trkpt lat="44.59624" lon="3.60082">
        <ele>1358</ele>
        <time>2009-07-07T07:53:33Z</time>
      </trkpt>
      <trkpt lat="44.59601" lon="3.60073">
        <ele>1358</ele>
        <time>2009-07-07T07:53:37Z</time>
      </trkpt>
      <trkpt lat="44.59583" lon="3.6007">
        <ele>1357</ele>
        <time>2009-07-07T07:53:40Z</time>
      </trkpt>
      <trkpt lat="44.59571" lon="3.60071">
        <ele>1356</ele>
        <time>2009-07-07T07:53:42Z</time>
      </trkpt>
      <trkpt lat="44.59508" lon="3.60071">
        <ele>1353</ele>
        <time>2009-07-07T07:53:51Z</time>
      </trkpt>
      <trkpt lat="44.59495" lon="3.60069">
        <ele>1352</ele>
        <time>2009-07-07T07:53:53Z</time>
      </trkpt>
      <trkpt lat="44.59476" lon="3.60071">
        <ele>1353</ele>
        <time>2009-07-07T07:53:56Z</time>
      </trkpt>
      <trkpt lat="44.59389" lon="3.6008">
        <ele>1349</ele>
        <time>2009-07-07T07:54:11Z</time>
      </trkpt>
      <trkpt lat="44.59338" lon="3.60073">
        <ele>1346</ele>
        <time>2009-07-07T07:54:19Z</time>
      </trkpt>
      <trkpt lat="44.59331" lon="3.60072">
        <ele>1346</ele>
        <time>2009-07-07T07:54:20Z</time>
      </trkpt>
      <trkpt lat="44.59269" lon="3.60055">
        <ele>1343</ele>
        <time>2009-07-07T07:54:28Z</time>
      </trkpt>
      <trkpt lat="44.59254" lon="3.60051">
        <ele>1342</ele>
        <time>2009-07-07T07:54:30Z</time>
      </trkpt>
      <trkpt lat="44.59148" lon="3.60037">
        <ele>1340</ele>
        <time>2009-07-07T07:54:45Z</time>
      </trkpt>
      <trkpt lat="44.59142" lon="3.60039">
        <ele>1339</ele>
        <time>2009-07-07T07:54:46Z</time>
      </trkpt>
      <trkpt lat="44.59128" lon="3.60045">
        <ele>1338</ele>
        <time>2009-07-07T07:54:48Z</time>
      </trkpt>
      <trkpt lat="44.59082" lon="3.60077">
        <ele>1336</ele>
        <time>2009-07-07T07:54:55Z</time>
      </trkpt>
      <trkpt lat="44.59056" lon="3.60099">
        <ele>1333</ele>
        <time>2009-07-07T07:54:59Z</time>
      </trkpt>
      <trkpt lat="44.58954" lon="3.60201">
        <ele>1328</ele>
        <time>2009-07-07T07:55:13Z</time>
      </trkpt>
      <trkpt lat="44.58946" lon="3.60209">
        <ele>1328</ele>
        <time>2009-07-07T07:55:14Z</time>
      </trkpt>
      <trkpt lat="44.58923" lon="3.60235">
        <ele>1324</ele>
        <time>2009-07-07T07:55:17Z</time>
      </trkpt>
      <trkpt lat="44.58916" lon="3.60243">
        <ele>1324</ele>
        <time>2009-07-07T07:55:18Z</time>
      </trkpt>
      <trkpt lat="44.58885" lon="3.60278">
        <ele>1321</ele>
        <time>2009-07-07T07:55:22Z</time>
      </trkpt>
      <trkpt lat="44.58857" lon="3.60318">
        <ele>1318</ele>
        <time>2009-07-07T07:55:26Z</time>
      </trkpt>
      <trkpt lat="44.58851" lon="3.60329">
        <ele>1316</ele>
        <time>2009-07-07T07:55:27Z</time>
      </trkpt>
      <trkpt lat="44.58815" lon="3.60415">
        <ele>1312</ele>
        <time>2009-07-07T07:55:33Z</time>
      </trkpt>
      <trkpt lat="44.58783" lon="3.60479">
        <ele>1309</ele>
        <time>2009-07-07T07:55:38Z</time>
      </trkpt>
      <trkpt lat="44.5877" lon="3.60504">
        <ele>1307</ele>
        <time>2009-07-07T07:55:40Z</time>
      </trkpt>
      <trkpt lat="44.58749" lon="3.60538">
        <ele>1306</ele>
        <time>2009-07-07T07:55:43Z</time>
      </trkpt>
      <trkpt lat="44.5871" lon="3.6059">
        <ele>1303</ele>
        <time>2009-07-07T07:55:48Z</time>
      </trkpt>
      <trkpt lat="44.58696" lon="3.60609">
        <ele>1303</ele>
        <time>2009-07-07T07:55:50Z</time>
      </trkpt>
      <trkpt lat="44.58644" lon="3.60709">
        <ele>1300</ele>
        <time>2009-07-07T07:55:59Z</time>
      </trkpt>
      <trkpt lat="44.58604" lon="3.60748">
        <ele>1297</ele>
        <time>2009-07-07T07:56:04Z</time>
      </trkpt>
      <trkpt lat="44.58579" lon="3.60765">
        <ele>1295</ele>
        <time>2009-07-07T07:56:07Z</time>
      </trkpt>
      <trkpt lat="44.58571" lon="3.60768">
        <ele>1295</ele>
        <time>2009-07-07T07:56:08Z</time>
      </trkpt>
      <trkpt lat="44.58524" lon="3.6075">
        <ele>1293</ele>
        <time>2009-07-07T07:56:14Z</time>
      </trkpt>
      <trkpt lat="44.58501" lon="3.60746">
        <ele>1291</ele>
        <time>2009-07-07T07:56:17Z</time>
      </trkpt>
      <trkpt lat="44.58477" lon="3.60751">
        <ele>1289</ele>
        <time>2009-07-07T07:56:20Z</time>
      </trkpt>
      <trkpt lat="44.58439" lon="3.60807">
        <ele>1286</ele>
        <time>2009-07-07T07:56:27Z</time>
      </trkpt>
      <trkpt lat="44.58434" lon="3.60817">
        <ele>1286</ele>
        <time>2009-07-07T07:56:28Z</time>
      </trkpt>
      <trkpt lat="44.58362" lon="3.60909">
        <ele>1282</ele>
        <time>2009-07-07T07:56:39Z</time>
      </trkpt>
      <trkpt lat="44.58343" lon="3.60945">
        <ele>1281</ele>
        <time>2009-07-07T07:56:43Z</time>
      </trkpt>
      <trkpt lat="44.5831" lon="3.60991">
        <ele>1277</ele>
        <time>2009-07-07T07:56:49Z</time>
      </trkpt>
      <trkpt lat="44.58285" lon="3.61001">
        <ele>1276</ele>
        <time>2009-07-07T07:56:52Z</time>
      </trkpt>
      <trkpt lat="44.58251" lon="3.6101">
        <ele>1275</ele>
        <time>2009-07-07T07:56:56Z</time>
      </trkpt>
      <trkpt lat="44.58236" lon="3.61019">
        <ele>1274</ele>
        <time>2009-07-07T07:56:58Z</time>
      </trkpt>
      <trkpt lat="44.58203" lon="3.61032">
        <ele>1273</ele>
        <time>2009-07-07T07:57:03Z</time>
      </trkpt>
      <trkpt lat="44.58166" lon="3.61039">
        <ele>1269</ele>
        <time>2009-07-07T07:57:08Z</time>
      </trkpt>
      <trkpt lat="44.58093" lon="3.61085">
        <ele>1265</ele>
        <time>2009-07-07T07:57:18Z</time>
      </trkpt>
      <trkpt lat="44.58034" lon="3.61118">
        <ele>1264</ele>
        <time>2009-07-07T07:57:28Z</time>
      </trkpt>
      <trkpt lat="44.58023" lon="3.61126">
        <ele>1262</ele>
        <time>2009-07-07T07:57:30Z</time>
      </trkpt>
      <trkpt lat="44.5797" lon="3.61154">
        <ele>1259</ele>
        <time>2009-07-07T07:57:39Z</time>
      </trkpt>
      <trkpt lat="44.57928" lon="3.61171">
        <ele>1258</ele>
        <time>2009-07-07T07:57:45Z</time>
      </trkpt>
      <trkpt lat="44.57881" lon="3.61193">
        <ele>1256</ele>
        <time>2009-07-07T07:57:52Z</time>
      </trkpt>
      <trkpt lat="44.57796" lon="3.61187">
        <ele>1252</ele>
        <time>2009-07-07T07:58:05Z</time>
      </trkpt>
      <trkpt lat="44.57762" lon="3.6118">
        <ele>1251</ele>
        <time>2009-07-07T07:58:10Z</time>
      </trkpt>
      <trkpt lat="44.57708" lon="3.61155">
        <ele>1249</ele>
        <time>2009-07-07T07:58:18Z</time>
      </trkpt>
      <trkpt lat="44.57671" lon="3.6115">
        <ele>1246</ele>
        <time>2009-07-07T07:58:23Z</time>
      </trkpt>
      <trkpt lat="44.57615" lon="3.61158">
        <ele>1242</ele>
        <time>2009-07-07T07:58:30Z</time>
      </trkpt>
      <trkpt lat="44.57607" lon="3.61159">
        <ele>1242</ele>
        <time>2009-07-07T07:58:31Z</time>
      </trkpt>
      <trkpt lat="44.57555" lon="3.61151">
        <ele>1239</ele>
        <time>2009-07-07T07:58:37Z</time>
      </trkpt>
      <trkpt lat="44.57526" lon="3.61151">
        <ele>1237</ele>
        <time>2009-07-07T07:58:40Z</time>
      </trkpt>
      <trkpt lat="44.57497" lon="3.61159">
        <ele>1234</ele>
        <time>2009-07-07T07:58:43Z</time>
      </trkpt>
      <trkpt lat="44.57487" lon="3.61163">
        <ele>1233</ele>
        <time>2009-07-07T07:58:44Z</time>
      </trkpt>
      <trkpt lat="44.57461" lon="3.61174">
        <ele>1231</ele>
        <time>2009-07-07T07:58:47Z</time>
      </trkpt>
      <trkpt lat="44.57438" lon="3.61182">
        <ele>1230</ele>
        <time>2009-07-07T07:58:50Z</time>
      </trkpt>
      <trkpt lat="44.57418" lon="3.61194">
        <ele>1229</ele>
        <time>2009-07-07T07:58:54Z</time>
      </trkpt>
      <trkpt lat="44.57411" lon="3.612">
        <ele>1227</ele>
        <time>2009-07-07T07:59:02Z</time>
      </trkpt>
      <trkpt lat="44.57412" lon="3.61202">
        <ele>1227</ele>
        <time>2009-07-07T07:59:54Z</time>
      </trkpt>
      <trkpt lat="44.57413" lon="3.61204">
        <ele>1228</ele>
        <time>2009-07-07T08:00:59Z</time>
      </trkpt>
      <trkpt lat="44.57414" lon="3.61204">
        <ele>1226</ele>
        <time>2009-07-07T08:01:13Z</time>
      </trkpt>
      <trkpt lat="44.57414" lon="3.61205">
        <ele>1228</ele>
        <time>2009-07-07T08:01:35Z</time>
      </trkpt>
      <trkpt lat="44.57407" lon="3.61216">
        <ele>1226</ele>
        <time>2009-07-07T08:01:40Z</time>
      </trkpt>
      <trkpt lat="44.57393" lon="3.61234">
        <ele>1222</ele>
        <time>2009-07-07T08:01:44Z</time>
      </trkpt>
      <trkpt lat="44.57388" lon="3.6124">
        <ele>1222</ele>
        <time>2009-07-07T08:01:45Z</time>
      </trkpt>
      <trkpt lat="44.57366" lon="3.61269">
        <ele>1219</ele>
        <time>2009-07-07T08:01:49Z</time>
      </trkpt>
      <trkpt lat="44.57341" lon="3.61307">
        <ele>1216</ele>
        <time>2009-07-07T08:01:53Z</time>
      </trkpt>
      <trkpt lat="44.57303" lon="3.61382">
        <ele>1214</ele>
        <time>2009-07-07T08:02:00Z</time>
      </trkpt>
      <trkpt lat="44.5724" lon="3.61505">
        <ele>1210</ele>
        <time>2009-07-07T08:02:12Z</time>
      </trkpt>
      <trkpt lat="44.57188" lon="3.61581">
        <ele>1207</ele>
        <time>2009-07-07T08:02:20Z</time>
      </trkpt>
      <trkpt lat="44.57174" lon="3.61596">
        <ele>1207</ele>
        <time>2009-07-07T08:02:22Z</time>
      </trkpt>
      <trkpt lat="44.57144" lon="3.61618">
        <ele>1202</ele>
        <time>2009-07-07T08:02:26Z</time>
      </trkpt>
      <trkpt lat="44.57137" lon="3.61623">
        <ele>1201</ele>
        <time>2009-07-07T08:02:27Z</time>
      </trkpt>
      <trkpt lat="44.57113" lon="3.61631">
        <ele>1196</ele>
        <time>2009-07-07T08:02:30Z</time>
      </trkpt>
      <trkpt lat="44.57103" lon="3.61633">
        <ele>1196</ele>
        <time>2009-07-07T08:02:31Z</time>
      </trkpt>
      <trkpt lat="44.57084" lon="3.61637">
        <ele>1192</ele>
        <time>2009-07-07T08:02:33Z</time>
      </trkpt>
      <trkpt lat="44.57044" lon="3.6164">
        <ele>1188</ele>
        <time>2009-07-07T08:02:37Z</time>
      </trkpt>
      <trkpt lat="44.57034" lon="3.61641">
        <ele>1188</ele>
        <time>2009-07-07T08:02:38Z</time>
      </trkpt>
      <trkpt lat="44.56978" lon="3.61646">
        <ele>1182</ele>
        <time>2009-07-07T08:02:43Z</time>
      </trkpt>
      <trkpt lat="44.56955" lon="3.61649">
        <ele>1179</ele>
        <time>2009-07-07T08:02:45Z</time>
      </trkpt>
      <trkpt lat="44.56924" lon="3.61651">
        <ele>1175</ele>
        <time>2009-07-07T08:02:48Z</time>
      </trkpt>
      <trkpt lat="44.56894" lon="3.61651">
        <ele>1175</ele>
        <time>2009-07-07T08:02:53Z</time>
      </trkpt>
      <trkpt lat="44.56881" lon="3.61658">
        <ele>1173</ele>
        <time>2009-07-07T08:02:56Z</time>
      </trkpt>
      <trkpt lat="44.56871" lon="3.61658">
        <ele>1173</ele>
        <time>2009-07-07T08:03:04Z</time>
      </trkpt>
      <trkpt lat="44.56873" lon="3.61655">
        <ele>1172</ele>
        <time>2009-07-07T08:03:45Z</time>
      </trkpt>
      <trkpt lat="44.56874" lon="3.61654">
        <ele>1172</ele>
        <time>2009-07-07T08:04:07Z</time>
      </trkpt>
      <trkpt lat="44.56874" lon="3.61654">
        <ele>1172</ele>
        <time>2009-07-07T08:04:17Z</time>
      </trkpt>
      <trkpt lat="44.56857" lon="3.61651">
        <ele>1171</ele>
        <time>2009-07-07T08:04:26Z</time>
      </trkpt>
      <trkpt lat="44.56852" lon="3.61652">
        <ele>1170</ele>
        <time>2009-07-07T08:04:29Z</time>
      </trkpt>
      <trkpt lat="44.56833" lon="3.61671">
        <ele>1168</ele>
        <time>2009-07-07T08:04:37Z</time>
      </trkpt>
      <trkpt lat="44.56827" lon="3.61705">
        <ele>1167</ele>
        <time>2009-07-07T08:04:43Z</time>
      </trkpt>
      <trkpt lat="44.5681" lon="3.61709">
        <ele>1165</ele>
        <time>2009-07-07T08:04:48Z</time>
      </trkpt>
      <trkpt lat="44.5677" lon="3.61691">
        <ele>1158</ele>
        <time>2009-07-07T08:04:55Z</time>
      </trkpt>
      <trkpt lat="44.56752" lon="3.61683">
        <ele>1156</ele>
        <time>2009-07-07T08:04:58Z</time>
      </trkpt>
      <trkpt lat="44.5673" lon="3.6169">
        <ele>1153</ele>
        <time>2009-07-07T08:05:04Z</time>
      </trkpt>
      <trkpt lat="44.5671" lon="3.61711">
        <ele>1152</ele>
        <time>2009-07-07T08:05:09Z</time>
      </trkpt>
      <trkpt lat="44.56695" lon="3.6171">
        <ele>1152</ele>
        <time>2009-07-07T08:05:13Z</time>
      </trkpt>
      <trkpt lat="44.56677" lon="3.61692">
        <ele>1154</ele>
        <time>2009-07-07T08:05:23Z</time>
      </trkpt>
      <trkpt lat="44.56668" lon="3.61699">
        <ele>1155</ele>
        <time>2009-07-07T08:05:29Z</time>
      </trkpt>
      <trkpt lat="44.56658" lon="3.61719">
        <ele>1159</ele>
        <time>2009-07-07T08:05:39Z</time>
      </trkpt>
      <trkpt lat="44.56656" lon="3.61722">
        <ele>1159</ele>
        <time>2009-07-07T08:05:41Z</time>
      </trkpt>
      <trkpt lat="44.56643" lon="3.61726">
        <ele>1160</ele>
        <time>2009-07-07T08:05:50Z</time>
      </trkpt>
      <trkpt lat="44.56635" lon="3.61739">
        <ele>1161</ele>
        <time>2009-07-07T08:05:56Z</time>
      </trkpt>
      <trkpt lat="44.56609" lon="3.618">
        <ele>1159</ele>
        <time>2009-07-07T08:06:10Z</time>
      </trkpt>
      <trkpt lat="44.56585" lon="3.61839">
        <ele>1160</ele>
        <time>2009-07-07T08:06:21Z</time>
      </trkpt>
      <trkpt lat="44.56554" lon="3.61856">
        <ele>1161</ele>
        <time>2009-07-07T08:06:33Z</time>
      </trkpt>
      <trkpt lat="44.56537" lon="3.61873">
        <ele>1163</ele>
        <time>2009-07-07T08:06:41Z</time>
      </trkpt>
      <trkpt lat="44.56535" lon="3.61878">
        <ele>1163</ele>
        <time>2009-07-07T08:06:43Z</time>
      </trkpt>
      <trkpt lat="44.56515" lon="3.61896">
        <ele>1165</ele>
        <time>2009-07-07T08:06:52Z</time>
      </trkpt>
      <trkpt lat="44.56498" lon="3.619">
        <ele>1168</ele>
        <time>2009-07-07T08:07:03Z</time>
      </trkpt>
      <trkpt lat="44.56478" lon="3.61912">
        <ele>1171</ele>
        <time>2009-07-07T08:07:17Z</time>
      </trkpt>
      <trkpt lat="44.56467" lon="3.61923">
        <ele>1175</ele>
        <time>2009-07-07T08:07:27Z</time>
      </trkpt>
      <trkpt lat="44.56459" lon="3.61931">
        <ele>1178</ele>
        <time>2009-07-07T08:07:35Z</time>
      </trkpt>
      <trkpt lat="44.56446" lon="3.61947">
        <ele>1181</ele>
        <time>2009-07-07T08:07:44Z</time>
      </trkpt>
      <trkpt lat="44.56426" lon="3.61959">
        <ele>1183</ele>
        <time>2009-07-07T08:07:58Z</time>
      </trkpt>
      <trkpt lat="44.56414" lon="3.61961">
        <ele>1184</ele>
        <time>2009-07-07T08:08:06Z</time>
      </trkpt>
      <trkpt lat="44.5639" lon="3.61972">
        <ele>1185</ele>
        <time>2009-07-07T08:08:21Z</time>
      </trkpt>
      <trkpt lat="44.56363" lon="3.6199">
        <ele>1187</ele>
        <time>2009-07-07T08:08:36Z</time>
      </trkpt>
      <trkpt lat="44.56344" lon="3.62002">
        <ele>1189</ele>
        <time>2009-07-07T08:08:44Z</time>
      </trkpt>
      <trkpt lat="44.56342" lon="3.62003">
        <ele>1188</ele>
        <time>2009-07-07T08:08:45Z</time>
      </trkpt>
      <trkpt lat="44.56318" lon="3.62013">
        <ele>1190</ele>
        <time>2009-07-07T08:08:56Z</time>
      </trkpt>
      <trkpt lat="44.5628" lon="3.62018">
        <ele>1193</ele>
        <time>2009-07-07T08:09:12Z</time>
      </trkpt>
      <trkpt lat="44.56251" lon="3.62006">
        <ele>1195</ele>
        <time>2009-07-07T08:09:24Z</time>
      </trkpt>
      <trkpt lat="44.56224" lon="3.61946">
        <ele>1196</ele>
        <time>2009-07-07T08:09:43Z</time>
      </trkpt>
      <trkpt lat="44.56203" lon="3.61896">
        <ele>1198</ele>
        <time>2009-07-07T08:10:00Z</time>
      </trkpt>
      <trkpt lat="44.56173" lon="3.61881">
        <ele>1197</ele>
        <time>2009-07-07T08:10:10Z</time>
      </trkpt>
      <trkpt lat="44.56161" lon="3.61877">
        <ele>1196</ele>
        <time>2009-07-07T08:10:13Z</time>
      </trkpt>
      <trkpt lat="44.56144" lon="3.61879">
        <ele>1196</ele>
        <time>2009-07-07T08:10:17Z</time>
      </trkpt>
      <trkpt lat="44.56105" lon="3.6189">
        <ele>1192</ele>
        <time>2009-07-07T08:10:26Z</time>
      </trkpt>
      <trkpt lat="44.56095" lon="3.61892">
        <ele>1190</ele>
        <time>2009-07-07T08:10:28Z</time>
      </trkpt>
      <trkpt lat="44.56085" lon="3.61897">
        <ele>1189</ele>
        <time>2009-07-07T08:10:30Z</time>
      </trkpt>
      <trkpt lat="44.5608" lon="3.61901">
        <ele>1190</ele>
        <time>2009-07-07T08:10:31Z</time>
      </trkpt>
      <trkpt lat="44.56027" lon="3.6193">
        <ele>1187</ele>
        <time>2009-07-07T08:10:40Z</time>
      </trkpt>
      <trkpt lat="44.55987" lon="3.61953">
        <ele>1184</ele>
        <time>2009-07-07T08:10:47Z</time>
      </trkpt>
      <trkpt lat="44.55981" lon="3.61957">
        <ele>1183</ele>
        <time>2009-07-07T08:10:48Z</time>
      </trkpt>
      <trkpt lat="44.55968" lon="3.61964">
        <ele>1182</ele>
        <time>2009-07-07T08:10:50Z</time>
      </trkpt>
      <trkpt lat="44.55956" lon="3.61972">
        <ele>1181</ele>
        <time>2009-07-07T08:10:52Z</time>
      </trkpt>
      <trkpt lat="44.55945" lon="3.61979">
        <ele>1180</ele>
        <time>2009-07-07T08:10:54Z</time>
      </trkpt>
      <trkpt lat="44.55939" lon="3.61982">
        <ele>1180</ele>
        <time>2009-07-07T08:10:55Z</time>
      </trkpt>
      <trkpt lat="44.55923" lon="3.61993">
        <ele>1179</ele>
        <time>2009-07-07T08:10:58Z</time>
      </trkpt>
      <trkpt lat="44.55906" lon="3.62002">
        <ele>1177</ele>
        <time>2009-07-07T08:11:01Z</time>
      </trkpt>
      <trkpt lat="44.55895" lon="3.62009">
        <ele>1178</ele>
        <time>2009-07-07T08:11:03Z</time>
      </trkpt>
      <trkpt lat="44.55835" lon="3.62034">
        <ele>1173</ele>
        <time>2009-07-07T08:11:13Z</time>
      </trkpt>
      <trkpt lat="44.55828" lon="3.62037">
        <ele>1173</ele>
        <time>2009-07-07T08:11:14Z</time>
      </trkpt>
      <trkpt lat="44.55807" lon="3.62039">
        <ele>1172</ele>
        <time>2009-07-07T08:11:17Z</time>
      </trkpt>
      <trkpt lat="44.55779" lon="3.62039">
        <ele>1170</ele>
        <time>2009-07-07T08:11:23Z</time>
      </trkpt>
      <trkpt lat="44.55772" lon="3.6204">
        <ele>1170</ele>
        <time>2009-07-07T08:11:34Z</time>
      </trkpt>
      <trkpt lat="44.5577" lon="3.62037">
        <ele>1169</ele>
        <time>2009-07-07T08:11:46Z</time>
      </trkpt>
      <trkpt lat="44.55767" lon="3.62048">
        <ele>1170</ele>
        <time>2009-07-07T08:13:35Z</time>
      </trkpt>
      <trkpt lat="44.55764" lon="3.62051">
        <ele>1170</ele>
        <time>2009-07-07T08:13:55Z</time>
      </trkpt>
      <trkpt lat="44.55762" lon="3.6205">
        <ele>1169</ele>
        <time>2009-07-07T08:13:57Z</time>
      </trkpt>
      <trkpt lat="44.5574" lon="3.62063">
        <ele>1168</ele>
        <time>2009-07-07T08:14:08Z</time>
      </trkpt>
      <trkpt lat="44.55741" lon="3.6206">
        <ele>1168</ele>
        <time>2009-07-07T08:14:23Z</time>
      </trkpt>
      <trkpt lat="44.55737" lon="3.62041">
        <ele>1169</ele>
        <time>2009-07-07T08:14:32Z</time>
      </trkpt>
      <trkpt lat="44.5572" lon="3.62035">
        <ele>1168</ele>
        <time>2009-07-07T08:14:44Z</time>
      </trkpt>
      <trkpt lat="44.55723" lon="3.62034">
        <ele>1168</ele>
        <time>2009-07-07T08:14:47Z</time>
      </trkpt>
      <trkpt lat="44.55727" lon="3.62034">
        <ele>1169</ele>
        <time>2009-07-07T08:14:53Z</time>
      </trkpt>
      <trkpt lat="44.55743" lon="3.62056">
        <ele>1168</ele>
        <time>2009-07-07T08:15:05Z</time>
      </trkpt>
      <trkpt lat="44.55727" lon="3.62076">
        <ele>1167</ele>
        <time>2009-07-07T08:15:14Z</time>
      </trkpt>
      <trkpt lat="44.55696" lon="3.62107">
        <ele>1166</ele>
        <time>2009-07-07T08:15:25Z</time>
      </trkpt>
      <trkpt lat="44.55689" lon="3.62112">
        <ele>1165</ele>
        <time>2009-07-07T08:15:27Z</time>
      </trkpt>
      <trkpt lat="44.55675" lon="3.62116">
        <ele>1162</ele>
        <time>2009-07-07T08:15:30Z</time>
      </trkpt>
      <trkpt lat="44.55664" lon="3.62118">
        <ele>1162</ele>
        <time>2009-07-07T08:15:32Z</time>
      </trkpt>
      <trkpt lat="44.5565" lon="3.62117">
        <ele>1160</ele>
        <time>2009-07-07T08:15:35Z</time>
      </trkpt>
      <trkpt lat="44.55605" lon="3.62091">
        <ele>1160</ele>
        <time>2009-07-07T08:15:48Z</time>
      </trkpt>
      <trkpt lat="44.55613" lon="3.62039">
        <ele>1161</ele>
        <time>2009-07-07T08:16:00Z</time>
      </trkpt>
      <trkpt lat="44.55614" lon="3.62027">
        <ele>1163</ele>
        <time>2009-07-07T08:16:03Z</time>
      </trkpt>
      <trkpt lat="44.55608" lon="3.6202">
        <ele>1164</ele>
        <time>2009-07-07T08:16:07Z</time>
      </trkpt>
      <trkpt lat="44.55569" lon="3.62014">
        <ele>1161</ele>
        <time>2009-07-07T08:16:18Z</time>
      </trkpt>
      <trkpt lat="44.55544" lon="3.62011">
        <ele>1159</ele>
        <time>2009-07-07T08:16:23Z</time>
      </trkpt>
      <trkpt lat="44.55456" lon="3.61998">
        <ele>1157</ele>
        <time>2009-07-07T08:16:40Z</time>
      </trkpt>
      <trkpt lat="44.5545" lon="3.61998">
        <ele>1156</ele>
        <time>2009-07-07T08:16:41Z</time>
      </trkpt>
      <trkpt lat="44.55364" lon="3.61998">
        <ele>1156</ele>
        <time>2009-07-07T08:16:57Z</time>
      </trkpt>
      <trkpt lat="44.55327" lon="3.62002">
        <ele>1153</ele>
        <time>2009-07-07T08:17:04Z</time>
      </trkpt>
      <trkpt lat="44.55284" lon="3.62011">
        <ele>1152</ele>
        <time>2009-07-07T08:17:12Z</time>
      </trkpt>
      <trkpt lat="44.55271" lon="3.62012">
        <ele>1151</ele>
        <time>2009-07-07T08:17:14Z</time>
      </trkpt>
      <trkpt lat="44.55238" lon="3.62013">
        <ele>1149</ele>
        <time>2009-07-07T08:17:19Z</time>
      </trkpt>
      <trkpt lat="44.55215" lon="3.62048">
        <ele>1147</ele>
        <time>2009-07-07T08:17:27Z</time>
      </trkpt>
      <trkpt lat="44.55219" lon="3.6206">
        <ele>1147</ele>
        <time>2009-07-07T08:17:29Z</time>
      </trkpt>
      <trkpt lat="44.55245" lon="3.62126">
        <ele>1145</ele>
        <time>2009-07-07T08:17:40Z</time>
      </trkpt>
      <trkpt lat="44.55258" lon="3.62169">
        <ele>1142</ele>
        <time>2009-07-07T08:17:47Z</time>
      </trkpt>
      <trkpt lat="44.5527" lon="3.62201">
        <ele>1141</ele>
        <time>2009-07-07T08:17:51Z</time>
      </trkpt>
      <trkpt lat="44.55289" lon="3.62248">
        <ele>1136</ele>
        <time>2009-07-07T08:17:56Z</time>
      </trkpt>
      <trkpt lat="44.55301" lon="3.6232">
        <ele>1134</ele>
        <time>2009-07-07T08:18:03Z</time>
      </trkpt>
      <trkpt lat="44.55304" lon="3.62329">
        <ele>1134</ele>
        <time>2009-07-07T08:18:04Z</time>
      </trkpt>
      <trkpt lat="44.5532" lon="3.62367">
        <ele>1129</ele>
        <time>2009-07-07T08:18:08Z</time>
      </trkpt>
      <trkpt lat="44.55325" lon="3.62377">
        <ele>1128</ele>
        <time>2009-07-07T08:18:09Z</time>
      </trkpt>
      <trkpt lat="44.55352" lon="3.62404">
        <ele>1125</ele>
        <time>2009-07-07T08:18:13Z</time>
      </trkpt>
      <trkpt lat="44.5536" lon="3.62406">
        <ele>1125</ele>
        <time>2009-07-07T08:18:14Z</time>
      </trkpt>
      <trkpt lat="44.55381" lon="3.62408">
        <ele>1125</ele>
        <time>2009-07-07T08:18:17Z</time>
      </trkpt>
      <trkpt lat="44.55386" lon="3.62424">
        <ele>1124</ele>
        <time>2009-07-07T08:18:25Z</time>
      </trkpt>
      <trkpt lat="44.55377" lon="3.6243">
        <ele>1124</ele>
        <time>2009-07-07T08:18:30Z</time>
      </trkpt>
      <trkpt lat="44.55372" lon="3.62434">
        <ele>1124</ele>
        <time>2009-07-07T08:18:38Z</time>
      </trkpt>
      <trkpt lat="44.55369" lon="3.62439">
        <ele>1123</ele>
        <time>2009-07-07T08:18:49Z</time>
      </trkpt>
      <trkpt lat="44.55368" lon="3.62439">
        <ele>1123</ele>
        <time>2009-07-07T08:19:40Z</time>
      </trkpt>
      <trkpt lat="44.55355" lon="3.62447">
        <ele>1119</ele>
        <time>2009-07-07T08:19:45Z</time>
      </trkpt>
      <trkpt lat="44.55348" lon="3.62459">
        <ele>1118</ele>
        <time>2009-07-07T08:19:47Z</time>
      </trkpt>
      <trkpt lat="44.55342" lon="3.62473">
        <ele>1120</ele>
        <time>2009-07-07T08:19:49Z</time>
      </trkpt>
      <trkpt lat="44.55343" lon="3.62502">
        <ele>1121</ele>
        <time>2009-07-07T08:19:54Z</time>
      </trkpt>
      <trkpt lat="44.55344" lon="3.62506">
        <ele>1121</ele>
        <time>2009-07-07T08:19:55Z</time>
      </trkpt>
      <trkpt lat="44.55354" lon="3.62521">
        <ele>1121</ele>
        <time>2009-07-07T08:20:00Z</time>
      </trkpt>
      <trkpt lat="44.5538" lon="3.62539">
        <ele>1121</ele>
        <time>2009-07-07T08:20:07Z</time>
      </trkpt>
      <trkpt lat="44.55392" lon="3.62548">
        <ele>1123</ele>
        <time>2009-07-07T08:20:12Z</time>
      </trkpt>
      <trkpt lat="44.55403" lon="3.62555">
        <ele>1124</ele>
        <time>2009-07-07T08:20:19Z</time>
      </trkpt>
      <trkpt lat="44.55422" lon="3.62586">
        <ele>1127</ele>
        <time>2009-07-07T08:20:32Z</time>
      </trkpt>
      <trkpt lat="44.55426" lon="3.62593">
        <ele>1129</ele>
        <time>2009-07-07T08:20:35Z</time>
      </trkpt>
      <trkpt lat="44.55434" lon="3.62608">
        <ele>1131</ele>
        <time>2009-07-07T08:20:42Z</time>
      </trkpt>
      <trkpt lat="44.55439" lon="3.62629">
        <ele>1133</ele>
        <time>2009-07-07T08:20:50Z</time>
      </trkpt>
      <trkpt lat="44.55444" lon="3.6266">
        <ele>1136</ele>
        <time>2009-07-07T08:21:03Z</time>
      </trkpt>
      <trkpt lat="44.55439" lon="3.62681">
        <ele>1140</ele>
        <time>2009-07-07T08:21:12Z</time>
      </trkpt>
      <trkpt lat="44.55431" lon="3.62685">
        <ele>1141</ele>
        <time>2009-07-07T08:21:17Z</time>
      </trkpt>
      <trkpt lat="44.5541" lon="3.62706">
        <ele>1145</ele>
        <time>2009-07-07T08:21:30Z</time>
      </trkpt>
      <trkpt lat="44.5537" lon="3.62738">
        <ele>1148</ele>
        <time>2009-07-07T08:21:53Z</time>
      </trkpt>
      <trkpt lat="44.55334" lon="3.62766">
        <ele>1150</ele>
        <time>2009-07-07T08:22:13Z</time>
      </trkpt>
      <trkpt lat="44.55314" lon="3.62776">
        <ele>1154</ele>
        <time>2009-07-07T08:22:24Z</time>
      </trkpt>
      <trkpt lat="44.55276" lon="3.62787">
        <ele>1156</ele>
        <time>2009-07-07T08:22:45Z</time>
      </trkpt>
      <trkpt lat="44.55253" lon="3.62793">
        <ele>1161</ele>
        <time>2009-07-07T08:22:57Z</time>
      </trkpt>
      <trkpt lat="44.55251" lon="3.62795">
        <ele>1161</ele>
        <time>2009-07-07T08:22:58Z</time>
      </trkpt>
      <trkpt lat="44.55211" lon="3.62815">
        <ele>1163</ele>
        <time>2009-07-07T08:23:17Z</time>
      </trkpt>
      <trkpt lat="44.5517" lon="3.62833">
        <ele>1166</ele>
        <time>2009-07-07T08:23:34Z</time>
      </trkpt>
      <trkpt lat="44.55125" lon="3.62845">
        <ele>1167</ele>
        <time>2009-07-07T08:23:52Z</time>
      </trkpt>
      <trkpt lat="44.55091" lon="3.62862">
        <ele>1170</ele>
        <time>2009-07-07T08:24:06Z</time>
      </trkpt>
      <trkpt lat="44.55081" lon="3.62875">
        <ele>1171</ele>
        <time>2009-07-07T08:24:11Z</time>
      </trkpt>
      <trkpt lat="44.55066" lon="3.62881">
        <ele>1170</ele>
        <time>2009-07-07T08:24:17Z</time>
      </trkpt>
      <trkpt lat="44.55013" lon="3.62874">
        <ele>1169</ele>
        <time>2009-07-07T08:24:33Z</time>
      </trkpt>
      <trkpt lat="44.54986" lon="3.62862">
        <ele>1168</ele>
        <time>2009-07-07T08:24:40Z</time>
      </trkpt>
      <trkpt lat="44.54971" lon="3.62858">
        <ele>1168</ele>
        <time>2009-07-07T08:24:44Z</time>
      </trkpt>
      <trkpt lat="44.54904" lon="3.62831">
        <ele>1170</ele>
        <time>2009-07-07T08:25:03Z</time>
      </trkpt>
      <trkpt lat="44.54887" lon="3.62839">
        <ele>1170</ele>
        <time>2009-07-07T08:25:08Z</time>
      </trkpt>
      <trkpt lat="44.54868" lon="3.62834">
        <ele>1170</ele>
        <time>2009-07-07T08:25:13Z</time>
      </trkpt>
      <trkpt lat="44.54793" lon="3.62844">
        <ele>1168</ele>
        <time>2009-07-07T08:25:31Z</time>
      </trkpt>
      <trkpt lat="44.54723" lon="3.62866">
        <ele>1167</ele>
        <time>2009-07-07T08:25:48Z</time>
      </trkpt>
      <trkpt lat="44.54693" lon="3.62876">
        <ele>1166</ele>
        <time>2009-07-07T08:25:56Z</time>
      </trkpt>
      <trkpt lat="44.54652" lon="3.62895">
        <ele>1164</ele>
        <time>2009-07-07T08:26:06Z</time>
      </trkpt>
      <trkpt lat="44.5463" lon="3.62897">
        <ele>1163</ele>
        <time>2009-07-07T08:26:11Z</time>
      </trkpt>
      <trkpt lat="44.54561" lon="3.62905">
        <ele>1160</ele>
        <time>2009-07-07T08:26:26Z</time>
      </trkpt>
      <trkpt lat="44.54529" lon="3.62911">
        <ele>1159</ele>
        <time>2009-07-07T08:26:32Z</time>
      </trkpt>
      <trkpt lat="44.54508" lon="3.62916">
        <ele>1158</ele>
        <time>2009-07-07T08:26:36Z</time>
      </trkpt>
      <trkpt lat="44.54492" lon="3.62924">
        <ele>1156</ele>
        <time>2009-07-07T08:26:39Z</time>
      </trkpt>
      <trkpt lat="44.54432" lon="3.62942">
        <ele>1153</ele>
        <time>2009-07-07T08:26:49Z</time>
      </trkpt>
      <trkpt lat="44.54426" lon="3.62944">
        <ele>1152</ele>
        <time>2009-07-07T08:26:50Z</time>
      </trkpt>
      <trkpt lat="44.54381" lon="3.62946">
        <ele>1149</ele>
        <time>2009-07-07T08:26:58Z</time>
      </trkpt>
      <trkpt lat="44.54357" lon="3.62946">
        <ele>1147</ele>
        <time>2009-07-07T08:27:02Z</time>
      </trkpt>
      <trkpt lat="44.54351" lon="3.62947">
        <ele>1146</ele>
        <time>2009-07-07T08:27:03Z</time>
      </trkpt>
      <trkpt lat="44.54307" lon="3.62954">
        <ele>1143</ele>
        <time>2009-07-07T08:27:09Z</time>
      </trkpt>
      <trkpt lat="44.54268" lon="3.6296">
        <ele>1139</ele>
        <time>2009-07-07T08:27:14Z</time>
      </trkpt>
      <trkpt lat="44.5426" lon="3.62962">
        <ele>1139</ele>
        <time>2009-07-07T08:27:15Z</time>
      </trkpt>
      <trkpt lat="44.54246" lon="3.62965">
        <ele>1140</ele>
        <time>2009-07-07T08:27:17Z</time>
      </trkpt>
      <trkpt lat="44.54226" lon="3.62964">
        <ele>1137</ele>
        <time>2009-07-07T08:27:20Z</time>
      </trkpt>
      <trkpt lat="44.54189" lon="3.62959">
        <ele>1134</ele>
        <time>2009-07-07T08:27:25Z</time>
      </trkpt>
      <trkpt lat="44.5415" lon="3.62945">
        <ele>1128</ele>
        <time>2009-07-07T08:27:30Z</time>
      </trkpt>
      <trkpt lat="44.54135" lon="3.62945">
        <ele>1126</ele>
        <time>2009-07-07T08:27:32Z</time>
      </trkpt>
      <trkpt lat="44.54113" lon="3.62929">
        <ele>1123</ele>
        <time>2009-07-07T08:27:36Z</time>
      </trkpt>
      <trkpt lat="44.54084" lon="3.62875">
        <ele>1120</ele>
        <time>2009-07-07T08:27:43Z</time>
      </trkpt>
      <trkpt lat="44.54072" lon="3.62846">
        <ele>1117</ele>
        <time>2009-07-07T08:27:46Z</time>
      </trkpt>
      <trkpt lat="44.54067" lon="3.62837">
        <ele>1117</ele>
        <time>2009-07-07T08:27:47Z</time>
      </trkpt>
      <trkpt lat="44.54043" lon="3.62806">
        <ele>1111</ele>
        <time>2009-07-07T08:27:52Z</time>
      </trkpt>
      <trkpt lat="44.54039" lon="3.628">
        <ele>1111</ele>
        <time>2009-07-07T08:27:53Z</time>
      </trkpt>
      <trkpt lat="44.5403" lon="3.62779">
        <ele>1107</ele>
        <time>2009-07-07T08:27:56Z</time>
      </trkpt>
      <trkpt lat="44.5401" lon="3.62745">
        <ele>1102</ele>
        <time>2009-07-07T08:28:01Z</time>
      </trkpt>
      <trkpt lat="44.54005" lon="3.6274">
        <ele>1101</ele>
        <time>2009-07-07T08:28:02Z</time>
      </trkpt>
      <trkpt lat="44.53991" lon="3.62719">
        <ele>1097</ele>
        <time>2009-07-07T08:28:05Z</time>
      </trkpt>
      <trkpt lat="44.53984" lon="3.62706">
        <ele>1096</ele>
        <time>2009-07-07T08:28:07Z</time>
      </trkpt>
      <trkpt lat="44.53968" lon="3.62683">
        <ele>1094</ele>
        <time>2009-07-07T08:28:11Z</time>
      </trkpt>
      <trkpt lat="44.53953" lon="3.6267">
        <ele>1090</ele>
        <time>2009-07-07T08:28:14Z</time>
      </trkpt>
      <trkpt lat="44.53947" lon="3.62665">
        <ele>1090</ele>
        <time>2009-07-07T08:28:15Z</time>
      </trkpt>
      <trkpt lat="44.53932" lon="3.62656">
        <ele>1088</ele>
        <time>2009-07-07T08:28:17Z</time>
      </trkpt>
      <trkpt lat="44.53917" lon="3.62646">
        <ele>1085</ele>
        <time>2009-07-07T08:28:19Z</time>
      </trkpt>
      <trkpt lat="44.5389" lon="3.62625">
        <ele>1084</ele>
        <time>2009-07-07T08:28:27Z</time>
      </trkpt>
      <trkpt lat="44.53891" lon="3.62625">
        <ele>1084</ele>
        <time>2009-07-07T08:28:44Z</time>
      </trkpt>
      <trkpt lat="44.53892" lon="3.62621">
        <ele>1083</ele>
        <time>2009-07-07T08:28:56Z</time>
      </trkpt>
      <trkpt lat="44.53887" lon="3.62624">
        <ele>1085</ele>
        <time>2009-07-07T08:30:22Z</time>
      </trkpt>
      <trkpt lat="44.53889" lon="3.62624">
        <ele>1085</ele>
        <time>2009-07-07T08:30:46Z</time>
      </trkpt>
      <trkpt lat="44.5389" lon="3.62623">
        <ele>1085</ele>
        <time>2009-07-07T08:31:11Z</time>
      </trkpt>
      <trkpt lat="44.53888" lon="3.62623">
        <ele>1087</ele>
        <time>2009-07-07T08:31:26Z</time>
      </trkpt>
      <trkpt lat="44.53888" lon="3.62623">
        <ele>1086</ele>
        <time>2009-07-07T08:31:38Z</time>
      </trkpt>
      <trkpt lat="44.53887" lon="3.62623">
        <ele>1086</ele>
        <time>2009-07-07T08:31:53Z</time>
      </trkpt>
      <trkpt lat="44.53878" lon="3.62615">
        <ele>1084</ele>
        <time>2009-07-07T08:34:32Z</time>
      </trkpt>
      <trkpt lat="44.53867" lon="3.62608">
        <ele>1081</ele>
        <time>2009-07-07T08:34:36Z</time>
      </trkpt>
      <trkpt lat="44.53847" lon="3.62599">
        <ele>1080</ele>
        <time>2009-07-07T08:34:40Z</time>
      </trkpt>
      <trkpt lat="44.53822" lon="3.62584">
        <ele>1078</ele>
        <time>2009-07-07T08:34:45Z</time>
      </trkpt>
      <trkpt lat="44.53768" lon="3.62566">
        <ele>1075</ele>
        <time>2009-07-07T08:34:55Z</time>
      </trkpt>
      <trkpt lat="44.53737" lon="3.62561">
        <ele>1072</ele>
        <time>2009-07-07T08:35:00Z</time>
      </trkpt>
      <trkpt lat="44.53731" lon="3.6256">
        <ele>1072</ele>
        <time>2009-07-07T08:35:01Z</time>
      </trkpt>
      <trkpt lat="44.53703" lon="3.62553">
        <ele>1070</ele>
        <time>2009-07-07T08:35:05Z</time>
      </trkpt>
      <trkpt lat="44.53654" lon="3.62543">
        <ele>1067</ele>
        <time>2009-07-07T08:35:12Z</time>
      </trkpt>
      <trkpt lat="44.53641" lon="3.62542">
        <ele>1067</ele>
        <time>2009-07-07T08:35:14Z</time>
      </trkpt>
      <trkpt lat="44.53623" lon="3.62544">
        <ele>1067</ele>
        <time>2009-07-07T08:35:22Z</time>
      </trkpt>
      <trkpt lat="44.53614" lon="3.62546">
        <ele>1067</ele>
        <time>2009-07-07T08:35:31Z</time>
      </trkpt>
      <trkpt lat="44.53575" lon="3.6255">
        <ele>1068</ele>
        <time>2009-07-07T08:35:47Z</time>
      </trkpt>
      <trkpt lat="44.53548" lon="3.62544">
        <ele>1071</ele>
        <time>2009-07-07T08:35:57Z</time>
      </trkpt>
      <trkpt lat="44.5351" lon="3.62536">
        <ele>1075</ele>
        <time>2009-07-07T08:36:11Z</time>
      </trkpt>
      <trkpt lat="44.53507" lon="3.62536">
        <ele>1075</ele>
        <time>2009-07-07T08:36:12Z</time>
      </trkpt>
      <trkpt lat="44.53475" lon="3.62537">
        <ele>1077</ele>
        <time>2009-07-07T08:36:25Z</time>
      </trkpt>
      <trkpt lat="44.53466" lon="3.62545">
        <ele>1079</ele>
        <time>2009-07-07T08:36:29Z</time>
      </trkpt>
      <trkpt lat="44.53459" lon="3.62548">
        <ele>1079</ele>
        <time>2009-07-07T08:36:32Z</time>
      </trkpt>
      <trkpt lat="44.53414" lon="3.62565">
        <ele>1082</ele>
        <time>2009-07-07T08:36:50Z</time>
      </trkpt>
      <trkpt lat="44.53372" lon="3.62577">
        <ele>1086</ele>
        <time>2009-07-07T08:37:06Z</time>
      </trkpt>
      <trkpt lat="44.53338" lon="3.62584">
        <ele>1086</ele>
        <time>2009-07-07T08:37:17Z</time>
      </trkpt>
      <trkpt lat="44.53279" lon="3.6258">
        <ele>1084</ele>
        <time>2009-07-07T08:37:33Z</time>
      </trkpt>
      <trkpt lat="44.53233" lon="3.62579">
        <ele>1082</ele>
        <time>2009-07-07T08:37:46Z</time>
      </trkpt>
      <trkpt lat="44.53192" lon="3.62575">
        <ele>1081</ele>
        <time>2009-07-07T08:37:58Z</time>
      </trkpt>
      <trkpt lat="44.53162" lon="3.62565">
        <ele>1082</ele>
        <time>2009-07-07T08:38:07Z</time>
      </trkpt>
      <trkpt lat="44.53128" lon="3.62557">
        <ele>1081</ele>
        <time>2009-07-07T08:38:17Z</time>
      </trkpt>
      <trkpt lat="44.53061" lon="3.62554">
        <ele>1082</ele>
        <time>2009-07-07T08:38:33Z</time>
      </trkpt>
      <trkpt lat="44.53033" lon="3.62546">
        <ele>1083</ele>
        <time>2009-07-07T08:38:42Z</time>
      </trkpt>
      <trkpt lat="44.53029" lon="3.62544">
        <ele>1082</ele>
        <time>2009-07-07T08:38:43Z</time>
      </trkpt>
      <trkpt lat="44.52991" lon="3.62535">
        <ele>1080</ele>
        <time>2009-07-07T08:38:52Z</time>
      </trkpt>
      <trkpt lat="44.52983" lon="3.62528">
        <ele>1080</ele>
        <time>2009-07-07T08:38:54Z</time>
      </trkpt>
      <trkpt lat="44.52976" lon="3.62518">
        <ele>1079</ele>
        <time>2009-07-07T08:38:56Z</time>
      </trkpt>
      <trkpt lat="44.52947" lon="3.62497">
        <ele>1075</ele>
        <time>2009-07-07T08:39:03Z</time>
      </trkpt>
      <trkpt lat="44.52933" lon="3.62484">
        <ele>1073</ele>
        <time>2009-07-07T08:39:06Z</time>
      </trkpt>
      <trkpt lat="44.52923" lon="3.62477">
        <ele>1072</ele>
        <time>2009-07-07T08:39:08Z</time>
      </trkpt>
      <trkpt lat="44.52898" lon="3.62465">
        <ele>1070</ele>
        <time>2009-07-07T08:39:13Z</time>
      </trkpt>
      <trkpt lat="44.52885" lon="3.62461">
        <ele>1069</ele>
        <time>2009-07-07T08:39:15Z</time>
      </trkpt>
      <trkpt lat="44.52879" lon="3.62459">
        <ele>1068</ele>
        <time>2009-07-07T08:39:16Z</time>
      </trkpt>
      <trkpt lat="44.52845" lon="3.6246">
        <ele>1066</ele>
        <time>2009-07-07T08:39:20Z</time>
      </trkpt>
      <trkpt lat="44.52813" lon="3.62464">
        <ele>1063</ele>
        <time>2009-07-07T08:39:23Z</time>
      </trkpt>
      <trkpt lat="44.52799" lon="3.62454">
        <ele>1062</ele>
        <time>2009-07-07T08:39:26Z</time>
      </trkpt>
      <trkpt lat="44.52761" lon="3.62446">
        <ele>1058</ele>
        <time>2009-07-07T08:39:33Z</time>
      </trkpt>
      <trkpt lat="44.52734" lon="3.62444">
        <ele>1055</ele>
        <time>2009-07-07T08:39:36Z</time>
      </trkpt>
      <trkpt lat="44.52686" lon="3.62436">
        <ele>1052</ele>
        <time>2009-07-07T08:39:43Z</time>
      </trkpt>
      <trkpt lat="44.52679" lon="3.62433">
        <ele>1052</ele>
        <time>2009-07-07T08:39:44Z</time>
      </trkpt>
      <trkpt lat="44.52654" lon="3.62419">
        <ele>1050</ele>
        <time>2009-07-07T08:39:48Z</time>
      </trkpt>
      <trkpt lat="44.52633" lon="3.62414">
        <ele>1048</ele>
        <time>2009-07-07T08:39:51Z</time>
      </trkpt>
      <trkpt lat="44.52626" lon="3.6241">
        <ele>1047</ele>
        <time>2009-07-07T08:39:52Z</time>
      </trkpt>
      <trkpt lat="44.52607" lon="3.62401">
        <ele>1046</ele>
        <time>2009-07-07T08:39:55Z</time>
      </trkpt>
      <trkpt lat="44.52586" lon="3.62388">
        <ele>1042</ele>
        <time>2009-07-07T08:39:59Z</time>
      </trkpt>
      <trkpt lat="44.52581" lon="3.62384">
        <ele>1041</ele>
        <time>2009-07-07T08:40:00Z</time>
      </trkpt>
      <trkpt lat="44.52571" lon="3.62382">
        <ele>1040</ele>
        <time>2009-07-07T08:40:02Z</time>
      </trkpt>
      <trkpt lat="44.52553" lon="3.62384">
        <ele>1035</ele>
        <time>2009-07-07T08:40:05Z</time>
      </trkpt>
      <trkpt lat="44.52547" lon="3.62385">
        <ele>1033</ele>
        <time>2009-07-07T08:40:06Z</time>
      </trkpt>
      <trkpt lat="44.52522" lon="3.62388">
        <ele>1030</ele>
        <time>2009-07-07T08:40:10Z</time>
      </trkpt>
      <trkpt lat="44.52513" lon="3.6239">
        <ele>1029</ele>
        <time>2009-07-07T08:40:12Z</time>
      </trkpt>
      <trkpt lat="44.52502" lon="3.62392">
        <ele>1029</ele>
        <time>2009-07-07T08:40:20Z</time>
      </trkpt>
      <trkpt lat="44.525" lon="3.62401">
        <ele>1026</ele>
        <time>2009-07-07T08:40:36Z</time>
      </trkpt>
      <trkpt lat="44.52496" lon="3.62403">
        <ele>1023</ele>
        <time>2009-07-07T08:40:38Z</time>
      </trkpt>
      <trkpt lat="44.52479" lon="3.62408">
        <ele>1021</ele>
        <time>2009-07-07T08:40:44Z</time>
      </trkpt>
      <trkpt lat="44.52476" lon="3.62408">
        <ele>1019</ele>
        <time>2009-07-07T08:40:56Z</time>
      </trkpt>
      <trkpt lat="44.52468" lon="3.62409">
        <ele>1017</ele>
        <time>2009-07-07T08:41:10Z</time>
      </trkpt>
      <trkpt lat="44.52463" lon="3.62415">
        <ele>1016</ele>
        <time>2009-07-07T08:41:21Z</time>
      </trkpt>
      <trkpt lat="44.52453" lon="3.62424">
        <ele>1014</ele>
        <time>2009-07-07T08:41:33Z</time>
      </trkpt>
      <trkpt lat="44.5245" lon="3.62425">
        <ele>1013</ele>
        <time>2009-07-07T08:41:35Z</time>
      </trkpt>
      <trkpt lat="44.52449" lon="3.62423">
        <ele>1012</ele>
        <time>2009-07-07T08:41:56Z</time>
      </trkpt>
      <trkpt lat="44.52446" lon="3.62426">
        <ele>1012</ele>
        <time>2009-07-07T08:42:36Z</time>
      </trkpt>
      <trkpt lat="44.52443" lon="3.62423">
        <ele>1012</ele>
        <time>2009-07-07T08:42:49Z</time>
      </trkpt>
      <trkpt lat="44.52442" lon="3.62423">
        <ele>1011</ele>
        <time>2009-07-07T08:42:50Z</time>
      </trkpt>
      <trkpt lat="44.52427" lon="3.62433">
        <ele>1006</ele>
        <time>2009-07-07T08:42:57Z</time>
      </trkpt>
      <trkpt lat="44.5242" lon="3.62437">
        <ele>1005</ele>
        <time>2009-07-07T08:42:59Z</time>
      </trkpt>
      <trkpt lat="44.52401" lon="3.62439">
        <ele>1000</ele>
        <time>2009-07-07T08:43:04Z</time>
      </trkpt>
      <trkpt lat="44.52373" lon="3.62434">
        <ele>998</ele>
        <time>2009-07-07T08:43:10Z</time>
      </trkpt>
      <trkpt lat="44.52348" lon="3.62439">
        <ele>995</ele>
        <time>2009-07-07T08:43:16Z</time>
      </trkpt>
      <trkpt lat="44.52339" lon="3.62436">
        <ele>991</ele>
        <time>2009-07-07T08:43:18Z</time>
      </trkpt>
      <trkpt lat="44.52316" lon="3.6243">
        <ele>990</ele>
        <time>2009-07-07T08:43:26Z</time>
      </trkpt>
      <trkpt lat="44.52312" lon="3.62438">
        <ele>988</ele>
        <time>2009-07-07T08:43:46Z</time>
      </trkpt>
      <trkpt lat="44.52311" lon="3.62441">
        <ele>987</ele>
        <time>2009-07-07T08:43:49Z</time>
      </trkpt>
      <trkpt lat="44.52305" lon="3.6245">
        <ele>984</ele>
        <time>2009-07-07T08:44:03Z</time>
      </trkpt>
      <trkpt lat="44.52304" lon="3.62451">
        <ele>983</ele>
        <time>2009-07-07T08:44:05Z</time>
      </trkpt>
      <trkpt lat="44.52299" lon="3.62454">
        <ele>982</ele>
        <time>2009-07-07T08:44:09Z</time>
      </trkpt>
      <trkpt lat="44.52293" lon="3.62463">
        <ele>979</ele>
        <time>2009-07-07T08:44:21Z</time>
      </trkpt>
      <trkpt lat="44.52294" lon="3.62473">
        <ele>977</ele>
        <time>2009-07-07T08:44:39Z</time>
      </trkpt>
      <trkpt lat="44.52293" lon="3.62476">
        <ele>976</ele>
        <time>2009-07-07T08:44:43Z</time>
      </trkpt>
      <trkpt lat="44.52289" lon="3.6248">
        <ele>973</ele>
        <time>2009-07-07T08:44:54Z</time>
      </trkpt>
      <trkpt lat="44.52288" lon="3.62481">
        <ele>973</ele>
        <time>2009-07-07T08:44:55Z</time>
      </trkpt>
      <trkpt lat="44.52287" lon="3.62484">
        <ele>972</ele>
        <time>2009-07-07T08:45:03Z</time>
      </trkpt>
      <trkpt lat="44.52284" lon="3.62493">
        <ele>969</ele>
        <time>2009-07-07T08:45:16Z</time>
      </trkpt>
      <trkpt lat="44.52282" lon="3.62499">
        <ele>965</ele>
        <time>2009-07-07T08:45:25Z</time>
      </trkpt>
      <trkpt lat="44.52281" lon="3.62501">
        <ele>964</ele>
        <time>2009-07-07T08:45:27Z</time>
      </trkpt>
      <trkpt lat="44.52276" lon="3.62509">
        <ele>963</ele>
        <time>2009-07-07T08:45:41Z</time>
      </trkpt>
      <trkpt lat="44.52274" lon="3.6251">
        <ele>962</ele>
        <time>2009-07-07T08:45:44Z</time>
      </trkpt>
      <trkpt lat="44.52254" lon="3.62514">
        <ele>957</ele>
        <time>2009-07-07T08:45:52Z</time>
      </trkpt>
      <trkpt lat="44.52251" lon="3.62515">
        <ele>957</ele>
        <time>2009-07-07T08:45:53Z</time>
      </trkpt>
      <trkpt lat="44.52236" lon="3.62524">
        <ele>952</ele>
        <time>2009-07-07T08:45:59Z</time>
      </trkpt>
      <trkpt lat="44.52234" lon="3.62525">
        <ele>952</ele>
        <time>2009-07-07T08:46:00Z</time>
      </trkpt>
      <trkpt lat="44.52231" lon="3.62525">
        <ele>950</ele>
        <time>2009-07-07T08:46:02Z</time>
      </trkpt>
      <trkpt lat="44.52224" lon="3.62525">
        <ele>946</ele>
        <time>2009-07-07T08:46:05Z</time>
      </trkpt>
      <trkpt lat="44.52216" lon="3.62525">
        <ele>942</ele>
        <time>2009-07-07T08:46:08Z</time>
      </trkpt>
      <trkpt lat="44.52214" lon="3.62525">
        <ele>942</ele>
        <time>2009-07-07T08:46:09Z</time>
      </trkpt>
      <trkpt lat="44.5221" lon="3.62524">
        <ele>941</ele>
        <time>2009-07-07T08:46:11Z</time>
      </trkpt>
      <trkpt lat="44.52201" lon="3.62527">
        <ele>938</ele>
        <time>2009-07-07T08:46:15Z</time>
      </trkpt>
      <trkpt lat="44.52198" lon="3.62527">
        <ele>937</ele>
        <time>2009-07-07T08:46:16Z</time>
      </trkpt>
      <trkpt lat="44.52187" lon="3.62525">
        <ele>933</ele>
        <time>2009-07-07T08:46:21Z</time>
      </trkpt>
      <trkpt lat="44.52176" lon="3.6252">
        <ele>932</ele>
        <time>2009-07-07T08:46:25Z</time>
      </trkpt>
      <trkpt lat="44.52154" lon="3.62506">
        <ele>928</ele>
        <time>2009-07-07T08:46:33Z</time>
      </trkpt>
      <trkpt lat="44.5215" lon="3.62502">
        <ele>927</ele>
        <time>2009-07-07T08:46:35Z</time>
      </trkpt>
      <trkpt lat="44.52135" lon="3.62509">
        <ele>923</ele>
        <time>2009-07-07T08:46:40Z</time>
      </trkpt>
      <trkpt lat="44.52132" lon="3.62511">
        <ele>924</ele>
        <time>2009-07-07T08:46:41Z</time>
      </trkpt>
      <trkpt lat="44.52126" lon="3.62519">
        <ele>922</ele>
        <time>2009-07-07T08:46:44Z</time>
      </trkpt>
      <trkpt lat="44.5212" lon="3.62524">
        <ele>921</ele>
        <time>2009-07-07T08:46:46Z</time>
      </trkpt>
      <trkpt lat="44.52114" lon="3.62529">
        <ele>920</ele>
        <time>2009-07-07T08:46:55Z</time>
      </trkpt>
      <trkpt lat="44.52113" lon="3.6253">
        <ele>920</ele>
        <time>2009-07-07T08:46:57Z</time>
      </trkpt>
      <trkpt lat="44.52108" lon="3.62535">
        <ele>920</ele>
        <time>2009-07-07T08:47:02Z</time>
      </trkpt>
      <trkpt lat="44.52106" lon="3.62542">
        <ele>919</ele>
        <time>2009-07-07T08:47:15Z</time>
      </trkpt>
      <trkpt lat="44.52106" lon="3.62546">
        <ele>920</ele>
        <time>2009-07-07T08:50:19Z</time>
      </trkpt>
      <trkpt lat="44.52106" lon="3.62546">
        <ele>920</ele>
        <time>2009-07-07T08:51:10Z</time>
      </trkpt>
      <trkpt lat="44.52106" lon="3.62546">
        <ele>921</ele>
        <time>2009-07-07T08:52:26Z</time>
      </trkpt>
      <trkpt lat="44.52106" lon="3.62546">
        <ele>920</ele>
        <time>2009-07-07T08:52:59Z</time>
      </trkpt>
      <trkpt lat="44.52106" lon="3.62546">
        <ele>920</ele>
        <time>2009-07-07T08:53:29Z</time>
      </trkpt>
      <trkpt lat="44.52109" lon="3.62577">
        <ele>918</ele>
        <time>2009-07-07T08:53:38Z</time>
      </trkpt>
      <trkpt lat="44.52155" lon="3.62622">
        <ele>915</ele>
        <time>2009-07-07T08:53:48Z</time>
      </trkpt>
      <trkpt lat="44.52161" lon="3.62628">
        <ele>914</ele>
        <time>2009-07-07T08:53:49Z</time>
      </trkpt>
      <trkpt lat="44.52189" lon="3.62644">
        <ele>912</ele>
        <time>2009-07-07T08:53:53Z</time>
      </trkpt>
      <trkpt lat="44.52203" lon="3.62648">
        <ele>912</ele>
        <time>2009-07-07T08:53:55Z</time>
      </trkpt>
      <trkpt lat="44.52241" lon="3.62654">
        <ele>913</ele>
        <time>2009-07-07T08:54:02Z</time>
      </trkpt>
      <trkpt lat="44.5223" lon="3.62658">
        <ele>910</ele>
        <time>2009-07-07T08:54:06Z</time>
      </trkpt>
      <trkpt lat="44.52179" lon="3.6265">
        <ele>906</ele>
        <time>2009-07-07T08:54:15Z</time>
      </trkpt>
      <trkpt lat="44.52163" lon="3.62647">
        <ele>904</ele>
        <time>2009-07-07T08:54:17Z</time>
      </trkpt>
      <trkpt lat="44.52133" lon="3.62632">
        <ele>900</ele>
        <time>2009-07-07T08:54:21Z</time>
      </trkpt>
      <trkpt lat="44.52091" lon="3.62654">
        <ele>897</ele>
        <time>2009-07-07T08:54:27Z</time>
      </trkpt>
      <trkpt lat="44.52087" lon="3.62666">
        <ele>897</ele>
        <time>2009-07-07T08:54:28Z</time>
      </trkpt>
      <trkpt lat="44.52065" lon="3.62753">
        <ele>895</ele>
        <time>2009-07-07T08:54:35Z</time>
      </trkpt>
      <trkpt lat="44.52026" lon="3.62792">
        <ele>895</ele>
        <time>2009-07-07T08:54:41Z</time>
      </trkpt>
      <trkpt lat="44.52007" lon="3.62796">
        <ele>896</ele>
        <time>2009-07-07T08:54:44Z</time>
      </trkpt>
      <trkpt lat="44.51972" lon="3.62843">
        <ele>896</ele>
        <time>2009-07-07T08:54:54Z</time>
      </trkpt>
      <trkpt lat="44.51971" lon="3.6285">
        <ele>896</ele>
        <time>2009-07-07T08:54:55Z</time>
      </trkpt>
      <trkpt lat="44.51969" lon="3.62877">
        <ele>896</ele>
        <time>2009-07-07T08:54:59Z</time>
      </trkpt>
      <trkpt lat="44.51977" lon="3.63022">
        <ele>898</ele>
        <time>2009-07-07T08:55:20Z</time>
      </trkpt>
      <trkpt lat="44.51976" lon="3.63071">
        <ele>898</ele>
        <time>2009-07-07T08:55:27Z</time>
      </trkpt>
      <trkpt lat="44.5198" lon="3.63149">
        <ele>899</ele>
        <time>2009-07-07T08:55:39Z</time>
      </trkpt>
      <trkpt lat="44.51967" lon="3.63261">
        <ele>902</ele>
        <time>2009-07-07T08:55:57Z</time>
      </trkpt>
      <trkpt lat="44.5196" lon="3.63299">
        <ele>899</ele>
        <time>2009-07-07T08:56:03Z</time>
      </trkpt>
      <trkpt lat="44.51953" lon="3.63329">
        <ele>897</ele>
        <time>2009-07-07T08:56:07Z</time>
      </trkpt>
      <trkpt lat="44.51949" lon="3.63423">
        <ele>896</ele>
        <time>2009-07-07T08:56:18Z</time>
      </trkpt>
      <trkpt lat="44.51919" lon="3.6346">
        <ele>895</ele>
        <time>2009-07-07T08:56:25Z</time>
      </trkpt>
      <trkpt lat="44.51912" lon="3.63459">
        <ele>895</ele>
        <time>2009-07-07T08:56:26Z</time>
      </trkpt>
      <trkpt lat="44.51808" lon="3.63437">
        <ele>895</ele>
        <time>2009-07-07T08:56:45Z</time>
      </trkpt>
      <trkpt lat="44.51708" lon="3.63439">
        <ele>896</ele>
        <time>2009-07-07T08:57:04Z</time>
      </trkpt>
      <trkpt lat="44.51638" lon="3.6344">
        <ele>899</ele>
        <time>2009-07-07T08:57:20Z</time>
      </trkpt>
      <trkpt lat="44.51616" lon="3.63439">
        <ele>901</ele>
        <time>2009-07-07T08:57:27Z</time>
      </trkpt>
      <trkpt lat="44.51583" lon="3.63457">
        <ele>903</ele>
        <time>2009-07-07T08:57:41Z</time>
      </trkpt>
      <trkpt lat="44.51574" lon="3.63461">
        <ele>904</ele>
        <time>2009-07-07T08:57:50Z</time>
      </trkpt>
      <trkpt lat="44.51574" lon="3.63461">
        <ele>907</ele>
        <time>2009-07-07T08:58:15Z</time>
      </trkpt>
      <trkpt lat="44.51574" lon="3.63461">
        <ele>904</ele>
        <time>2009-07-07T08:58:20Z</time>
      </trkpt>
      <trkpt lat="44.51574" lon="3.63461">
        <ele>901</ele>
        <time>2009-07-07T08:58:22Z</time>
      </trkpt>
      <trkpt lat="44.51574" lon="3.63461">
        <ele>906</ele>
        <time>2009-07-07T08:58:23Z</time>
      </trkpt>
      <trkpt lat="44.51574" lon="3.63461">
        <ele>902</ele>
        <time>2009-07-07T08:58:25Z</time>
      </trkpt>
      <trkpt lat="44.51574" lon="3.63461">
        <ele>903</ele>
        <time>2009-07-07T08:58:26Z</time>
      </trkpt>
      <trkpt lat="44.51574" lon="3.63461">
        <ele>907</ele>
        <time>2009-07-07T08:58:32Z</time>
      </trkpt>
      <trkpt lat="44.51574" lon="3.63461">
        <ele>902</ele>
        <time>2009-07-07T08:58:35Z</time>
      </trkpt>
      <trkpt lat="44.51574" lon="3.63461">
        <ele>906</ele>
        <time>2009-07-07T08:58:36Z</time>
      </trkpt>
      <trkpt lat="44.51574" lon="3.63461">
        <ele>906</ele>
        <time>2009-07-07T08:58:37Z</time>
      </trkpt>
      <trkpt lat="44.51574" lon="3.63461">
        <ele>901</ele>
        <time>2009-07-07T08:58:38Z</time>
      </trkpt>
      <trkpt lat="44.51574" lon="3.63461">
        <ele>907</ele>
        <time>2009-07-07T08:58:39Z</time>
      </trkpt>
      <trkpt lat="44.51575" lon="3.63461">
        <ele>904</ele>
        <time>2009-07-07T08:58:42Z</time>
      </trkpt>
      <trkpt lat="44.51564" lon="3.63462">
        <ele>906</ele>
        <time>2009-07-07T08:59:03Z</time>
      </trkpt>
      <trkpt lat="44.51553" lon="3.63464">
        <ele>908</ele>
        <time>2009-07-07T08:59:16Z</time>
      </trkpt>
      <trkpt lat="44.51552" lon="3.63462">
        <ele>910</ele>
        <time>2009-07-07T08:59:30Z</time>
      </trkpt>
      <trkpt lat="44.51552" lon="3.63462">
        <ele>903</ele>
        <time>2009-07-07T08:59:31Z</time>
      </trkpt>
      <trkpt lat="44.51551" lon="3.63462">
        <ele>907</ele>
        <time>2009-07-07T08:59:32Z</time>
      </trkpt>
      <trkpt lat="44.51551" lon="3.63462">
        <ele>916</ele>
        <time>2009-07-07T08:59:34Z</time>
      </trkpt>
      <trkpt lat="44.51551" lon="3.63462">
        <ele>911</ele>
        <time>2009-07-07T08:59:35Z</time>
      </trkpt>
      <trkpt lat="44.5155" lon="3.63463">
        <ele>909</ele>
        <time>2009-07-07T08:59:37Z</time>
      </trkpt>
      <trkpt lat="44.51547" lon="3.63468">
        <ele>912</ele>
        <time>2009-07-07T08:59:54Z</time>
      </trkpt>
      <trkpt lat="44.5154" lon="3.63472">
        <ele>912</ele>
        <time>2009-07-07T09:00:17Z</time>
      </trkpt>
      <trkpt lat="44.51534" lon="3.63475">
        <ele>912</ele>
        <time>2009-07-07T09:00:26Z</time>
      </trkpt>
      <trkpt lat="44.51524" lon="3.63478">
        <ele>915</ele>
        <time>2009-07-07T09:00:35Z</time>
      </trkpt>
      <trkpt lat="44.51516" lon="3.6348">
        <ele>916</ele>
        <time>2009-07-07T09:00:41Z</time>
      </trkpt>
      <trkpt lat="44.51503" lon="3.63485">
        <ele>919</ele>
        <time>2009-07-07T09:00:52Z</time>
      </trkpt>
      <trkpt lat="44.51502" lon="3.63486">
        <ele>920</ele>
        <time>2009-07-07T09:00:53Z</time>
      </trkpt>
      <trkpt lat="44.51486" lon="3.6349">
        <ele>923</ele>
        <time>2009-07-07T09:01:06Z</time>
      </trkpt>
      <trkpt lat="44.5147" lon="3.63492">
        <ele>926</ele>
        <time>2009-07-07T09:01:19Z</time>
      </trkpt>
      <trkpt lat="44.51469" lon="3.63493">
        <ele>926</ele>
        <time>2009-07-07T09:01:20Z</time>
      </trkpt>
      <trkpt lat="44.51464" lon="3.63493">
        <ele>927</ele>
        <time>2009-07-07T09:01:24Z</time>
      </trkpt>
      <trkpt lat="44.51463" lon="3.63487">
        <ele>928</ele>
        <time>2009-07-07T09:01:28Z</time>
      </trkpt>
      <trkpt lat="44.51467" lon="3.63487">
        <ele>928</ele>
        <time>2009-07-07T09:02:07Z</time>
      </trkpt>
      <trkpt lat="44.51468" lon="3.63488">
        <ele>929</ele>
        <time>2009-07-07T09:02:23Z</time>
      </trkpt>
      <trkpt lat="44.51472" lon="3.6347">
        <ele>930</ele>
        <time>2009-07-07T09:03:02Z</time>
      </trkpt>
      <trkpt lat="44.5148" lon="3.63437">
        <ele>933</ele>
        <time>2009-07-07T09:03:16Z</time>
      </trkpt>
      <trkpt lat="44.51482" lon="3.63428">
        <ele>934</ele>
        <time>2009-07-07T09:03:20Z</time>
      </trkpt>
      <trkpt lat="44.51491" lon="3.63391">
        <ele>937</ele>
        <time>2009-07-07T09:03:36Z</time>
      </trkpt>
      <trkpt lat="44.515" lon="3.63355">
        <ele>940</ele>
        <time>2009-07-07T09:03:50Z</time>
      </trkpt>
      <trkpt lat="44.51501" lon="3.6335">
        <ele>941</ele>
        <time>2009-07-07T09:03:52Z</time>
      </trkpt>
      <trkpt lat="44.51513" lon="3.63303">
        <ele>944</ele>
        <time>2009-07-07T09:04:11Z</time>
      </trkpt>
      <trkpt lat="44.51516" lon="3.63287">
        <ele>947</ele>
        <time>2009-07-07T09:04:17Z</time>
      </trkpt>
      <trkpt lat="44.51528" lon="3.63237">
        <ele>949</ele>
        <time>2009-07-07T09:04:37Z</time>
      </trkpt>
      <trkpt lat="44.51529" lon="3.63229">
        <ele>951</ele>
        <time>2009-07-07T09:04:40Z</time>
      </trkpt>
      <trkpt lat="44.51534" lon="3.63196">
        <ele>954</ele>
        <time>2009-07-07T09:04:53Z</time>
      </trkpt>
      <trkpt lat="44.51534" lon="3.63181">
        <ele>955</ele>
        <time>2009-07-07T09:04:59Z</time>
      </trkpt>
      <trkpt lat="44.51532" lon="3.63134">
        <ele>958</ele>
        <time>2009-07-07T09:05:16Z</time>
      </trkpt>
      <trkpt lat="44.51523" lon="3.63099">
        <ele>961</ele>
        <time>2009-07-07T09:05:30Z</time>
      </trkpt>
      <trkpt lat="44.5152" lon="3.63093">
        <ele>962</ele>
        <time>2009-07-07T09:05:33Z</time>
      </trkpt>
      <trkpt lat="44.51506" lon="3.63068">
        <ele>964</ele>
        <time>2009-07-07T09:05:45Z</time>
      </trkpt>
      <trkpt lat="44.51484" lon="3.63048">
        <ele>967</ele>
        <time>2009-07-07T09:05:59Z</time>
      </trkpt>
      <trkpt lat="44.51454" lon="3.63043">
        <ele>970</ele>
        <time>2009-07-07T09:06:15Z</time>
      </trkpt>
      <trkpt lat="44.51445" lon="3.63045">
        <ele>972</ele>
        <time>2009-07-07T09:06:20Z</time>
      </trkpt>
      <trkpt lat="44.51415" lon="3.6306">
        <ele>975</ele>
        <time>2009-07-07T09:06:37Z</time>
      </trkpt>
      <trkpt lat="44.51391" lon="3.63076">
        <ele>978</ele>
        <time>2009-07-07T09:06:51Z</time>
      </trkpt>
      <trkpt lat="44.51376" lon="3.63086">
        <ele>981</ele>
        <time>2009-07-07T09:06:59Z</time>
      </trkpt>
      <trkpt lat="44.51341" lon="3.63106">
        <ele>984</ele>
        <time>2009-07-07T09:07:18Z</time>
      </trkpt>
      <trkpt lat="44.51317" lon="3.63117">
        <ele>987</ele>
        <time>2009-07-07T09:07:31Z</time>
      </trkpt>
      <trkpt lat="44.51313" lon="3.63119">
        <ele>988</ele>
        <time>2009-07-07T09:07:33Z</time>
      </trkpt>
      <trkpt lat="44.51303" lon="3.63125">
        <ele>992</ele>
        <time>2009-07-07T09:07:39Z</time>
      </trkpt>
      <trkpt lat="44.51263" lon="3.6315">
        <ele>994</ele>
        <time>2009-07-07T09:08:00Z</time>
      </trkpt>
      <trkpt lat="44.51243" lon="3.63166">
        <ele>997</ele>
        <time>2009-07-07T09:08:11Z</time>
      </trkpt>
      <trkpt lat="44.51215" lon="3.63195">
        <ele>1000</ele>
        <time>2009-07-07T09:08:27Z</time>
      </trkpt>
      <trkpt lat="44.51179" lon="3.63232">
        <ele>1001</ele>
        <time>2009-07-07T09:08:42Z</time>
      </trkpt>
      <trkpt lat="44.51131" lon="3.63264">
        <ele>1003</ele>
        <time>2009-07-07T09:09:00Z</time>
      </trkpt>
      <trkpt lat="44.51105" lon="3.63284">
        <ele>1005</ele>
        <time>2009-07-07T09:09:11Z</time>
      </trkpt>
      <trkpt lat="44.5106" lon="3.63317">
        <ele>1007</ele>
        <time>2009-07-07T09:09:28Z</time>
      </trkpt>
      <trkpt lat="44.51058" lon="3.63367">
        <ele>1008</ele>
        <time>2009-07-07T09:09:39Z</time>
      </trkpt>
      <trkpt lat="44.51056" lon="3.6339">
        <ele>1009</ele>
        <time>2009-07-07T09:09:45Z</time>
      </trkpt>
      <trkpt lat="44.5105" lon="3.63394">
        <ele>1009</ele>
        <time>2009-07-07T09:09:57Z</time>
      </trkpt>
      <trkpt lat="44.51049" lon="3.63391">
        <ele>1009</ele>
        <time>2009-07-07T09:11:09Z</time>
      </trkpt>
      <trkpt lat="44.51049" lon="3.63391">
        <ele>1009</ele>
        <time>2009-07-07T09:12:34Z</time>
      </trkpt>
      <trkpt lat="44.51048" lon="3.63392">
        <ele>1009</ele>
        <time>2009-07-07T09:13:02Z</time>
      </trkpt>
      <trkpt lat="44.51046" lon="3.63393">
        <ele>1009</ele>
        <time>2009-07-07T09:13:23Z</time>
      </trkpt>
      <trkpt lat="44.5101" lon="3.63395">
        <ele>1011</ele>
        <time>2009-07-07T09:13:39Z</time>
      </trkpt>
      <trkpt lat="44.50971" lon="3.63412">
        <ele>1015</ele>
        <time>2009-07-07T09:13:55Z</time>
      </trkpt>
      <trkpt lat="44.50969" lon="3.63413">
        <ele>1014</ele>
        <time>2009-07-07T09:13:56Z</time>
      </trkpt>
      <trkpt lat="44.50935" lon="3.63422">
        <ele>1018</ele>
        <time>2009-07-07T09:14:13Z</time>
      </trkpt>
      <trkpt lat="44.50916" lon="3.6342">
        <ele>1021</ele>
        <time>2009-07-07T09:14:24Z</time>
      </trkpt>
      <trkpt lat="44.50893" lon="3.63417">
        <ele>1024</ele>
        <time>2009-07-07T09:14:38Z</time>
      </trkpt>
      <trkpt lat="44.50885" lon="3.63414">
        <ele>1027</ele>
        <time>2009-07-07T09:14:43Z</time>
      </trkpt>
      <trkpt lat="44.50859" lon="3.63397">
        <ele>1029</ele>
        <time>2009-07-07T09:15:00Z</time>
      </trkpt>
      <trkpt lat="44.50834" lon="3.63374">
        <ele>1031</ele>
        <time>2009-07-07T09:15:17Z</time>
      </trkpt>
      <trkpt lat="44.50826" lon="3.63366">
        <ele>1033</ele>
        <time>2009-07-07T09:15:23Z</time>
      </trkpt>
      <trkpt lat="44.50811" lon="3.6335">
        <ele>1036</ele>
        <time>2009-07-07T09:15:35Z</time>
      </trkpt>
      <trkpt lat="44.50795" lon="3.63332">
        <ele>1038</ele>
        <time>2009-07-07T09:15:52Z</time>
      </trkpt>
      <trkpt lat="44.50794" lon="3.63332">
        <ele>1038</ele>
        <time>2009-07-07T09:15:53Z</time>
      </trkpt>
      <trkpt lat="44.50775" lon="3.63304">
        <ele>1040</ele>
        <time>2009-07-07T09:16:09Z</time>
      </trkpt>
      <trkpt lat="44.50763" lon="3.63287">
        <ele>1043</ele>
        <time>2009-07-07T09:16:19Z</time>
      </trkpt>
      <trkpt lat="44.50733" lon="3.63265">
        <ele>1046</ele>
        <time>2009-07-07T09:16:37Z</time>
      </trkpt>
      <trkpt lat="44.50697" lon="3.63267">
        <ele>1048</ele>
        <time>2009-07-07T09:16:53Z</time>
      </trkpt>
      <trkpt lat="44.50675" lon="3.63253">
        <ele>1050</ele>
        <time>2009-07-07T09:17:07Z</time>
      </trkpt>
      <trkpt lat="44.50666" lon="3.63245">
        <ele>1052</ele>
        <time>2009-07-07T09:17:14Z</time>
      </trkpt>
      <trkpt lat="44.5065" lon="3.63232">
        <ele>1055</ele>
        <time>2009-07-07T09:17:27Z</time>
      </trkpt>
      <trkpt lat="44.50636" lon="3.63219">
        <ele>1058</ele>
        <time>2009-07-07T09:17:40Z</time>
      </trkpt>
      <trkpt lat="44.50627" lon="3.63213">
        <ele>1061</ele>
        <time>2009-07-07T09:17:48Z</time>
      </trkpt>
      <trkpt lat="44.50615" lon="3.63206">
        <ele>1065</ele>
        <time>2009-07-07T09:17:59Z</time>
      </trkpt>
      <trkpt lat="44.50614" lon="3.63206">
        <ele>1065</ele>
        <time>2009-07-07T09:18:00Z</time>
      </trkpt>
      <trkpt lat="44.50609" lon="3.63205">
        <ele>1068</ele>
        <time>2009-07-07T09:18:04Z</time>
      </trkpt>
      <trkpt lat="44.50604" lon="3.63204">
        <ele>1068</ele>
        <time>2009-07-07T09:18:08Z</time>
      </trkpt>
      <trkpt lat="44.50588" lon="3.63211">
        <ele>1072</ele>
        <time>2009-07-07T09:18:23Z</time>
      </trkpt>
      <trkpt lat="44.50583" lon="3.63213">
        <ele>1074</ele>
        <time>2009-07-07T09:18:30Z</time>
      </trkpt>
      <trkpt lat="44.50579" lon="3.63209">
        <ele>1077</ele>
        <time>2009-07-07T09:18:42Z</time>
      </trkpt>
      <trkpt lat="44.50573" lon="3.63211">
        <ele>1078</ele>
        <time>2009-07-07T09:18:56Z</time>
      </trkpt>
      <trkpt lat="44.50571" lon="3.63213">
        <ele>1079</ele>
        <time>2009-07-07T09:19:18Z</time>
      </trkpt>
      <trkpt lat="44.50566" lon="3.63213">
        <ele>1080</ele>
        <time>2009-07-07T09:19:22Z</time>
      </trkpt>
      <trkpt lat="44.50557" lon="3.63215">
        <ele>1082</ele>
        <time>2009-07-07T09:19:27Z</time>
      </trkpt>
      <trkpt lat="44.50544" lon="3.63218">
        <ele>1086</ele>
        <time>2009-07-07T09:19:35Z</time>
      </trkpt>
      <trkpt lat="44.5054" lon="3.63222">
        <ele>1088</ele>
        <time>2009-07-07T09:19:39Z</time>
      </trkpt>
      <trkpt lat="44.50535" lon="3.63225">
        <ele>1089</ele>
        <time>2009-07-07T09:19:43Z</time>
      </trkpt>
      <trkpt lat="44.50532" lon="3.6323">
        <ele>1091</ele>
        <time>2009-07-07T09:19:47Z</time>
      </trkpt>
      <trkpt lat="44.50523" lon="3.63238">
        <ele>1092</ele>
        <time>2009-07-07T09:19:59Z</time>
      </trkpt>
      <trkpt lat="44.50521" lon="3.63239">
        <ele>1092</ele>
        <time>2009-07-07T09:20:01Z</time>
      </trkpt>
      <trkpt lat="44.50514" lon="3.63243">
        <ele>1095</ele>
        <time>2009-07-07T09:20:08Z</time>
      </trkpt>
      <trkpt lat="44.5051" lon="3.63245">
        <ele>1097</ele>
        <time>2009-07-07T09:20:11Z</time>
      </trkpt>
      <trkpt lat="44.50499" lon="3.63254">
        <ele>1100</ele>
        <time>2009-07-07T09:20:22Z</time>
      </trkpt>
      <trkpt lat="44.50497" lon="3.63255">
        <ele>1100</ele>
        <time>2009-07-07T09:20:24Z</time>
      </trkpt>
      <trkpt lat="44.50491" lon="3.63262">
        <ele>1101</ele>
        <time>2009-07-07T09:20:29Z</time>
      </trkpt>
      <trkpt lat="44.50482" lon="3.63271">
        <ele>1104</ele>
        <time>2009-07-07T09:20:38Z</time>
      </trkpt>
      <trkpt lat="44.50468" lon="3.63287">
        <ele>1106</ele>
        <time>2009-07-07T09:20:50Z</time>
      </trkpt>
      <trkpt lat="44.50458" lon="3.63304">
        <ele>1107</ele>
        <time>2009-07-07T09:20:59Z</time>
      </trkpt>
      <trkpt lat="44.50454" lon="3.63321">
        <ele>1105</ele>
        <time>2009-07-07T09:21:07Z</time>
      </trkpt>
      <trkpt lat="44.50453" lon="3.63326">
        <ele>1105</ele>
        <time>2009-07-07T09:21:09Z</time>
      </trkpt>
      <trkpt lat="44.50448" lon="3.63331">
        <ele>1106</ele>
        <time>2009-07-07T09:21:13Z</time>
      </trkpt>
      <trkpt lat="44.50441" lon="3.63331">
        <ele>1108</ele>
        <time>2009-07-07T09:21:18Z</time>
      </trkpt>
      <trkpt lat="44.50434" lon="3.63335">
        <ele>1109</ele>
        <time>2009-07-07T09:21:32Z</time>
      </trkpt>
      <trkpt lat="44.50434" lon="3.63336">
        <ele>1110</ele>
        <time>2009-07-07T09:22:05Z</time>
      </trkpt>
      <trkpt lat="44.50434" lon="3.63338">
        <ele>1107</ele>
        <time>2009-07-07T09:22:50Z</time>
      </trkpt>
      <trkpt lat="44.50435" lon="3.63333">
        <ele>1110</ele>
        <time>2009-07-07T09:23:09Z</time>
      </trkpt>
      <trkpt lat="44.50435" lon="3.63333">
        <ele>1110</ele>
        <time>2009-07-07T09:23:10Z</time>
      </trkpt>
      <trkpt lat="44.50435" lon="3.63333">
        <ele>1105</ele>
        <time>2009-07-07T09:23:30Z</time>
      </trkpt>
      <trkpt lat="44.50435" lon="3.63333">
        <ele>1109</ele>
        <time>2009-07-07T09:23:31Z</time>
      </trkpt>
      <trkpt lat="44.50435" lon="3.63341">
        <ele>1108</ele>
        <time>2009-07-07T09:24:31Z</time>
      </trkpt>
      <trkpt lat="44.50436" lon="3.63331">
        <ele>1108</ele>
        <time>2009-07-07T09:26:18Z</time>
      </trkpt>
      <trkpt lat="44.5042" lon="3.63346">
        <ele>1109</ele>
        <time>2009-07-07T09:26:36Z</time>
      </trkpt>
      <trkpt lat="44.50399" lon="3.63359">
        <ele>1109</ele>
        <time>2009-07-07T09:26:47Z</time>
      </trkpt>
      <trkpt lat="44.50376" lon="3.63358">
        <ele>1110</ele>
        <time>2009-07-07T09:26:57Z</time>
      </trkpt>
      <trkpt lat="44.50361" lon="3.63369">
        <ele>1112</ele>
        <time>2009-07-07T09:27:05Z</time>
      </trkpt>
      <trkpt lat="44.50348" lon="3.63374">
        <ele>1114</ele>
        <time>2009-07-07T09:27:12Z</time>
      </trkpt>
      <trkpt lat="44.50316" lon="3.63386">
        <ele>1117</ele>
        <time>2009-07-07T09:27:30Z</time>
      </trkpt>
      <trkpt lat="44.50301" lon="3.63399">
        <ele>1120</ele>
        <time>2009-07-07T09:27:41Z</time>
      </trkpt>
      <trkpt lat="44.50282" lon="3.63411">
        <ele>1122</ele>
        <time>2009-07-07T09:27:56Z</time>
      </trkpt>
      <trkpt lat="44.50272" lon="3.63418">
        <ele>1124</ele>
        <time>2009-07-07T09:28:09Z</time>
      </trkpt>
      <trkpt lat="44.50269" lon="3.63426">
        <ele>1125</ele>
        <time>2009-07-07T09:28:20Z</time>
      </trkpt>
      <trkpt lat="44.50265" lon="3.63433">
        <ele>1125</ele>
        <time>2009-07-07T09:28:24Z</time>
      </trkpt>
      <trkpt lat="44.50248" lon="3.63462">
        <ele>1127</ele>
        <time>2009-07-07T09:28:38Z</time>
      </trkpt>
      <trkpt lat="44.5024" lon="3.63477">
        <ele>1129</ele>
        <time>2009-07-07T09:28:46Z</time>
      </trkpt>
      <trkpt lat="44.50212" lon="3.63495">
        <ele>1130</ele>
        <time>2009-07-07T09:29:04Z</time>
      </trkpt>
      <trkpt lat="44.50185" lon="3.63491">
        <ele>1132</ele>
        <time>2009-07-07T09:29:15Z</time>
      </trkpt>
      <trkpt lat="44.50161" lon="3.63504">
        <ele>1135</ele>
        <time>2009-07-07T09:29:29Z</time>
      </trkpt>
      <trkpt lat="44.5013" lon="3.63513">
        <ele>1137</ele>
        <time>2009-07-07T09:29:46Z</time>
      </trkpt>
      <trkpt lat="44.50101" lon="3.63519">
        <ele>1140</ele>
        <time>2009-07-07T09:30:01Z</time>
      </trkpt>
      <trkpt lat="44.50072" lon="3.63508">
        <ele>1142</ele>
        <time>2009-07-07T09:30:19Z</time>
      </trkpt>
      <trkpt lat="44.50053" lon="3.63501">
        <ele>1146</ele>
        <time>2009-07-07T09:30:33Z</time>
      </trkpt>
      <trkpt lat="44.50039" lon="3.63504">
        <ele>1148</ele>
        <time>2009-07-07T09:30:44Z</time>
      </trkpt>
      <trkpt lat="44.50023" lon="3.63501">
        <ele>1149</ele>
        <time>2009-07-07T09:30:56Z</time>
      </trkpt>
      <trkpt lat="44.50001" lon="3.63489">
        <ele>1153</ele>
        <time>2009-07-07T09:31:12Z</time>
      </trkpt>
      <trkpt lat="44.49993" lon="3.63484">
        <ele>1154</ele>
        <time>2009-07-07T09:31:26Z</time>
      </trkpt>
      <trkpt lat="44.49973" lon="3.63474">
        <ele>1157</ele>
        <time>2009-07-07T09:31:39Z</time>
      </trkpt>
      <trkpt lat="44.49948" lon="3.63462">
        <ele>1157</ele>
        <time>2009-07-07T09:31:55Z</time>
      </trkpt>
      <trkpt lat="44.49939" lon="3.63459">
        <ele>1160</ele>
        <time>2009-07-07T09:32:01Z</time>
      </trkpt>
      <trkpt lat="44.49916" lon="3.63451">
        <ele>1163</ele>
        <time>2009-07-07T09:32:16Z</time>
      </trkpt>
      <trkpt lat="44.4991" lon="3.63447">
        <ele>1165</ele>
        <time>2009-07-07T09:32:22Z</time>
      </trkpt>
      <trkpt lat="44.49909" lon="3.63447">
        <ele>1165</ele>
        <time>2009-07-07T09:32:23Z</time>
      </trkpt>
      <trkpt lat="44.49905" lon="3.63448">
        <ele>1164</ele>
        <time>2009-07-07T09:32:28Z</time>
      </trkpt>
      <trkpt lat="44.49897" lon="3.63446">
        <ele>1166</ele>
        <time>2009-07-07T09:32:42Z</time>
      </trkpt>
      <trkpt lat="44.49888" lon="3.63444">
        <ele>1167</ele>
        <time>2009-07-07T09:32:56Z</time>
      </trkpt>
      <trkpt lat="44.4987" lon="3.63439">
        <ele>1170</ele>
        <time>2009-07-07T09:33:08Z</time>
      </trkpt>
      <trkpt lat="44.49868" lon="3.6344">
        <ele>1171</ele>
        <time>2009-07-07T09:33:09Z</time>
      </trkpt>
      <trkpt lat="44.49859" lon="3.6344">
        <ele>1172</ele>
        <time>2009-07-07T09:33:14Z</time>
      </trkpt>
      <trkpt lat="44.49853" lon="3.63438">
        <ele>1173</ele>
        <time>2009-07-07T09:33:18Z</time>
      </trkpt>
      <trkpt lat="44.49847" lon="3.63435">
        <ele>1175</ele>
        <time>2009-07-07T09:33:22Z</time>
      </trkpt>
      <trkpt lat="44.49822" lon="3.63426">
        <ele>1175</ele>
        <time>2009-07-07T09:33:38Z</time>
      </trkpt>
      <trkpt lat="44.49815" lon="3.63426">
        <ele>1176</ele>
        <time>2009-07-07T09:33:42Z</time>
      </trkpt>
      <trkpt lat="44.49787" lon="3.63417">
        <ele>1179</ele>
        <time>2009-07-07T09:33:59Z</time>
      </trkpt>
      <trkpt lat="44.49777" lon="3.63414">
        <ele>1182</ele>
        <time>2009-07-07T09:34:05Z</time>
      </trkpt>
      <trkpt lat="44.4976" lon="3.63389">
        <ele>1184</ele>
        <time>2009-07-07T09:34:19Z</time>
      </trkpt>
      <trkpt lat="44.4976" lon="3.63387">
        <ele>1185</ele>
        <time>2009-07-07T09:34:35Z</time>
      </trkpt>
      <trkpt lat="44.4976" lon="3.63387">
        <ele>1184</ele>
        <time>2009-07-07T09:34:58Z</time>
      </trkpt>
      <trkpt lat="44.49758" lon="3.63385">
        <ele>1184</ele>
        <time>2009-07-07T09:36:36Z</time>
      </trkpt>
      <trkpt lat="44.49755" lon="3.63383">
        <ele>1188</ele>
        <time>2009-07-07T09:36:53Z</time>
      </trkpt>
      <trkpt lat="44.49755" lon="3.63383">
        <ele>1185</ele>
        <time>2009-07-07T09:36:54Z</time>
      </trkpt>
      <trkpt lat="44.49756" lon="3.63383">
        <ele>1185</ele>
        <time>2009-07-07T09:37:29Z</time>
      </trkpt>
      <trkpt lat="44.49758" lon="3.63384">
        <ele>1185</ele>
        <time>2009-07-07T09:38:34Z</time>
      </trkpt>
      <trkpt lat="44.49758" lon="3.63383">
        <ele>1186</ele>
        <time>2009-07-07T09:39:10Z</time>
      </trkpt>
      <trkpt lat="44.49757" lon="3.63376">
        <ele>1183</ele>
        <time>2009-07-07T09:39:48Z</time>
      </trkpt>
      <trkpt lat="44.49744" lon="3.63335">
        <ele>1180</ele>
        <time>2009-07-07T09:39:58Z</time>
      </trkpt>
      <trkpt lat="44.49738" lon="3.63321">
        <ele>1179</ele>
        <time>2009-07-07T09:40:00Z</time>
      </trkpt>
      <trkpt lat="44.49728" lon="3.63278">
        <ele>1178</ele>
        <time>2009-07-07T09:40:05Z</time>
      </trkpt>
      <trkpt lat="44.49713" lon="3.63223">
        <ele>1178</ele>
        <time>2009-07-07T09:40:12Z</time>
      </trkpt>
      <trkpt lat="44.49693" lon="3.63167">
        <ele>1178</ele>
        <time>2009-07-07T09:40:23Z</time>
      </trkpt>
      <trkpt lat="44.49673" lon="3.63128">
        <ele>1179</ele>
        <time>2009-07-07T09:40:34Z</time>
      </trkpt>
      <trkpt lat="44.4966" lon="3.63094">
        <ele>1182</ele>
        <time>2009-07-07T09:40:45Z</time>
      </trkpt>
      <trkpt lat="44.49659" lon="3.63091">
        <ele>1182</ele>
        <time>2009-07-07T09:40:46Z</time>
      </trkpt>
      <trkpt lat="44.49653" lon="3.63079">
        <ele>1185</ele>
        <time>2009-07-07T09:40:51Z</time>
      </trkpt>
      <trkpt lat="44.49634" lon="3.63051">
        <ele>1186</ele>
        <time>2009-07-07T09:41:03Z</time>
      </trkpt>
      <trkpt lat="44.49619" lon="3.63008">
        <ele>1186</ele>
        <time>2009-07-07T09:41:18Z</time>
      </trkpt>
      <trkpt lat="44.49613" lon="3.62988">
        <ele>1189</ele>
        <time>2009-07-07T09:41:26Z</time>
      </trkpt>
      <trkpt lat="44.49613" lon="3.62985">
        <ele>1190</ele>
        <time>2009-07-07T09:41:27Z</time>
      </trkpt>
      <trkpt lat="44.4959" lon="3.62953">
        <ele>1188</ele>
        <time>2009-07-07T09:41:39Z</time>
      </trkpt>
      <trkpt lat="44.49568" lon="3.6292">
        <ele>1188</ele>
        <time>2009-07-07T09:41:51Z</time>
      </trkpt>
      <trkpt lat="44.49566" lon="3.62913">
        <ele>1187</ele>
        <time>2009-07-07T09:41:53Z</time>
      </trkpt>
      <trkpt lat="44.49566" lon="3.6291">
        <ele>1187</ele>
        <time>2009-07-07T09:41:54Z</time>
      </trkpt>
      <trkpt lat="44.49561" lon="3.62907">
        <ele>1189</ele>
        <time>2009-07-07T09:41:57Z</time>
      </trkpt>
      <trkpt lat="44.49559" lon="3.62908">
        <ele>1190</ele>
        <time>2009-07-07T09:41:58Z</time>
      </trkpt>
      <trkpt lat="44.49555" lon="3.62911">
        <ele>1190</ele>
        <time>2009-07-07T09:42:01Z</time>
      </trkpt>
      <trkpt lat="44.49536" lon="3.62908">
        <ele>1192</ele>
        <time>2009-07-07T09:42:13Z</time>
      </trkpt>
      <trkpt lat="44.49514" lon="3.62907">
        <ele>1195</ele>
        <time>2009-07-07T09:42:26Z</time>
      </trkpt>
      <trkpt lat="44.49491" lon="3.62902">
        <ele>1198</ele>
        <time>2009-07-07T09:42:37Z</time>
      </trkpt>
      <trkpt lat="44.49465" lon="3.62898">
        <ele>1200</ele>
        <time>2009-07-07T09:42:50Z</time>
      </trkpt>
      <trkpt lat="44.49442" lon="3.62904">
        <ele>1202</ele>
        <time>2009-07-07T09:43:04Z</time>
      </trkpt>
      <trkpt lat="44.49428" lon="3.62906">
        <ele>1204</ele>
        <time>2009-07-07T09:43:14Z</time>
      </trkpt>
      <trkpt lat="44.49409" lon="3.6291">
        <ele>1207</ele>
        <time>2009-07-07T09:43:27Z</time>
      </trkpt>
      <trkpt lat="44.494" lon="3.6291">
        <ele>1209</ele>
        <time>2009-07-07T09:43:34Z</time>
      </trkpt>
      <trkpt lat="44.49379" lon="3.62915">
        <ele>1212</ele>
        <time>2009-07-07T09:43:47Z</time>
      </trkpt>
      <trkpt lat="44.49368" lon="3.62919">
        <ele>1213</ele>
        <time>2009-07-07T09:43:56Z</time>
      </trkpt>
      <trkpt lat="44.49331" lon="3.62924">
        <ele>1214</ele>
        <time>2009-07-07T09:44:11Z</time>
      </trkpt>
      <trkpt lat="44.49292" lon="3.62924">
        <ele>1212</ele>
        <time>2009-07-07T09:44:21Z</time>
      </trkpt>
      <trkpt lat="44.4926" lon="3.62935">
        <ele>1214</ele>
        <time>2009-07-07T09:44:33Z</time>
      </trkpt>
      <trkpt lat="44.49255" lon="3.62934">
        <ele>1215</ele>
        <time>2009-07-07T09:44:44Z</time>
      </trkpt>
      <trkpt lat="44.49254" lon="3.62936">
        <ele>1214</ele>
        <time>2009-07-07T09:45:06Z</time>
      </trkpt>
      <trkpt lat="44.49251" lon="3.62937">
        <ele>1214</ele>
        <time>2009-07-07T09:45:34Z</time>
      </trkpt>
      <trkpt lat="44.49233" lon="3.62941">
        <ele>1215</ele>
        <time>2009-07-07T09:45:48Z</time>
      </trkpt>
      <trkpt lat="44.49211" lon="3.62954">
        <ele>1216</ele>
        <time>2009-07-07T09:46:03Z</time>
      </trkpt>
      <trkpt lat="44.49183" lon="3.62962">
        <ele>1217</ele>
        <time>2009-07-07T09:46:16Z</time>
      </trkpt>
      <trkpt lat="44.49162" lon="3.62964">
        <ele>1218</ele>
        <time>2009-07-07T09:46:26Z</time>
      </trkpt>
      <trkpt lat="44.49124" lon="3.62974">
        <ele>1222</ele>
        <time>2009-07-07T09:46:45Z</time>
      </trkpt>
      <trkpt lat="44.49119" lon="3.62982">
        <ele>1221</ele>
        <time>2009-07-07T09:47:01Z</time>
      </trkpt>
      <trkpt lat="44.49117" lon="3.62982">
        <ele>1219</ele>
        <time>2009-07-07T09:47:29Z</time>
      </trkpt>
      <trkpt lat="44.4912" lon="3.62987">
        <ele>1221</ele>
        <time>2009-07-07T09:47:48Z</time>
      </trkpt>
      <trkpt lat="44.49115" lon="3.62998">
        <ele>1220</ele>
        <time>2009-07-07T09:48:28Z</time>
      </trkpt>
      <trkpt lat="44.49126" lon="3.62993">
        <ele>1222</ele>
        <time>2009-07-07T09:48:58Z</time>
      </trkpt>
      <trkpt lat="44.49131" lon="3.6299">
        <ele>1223</ele>
        <time>2009-07-07T09:49:29Z</time>
      </trkpt>
      <trkpt lat="44.49128" lon="3.62992">
        <ele>1222</ele>
        <time>2009-07-07T09:49:49Z</time>
      </trkpt>
      <trkpt lat="44.49124" lon="3.62991">
        <ele>1223</ele>
        <time>2009-07-07T09:50:13Z</time>
      </trkpt>
      <trkpt lat="44.49117" lon="3.62979">
        <ele>1223</ele>
        <time>2009-07-07T09:50:37Z</time>
      </trkpt>
      <trkpt lat="44.49101" lon="3.62979">
        <ele>1224</ele>
        <time>2009-07-07T09:51:04Z</time>
      </trkpt>
      <trkpt lat="44.49085" lon="3.62983">
        <ele>1227</ele>
        <time>2009-07-07T09:51:18Z</time>
      </trkpt>
      <trkpt lat="44.49081" lon="3.62984">
        <ele>1229</ele>
        <time>2009-07-07T09:51:21Z</time>
      </trkpt>
      <trkpt lat="44.49061" lon="3.62986">
        <ele>1232</ele>
        <time>2009-07-07T09:51:33Z</time>
      </trkpt>
      <trkpt lat="44.49057" lon="3.62987">
        <ele>1232</ele>
        <time>2009-07-07T09:51:36Z</time>
      </trkpt>
      <trkpt lat="44.49037" lon="3.62987">
        <ele>1235</ele>
        <time>2009-07-07T09:51:53Z</time>
      </trkpt>
      <trkpt lat="44.49028" lon="3.6299">
        <ele>1237</ele>
        <time>2009-07-07T09:51:59Z</time>
      </trkpt>
      <trkpt lat="44.49011" lon="3.62995">
        <ele>1240</ele>
        <time>2009-07-07T09:52:12Z</time>
      </trkpt>
      <trkpt lat="44.49001" lon="3.62999">
        <ele>1243</ele>
        <time>2009-07-07T09:52:20Z</time>
      </trkpt>
      <trkpt lat="44.4899" lon="3.62989">
        <ele>1245</ele>
        <time>2009-07-07T09:52:31Z</time>
      </trkpt>
      <trkpt lat="44.4898" lon="3.62984">
        <ele>1248</ele>
        <time>2009-07-07T09:52:40Z</time>
      </trkpt>
      <trkpt lat="44.4897" lon="3.62984">
        <ele>1250</ele>
        <time>2009-07-07T09:52:53Z</time>
      </trkpt>
      <trkpt lat="44.48961" lon="3.62987">
        <ele>1252</ele>
        <time>2009-07-07T09:53:09Z</time>
      </trkpt>
      <trkpt lat="44.4895" lon="3.62992">
        <ele>1254</ele>
        <time>2009-07-07T09:53:24Z</time>
      </trkpt>
      <trkpt lat="44.48939" lon="3.63">
        <ele>1257</ele>
        <time>2009-07-07T09:53:39Z</time>
      </trkpt>
      <trkpt lat="44.48933" lon="3.63006">
        <ele>1260</ele>
        <time>2009-07-07T09:53:51Z</time>
      </trkpt>
      <trkpt lat="44.48924" lon="3.63016">
        <ele>1262</ele>
        <time>2009-07-07T09:54:06Z</time>
      </trkpt>
      <trkpt lat="44.48916" lon="3.63022">
        <ele>1264</ele>
        <time>2009-07-07T09:54:20Z</time>
      </trkpt>
      <trkpt lat="44.48911" lon="3.63026">
        <ele>1265</ele>
        <time>2009-07-07T09:54:25Z</time>
      </trkpt>
      <trkpt lat="44.48896" lon="3.63036">
        <ele>1267</ele>
        <time>2009-07-07T09:54:36Z</time>
      </trkpt>
      <trkpt lat="44.48877" lon="3.63035">
        <ele>1270</ele>
        <time>2009-07-07T09:54:49Z</time>
      </trkpt>
      <trkpt lat="44.48874" lon="3.63035">
        <ele>1272</ele>
        <time>2009-07-07T09:54:52Z</time>
      </trkpt>
      <trkpt lat="44.48865" lon="3.63035">
        <ele>1275</ele>
        <time>2009-07-07T09:55:00Z</time>
      </trkpt>
      <trkpt lat="44.48852" lon="3.63037">
        <ele>1276</ele>
        <time>2009-07-07T09:55:17Z</time>
      </trkpt>
      <trkpt lat="44.48844" lon="3.63042">
        <ele>1279</ele>
        <time>2009-07-07T09:55:30Z</time>
      </trkpt>
      <trkpt lat="44.4883" lon="3.63044">
        <ele>1280</ele>
        <time>2009-07-07T09:55:52Z</time>
      </trkpt>
      <trkpt lat="44.48807" lon="3.63033">
        <ele>1283</ele>
        <time>2009-07-07T09:56:06Z</time>
      </trkpt>
      <trkpt lat="44.48795" lon="3.63034">
        <ele>1286</ele>
        <time>2009-07-07T09:56:15Z</time>
      </trkpt>
      <trkpt lat="44.48773" lon="3.63031">
        <ele>1288</ele>
        <time>2009-07-07T09:56:29Z</time>
      </trkpt>
      <trkpt lat="44.48752" lon="3.63021">
        <ele>1292</ele>
        <time>2009-07-07T09:56:43Z</time>
      </trkpt>
      <trkpt lat="44.48738" lon="3.63017">
        <ele>1294</ele>
        <time>2009-07-07T09:56:54Z</time>
      </trkpt>
      <trkpt lat="44.48729" lon="3.6302">
        <ele>1297</ele>
        <time>2009-07-07T09:57:02Z</time>
      </trkpt>
      <trkpt lat="44.48723" lon="3.63021">
        <ele>1298</ele>
        <time>2009-07-07T09:57:10Z</time>
      </trkpt>
      <trkpt lat="44.48707" lon="3.63025">
        <ele>1301</ele>
        <time>2009-07-07T09:57:22Z</time>
      </trkpt>
      <trkpt lat="44.48705" lon="3.63024">
        <ele>1301</ele>
        <time>2009-07-07T09:57:23Z</time>
      </trkpt>
      <trkpt lat="44.48686" lon="3.63024">
        <ele>1304</ele>
        <time>2009-07-07T09:57:37Z</time>
      </trkpt>
      <trkpt lat="44.48683" lon="3.63025">
        <ele>1304</ele>
        <time>2009-07-07T09:57:39Z</time>
      </trkpt>
      <trkpt lat="44.48664" lon="3.63018">
        <ele>1307</ele>
        <time>2009-07-07T09:57:52Z</time>
      </trkpt>
      <trkpt lat="44.48649" lon="3.63011">
        <ele>1310</ele>
        <time>2009-07-07T09:58:05Z</time>
      </trkpt>
      <trkpt lat="44.48643" lon="3.63009">
        <ele>1312</ele>
        <time>2009-07-07T09:58:09Z</time>
      </trkpt>
      <trkpt lat="44.48607" lon="3.63006">
        <ele>1315</ele>
        <time>2009-07-07T09:58:27Z</time>
      </trkpt>
      <trkpt lat="44.48578" lon="3.63005">
        <ele>1318</ele>
        <time>2009-07-07T09:58:40Z</time>
      </trkpt>
      <trkpt lat="44.48551" lon="3.63008">
        <ele>1321</ele>
        <time>2009-07-07T09:58:54Z</time>
      </trkpt>
      <trkpt lat="44.48522" lon="3.63009">
        <ele>1323</ele>
        <time>2009-07-07T09:59:07Z</time>
      </trkpt>
      <trkpt lat="44.48487" lon="3.62995">
        <ele>1324</ele>
        <time>2009-07-07T09:59:26Z</time>
      </trkpt>
      <trkpt lat="44.48485" lon="3.6299">
        <ele>1325</ele>
        <time>2009-07-07T09:59:53Z</time>
      </trkpt>
      <trkpt lat="44.48485" lon="3.62995">
        <ele>1325</ele>
        <time>2009-07-07T10:00:16Z</time>
      </trkpt>
      <trkpt lat="44.48481" lon="3.62988">
        <ele>1325</ele>
        <time>2009-07-07T10:00:40Z</time>
      </trkpt>
      <trkpt lat="44.4848" lon="3.62992">
        <ele>1325</ele>
        <time>2009-07-07T10:01:36Z</time>
      </trkpt>
      <trkpt lat="44.4848" lon="3.62999">
        <ele>1325</ele>
        <time>2009-07-07T10:02:05Z</time>
      </trkpt>
      <trkpt lat="44.48483" lon="3.62995">
        <ele>1326</ele>
        <time>2009-07-07T10:02:24Z</time>
      </trkpt>
      <trkpt lat="44.48472" lon="3.62986">
        <ele>1327</ele>
        <time>2009-07-07T10:02:48Z</time>
      </trkpt>
      <trkpt lat="44.48431" lon="3.62962">
        <ele>1327</ele>
        <time>2009-07-07T10:03:04Z</time>
      </trkpt>
      <trkpt lat="44.48391" lon="3.62932">
        <ele>1328</ele>
        <time>2009-07-07T10:03:17Z</time>
      </trkpt>
      <trkpt lat="44.48357" lon="3.62898">
        <ele>1329</ele>
        <time>2009-07-07T10:03:29Z</time>
      </trkpt>
      <trkpt lat="44.48317" lon="3.62858">
        <ele>1329</ele>
        <time>2009-07-07T10:03:43Z</time>
      </trkpt>
      <trkpt lat="44.48271" lon="3.62816">
        <ele>1329</ele>
        <time>2009-07-07T10:03:57Z</time>
      </trkpt>
      <trkpt lat="44.48213" lon="3.62764">
        <ele>1332</ele>
        <time>2009-07-07T10:04:15Z</time>
      </trkpt>
      <trkpt lat="44.48161" lon="3.62745">
        <ele>1333</ele>
        <time>2009-07-07T10:04:31Z</time>
      </trkpt>
      <trkpt lat="44.48119" lon="3.62746">
        <ele>1334</ele>
        <time>2009-07-07T10:04:44Z</time>
      </trkpt>
      <trkpt lat="44.48077" lon="3.62749">
        <ele>1335</ele>
        <time>2009-07-07T10:04:57Z</time>
      </trkpt>
      <trkpt lat="44.48047" lon="3.62751">
        <ele>1337</ele>
        <time>2009-07-07T10:05:07Z</time>
      </trkpt>
      <trkpt lat="44.48017" lon="3.62751">
        <ele>1339</ele>
        <time>2009-07-07T10:05:19Z</time>
      </trkpt>
      <trkpt lat="44.47994" lon="3.62752">
        <ele>1342</ele>
        <time>2009-07-07T10:05:28Z</time>
      </trkpt>
      <trkpt lat="44.47986" lon="3.62749">
        <ele>1342</ele>
        <time>2009-07-07T10:05:39Z</time>
      </trkpt>
      <trkpt lat="44.47986" lon="3.62748">
        <ele>1342</ele>
        <time>2009-07-07T10:05:45Z</time>
      </trkpt>
      <trkpt lat="44.48001" lon="3.62752">
        <ele>1340</ele>
        <time>2009-07-07T10:05:52Z</time>
      </trkpt>
      <trkpt lat="44.48029" lon="3.62749">
        <ele>1340</ele>
        <time>2009-07-07T10:06:03Z</time>
      </trkpt>
      <trkpt lat="44.48035" lon="3.62751">
        <ele>1338</ele>
        <time>2009-07-07T10:06:20Z</time>
      </trkpt>
      <trkpt lat="44.48043" lon="3.62749">
        <ele>1339</ele>
        <time>2009-07-07T10:06:40Z</time>
      </trkpt>
      <trkpt lat="44.4804" lon="3.62752">
        <ele>1338</ele>
        <time>2009-07-07T10:07:14Z</time>
      </trkpt>
      <trkpt lat="44.48035" lon="3.62755">
        <ele>1337</ele>
        <time>2009-07-07T10:07:31Z</time>
      </trkpt>
      <trkpt lat="44.48034" lon="3.62755">
        <ele>1338</ele>
        <time>2009-07-07T10:07:51Z</time>
      </trkpt>
      <trkpt lat="44.48037" lon="3.62756">
        <ele>1337</ele>
        <time>2009-07-07T10:08:12Z</time>
      </trkpt>
      <trkpt lat="44.48036" lon="3.62749">
        <ele>1338</ele>
        <time>2009-07-07T10:08:49Z</time>
      </trkpt>
      <trkpt lat="44.4803" lon="3.62748">
        <ele>1339</ele>
        <time>2009-07-07T10:09:15Z</time>
      </trkpt>
      <trkpt lat="44.48027" lon="3.62747">
        <ele>1339</ele>
        <time>2009-07-07T10:09:37Z</time>
      </trkpt>
      <trkpt lat="44.48026" lon="3.6275">
        <ele>1338</ele>
        <time>2009-07-07T10:10:03Z</time>
      </trkpt>
      <trkpt lat="44.48027" lon="3.6275">
        <ele>1338</ele>
        <time>2009-07-07T10:10:39Z</time>
      </trkpt>
      <trkpt lat="44.48026" lon="3.62751">
        <ele>1337</ele>
        <time>2009-07-07T10:10:49Z</time>
      </trkpt>
      <trkpt lat="44.48025" lon="3.6275">
        <ele>1338</ele>
        <time>2009-07-07T10:11:12Z</time>
      </trkpt>
      <trkpt lat="44.48019" lon="3.62749">
        <ele>1338</ele>
        <time>2009-07-07T10:11:16Z</time>
      </trkpt>
      <trkpt lat="44.47991" lon="3.62749">
        <ele>1340</ele>
        <time>2009-07-07T10:11:29Z</time>
      </trkpt>
      <trkpt lat="44.47948" lon="3.6275">
        <ele>1342</ele>
        <time>2009-07-07T10:11:43Z</time>
      </trkpt>
      <trkpt lat="44.47914" lon="3.62766">
        <ele>1341</ele>
        <time>2009-07-07T10:11:54Z</time>
      </trkpt>
      <trkpt lat="44.4788" lon="3.62785">
        <ele>1343</ele>
        <time>2009-07-07T10:12:05Z</time>
      </trkpt>
      <trkpt lat="44.47869" lon="3.62798">
        <ele>1345</ele>
        <time>2009-07-07T10:12:09Z</time>
      </trkpt>
      <trkpt lat="44.47847" lon="3.62832">
        <ele>1347</ele>
        <time>2009-07-07T10:12:19Z</time>
      </trkpt>
      <trkpt lat="44.47828" lon="3.62867">
        <ele>1350</ele>
        <time>2009-07-07T10:12:32Z</time>
      </trkpt>
      <trkpt lat="44.47803" lon="3.62897">
        <ele>1351</ele>
        <time>2009-07-07T10:12:47Z</time>
      </trkpt>
      <trkpt lat="44.47787" lon="3.62909">
        <ele>1353</ele>
        <time>2009-07-07T10:12:57Z</time>
      </trkpt>
      <trkpt lat="44.47779" lon="3.62914">
        <ele>1353</ele>
        <time>2009-07-07T10:13:02Z</time>
      </trkpt>
      <trkpt lat="44.47751" lon="3.62934">
        <ele>1355</ele>
        <time>2009-07-07T10:13:17Z</time>
      </trkpt>
      <trkpt lat="44.47728" lon="3.6295">
        <ele>1356</ele>
        <time>2009-07-07T10:13:30Z</time>
      </trkpt>
      <trkpt lat="44.47708" lon="3.62971">
        <ele>1357</ele>
        <time>2009-07-07T10:13:43Z</time>
      </trkpt>
      <trkpt lat="44.47699" lon="3.62978">
        <ele>1358</ele>
        <time>2009-07-07T10:13:48Z</time>
      </trkpt>
      <trkpt lat="44.4768" lon="3.63">
        <ele>1361</ele>
        <time>2009-07-07T10:13:59Z</time>
      </trkpt>
      <trkpt lat="44.47653" lon="3.63031">
        <ele>1363</ele>
        <time>2009-07-07T10:14:14Z</time>
      </trkpt>
      <trkpt lat="44.47634" lon="3.63066">
        <ele>1366</ele>
        <time>2009-07-07T10:14:27Z</time>
      </trkpt>
      <trkpt lat="44.47625" lon="3.63102">
        <ele>1367</ele>
        <time>2009-07-07T10:14:39Z</time>
      </trkpt>
      <trkpt lat="44.4762" lon="3.63116">
        <ele>1369</ele>
        <time>2009-07-07T10:14:44Z</time>
      </trkpt>
      <trkpt lat="44.47595" lon="3.63156">
        <ele>1370</ele>
        <time>2009-07-07T10:14:58Z</time>
      </trkpt>
      <trkpt lat="44.47549" lon="3.63172">
        <ele>1371</ele>
        <time>2009-07-07T10:15:13Z</time>
      </trkpt>
      <trkpt lat="44.47507" lon="3.63174">
        <ele>1372</ele>
        <time>2009-07-07T10:15:27Z</time>
      </trkpt>
      <trkpt lat="44.4748" lon="3.63176">
        <ele>1374</ele>
        <time>2009-07-07T10:15:38Z</time>
      </trkpt>
      <trkpt lat="44.47443" lon="3.63187">
        <ele>1374</ele>
        <time>2009-07-07T10:15:53Z</time>
      </trkpt>
      <trkpt lat="44.47423" lon="3.63197">
        <ele>1375</ele>
        <time>2009-07-07T10:16:06Z</time>
      </trkpt>
      <trkpt lat="44.47417" lon="3.63199">
        <ele>1376</ele>
        <time>2009-07-07T10:16:10Z</time>
      </trkpt>
      <trkpt lat="44.47403" lon="3.63204">
        <ele>1376</ele>
        <time>2009-07-07T10:16:17Z</time>
      </trkpt>
      <trkpt lat="44.47388" lon="3.63214">
        <ele>1377</ele>
        <time>2009-07-07T10:16:23Z</time>
      </trkpt>
      <trkpt lat="44.47374" lon="3.63219">
        <ele>1377</ele>
        <time>2009-07-07T10:16:28Z</time>
      </trkpt>
      <trkpt lat="44.47341" lon="3.63246">
        <ele>1379</ele>
        <time>2009-07-07T10:16:42Z</time>
      </trkpt>
      <trkpt lat="44.47315" lon="3.63275">
        <ele>1378</ele>
        <time>2009-07-07T10:16:53Z</time>
      </trkpt>
      <trkpt lat="44.47287" lon="3.63302">
        <ele>1378</ele>
        <time>2009-07-07T10:17:03Z</time>
      </trkpt>
      <trkpt lat="44.47259" lon="3.63331">
        <ele>1378</ele>
        <time>2009-07-07T10:17:15Z</time>
      </trkpt>
      <trkpt lat="44.47208" lon="3.63373">
        <ele>1378</ele>
        <time>2009-07-07T10:17:33Z</time>
      </trkpt>
      <trkpt lat="44.47167" lon="3.63374">
        <ele>1379</ele>
        <time>2009-07-07T10:17:46Z</time>
      </trkpt>
      <trkpt lat="44.47126" lon="3.63337">
        <ele>1380</ele>
        <time>2009-07-07T10:17:59Z</time>
      </trkpt>
      <trkpt lat="44.47101" lon="3.63285">
        <ele>1382</ele>
        <time>2009-07-07T10:18:12Z</time>
      </trkpt>
      <trkpt lat="44.47085" lon="3.63236">
        <ele>1383</ele>
        <time>2009-07-07T10:18:23Z</time>
      </trkpt>
      <trkpt lat="44.47068" lon="3.63189">
        <ele>1384</ele>
        <time>2009-07-07T10:18:34Z</time>
      </trkpt>
      <trkpt lat="44.47042" lon="3.63127">
        <ele>1386</ele>
        <time>2009-07-07T10:18:49Z</time>
      </trkpt>
      <trkpt lat="44.47021" lon="3.63091">
        <ele>1388</ele>
        <time>2009-07-07T10:19:00Z</time>
      </trkpt>
      <trkpt lat="44.46998" lon="3.63067">
        <ele>1392</ele>
        <time>2009-07-07T10:19:11Z</time>
      </trkpt>
      <trkpt lat="44.46996" lon="3.63066">
        <ele>1392</ele>
        <time>2009-07-07T10:19:12Z</time>
      </trkpt>
      <trkpt lat="44.46958" lon="3.63053">
        <ele>1394</ele>
        <time>2009-07-07T10:19:26Z</time>
      </trkpt>
      <trkpt lat="44.46926" lon="3.63046">
        <ele>1394</ele>
        <time>2009-07-07T10:19:38Z</time>
      </trkpt>
      <trkpt lat="44.46882" lon="3.63036">
        <ele>1395</ele>
        <time>2009-07-07T10:19:53Z</time>
      </trkpt>
      <trkpt lat="44.4688" lon="3.63037">
        <ele>1395</ele>
        <time>2009-07-07T10:20:05Z</time>
      </trkpt>
      <trkpt lat="44.46868" lon="3.63033">
        <ele>1395</ele>
        <time>2009-07-07T10:20:19Z</time>
      </trkpt>
      <trkpt lat="44.46849" lon="3.63027">
        <ele>1393</ele>
        <time>2009-07-07T10:20:38Z</time>
      </trkpt>
      <trkpt lat="44.468" lon="3.63015">
        <ele>1394</ele>
        <time>2009-07-07T10:20:52Z</time>
      </trkpt>
      <trkpt lat="44.46737" lon="3.62981">
        <ele>1393</ele>
        <time>2009-07-07T10:21:06Z</time>
      </trkpt>
      <trkpt lat="44.46679" lon="3.6296">
        <ele>1393</ele>
        <time>2009-07-07T10:21:23Z</time>
      </trkpt>
      <trkpt lat="44.4668" lon="3.62961">
        <ele>1393</ele>
        <time>2009-07-07T10:21:56Z</time>
      </trkpt>
      <trkpt lat="44.46659" lon="3.62957">
        <ele>1393</ele>
        <time>2009-07-07T10:22:24Z</time>
      </trkpt>
      <trkpt lat="44.46602" lon="3.62946">
        <ele>1394</ele>
        <time>2009-07-07T10:22:42Z</time>
      </trkpt>
      <trkpt lat="44.46566" lon="3.6294">
        <ele>1394</ele>
        <time>2009-07-07T10:22:56Z</time>
      </trkpt>
      <trkpt lat="44.46544" lon="3.62941">
        <ele>1395</ele>
        <time>2009-07-07T10:23:04Z</time>
      </trkpt>
      <trkpt lat="44.46506" lon="3.6294">
        <ele>1396</ele>
        <time>2009-07-07T10:23:16Z</time>
      </trkpt>
      <trkpt lat="44.46488" lon="3.62939">
        <ele>1396</ele>
        <time>2009-07-07T10:23:22Z</time>
      </trkpt>
      <trkpt lat="44.46482" lon="3.62942">
        <ele>1396</ele>
        <time>2009-07-07T10:23:24Z</time>
      </trkpt>
      <trkpt lat="44.46469" lon="3.62942">
        <ele>1397</ele>
        <time>2009-07-07T10:23:29Z</time>
      </trkpt>
      <trkpt lat="44.46443" lon="3.62945">
        <ele>1398</ele>
        <time>2009-07-07T10:23:37Z</time>
      </trkpt>
      <trkpt lat="44.4641" lon="3.6295">
        <ele>1400</ele>
        <time>2009-07-07T10:23:50Z</time>
      </trkpt>
      <trkpt lat="44.46377" lon="3.62954">
        <ele>1402</ele>
        <time>2009-07-07T10:24:04Z</time>
      </trkpt>
      <trkpt lat="44.46347" lon="3.62964">
        <ele>1403</ele>
        <time>2009-07-07T10:24:17Z</time>
      </trkpt>
      <trkpt lat="44.46317" lon="3.62973">
        <ele>1403</ele>
        <time>2009-07-07T10:24:30Z</time>
      </trkpt>
      <trkpt lat="44.46293" lon="3.62982">
        <ele>1405</ele>
        <time>2009-07-07T10:24:42Z</time>
      </trkpt>
      <trkpt lat="44.46287" lon="3.62983">
        <ele>1406</ele>
        <time>2009-07-07T10:24:45Z</time>
      </trkpt>
      <trkpt lat="44.46267" lon="3.62991">
        <ele>1407</ele>
        <time>2009-07-07T10:24:55Z</time>
      </trkpt>
      <trkpt lat="44.46239" lon="3.62993">
        <ele>1408</ele>
        <time>2009-07-07T10:25:07Z</time>
      </trkpt>
      <trkpt lat="44.46215" lon="3.62995">
        <ele>1411</ele>
        <time>2009-07-07T10:25:16Z</time>
      </trkpt>
      <trkpt lat="44.46181" lon="3.62999">
        <ele>1412</ele>
        <time>2009-07-07T10:25:30Z</time>
      </trkpt>
      <trkpt lat="44.46153" lon="3.62996">
        <ele>1414</ele>
        <time>2009-07-07T10:25:41Z</time>
      </trkpt>
      <trkpt lat="44.46113" lon="3.62992">
        <ele>1415</ele>
        <time>2009-07-07T10:25:55Z</time>
      </trkpt>
      <trkpt lat="44.46074" lon="3.62991">
        <ele>1417</ele>
        <time>2009-07-07T10:26:10Z</time>
      </trkpt>
      <trkpt lat="44.46061" lon="3.62991">
        <ele>1418</ele>
        <time>2009-07-07T10:26:16Z</time>
      </trkpt>
      <trkpt lat="44.46047" lon="3.62993">
        <ele>1419</ele>
        <time>2009-07-07T10:26:21Z</time>
      </trkpt>
      <trkpt lat="44.46016" lon="3.62992">
        <ele>1420</ele>
        <time>2009-07-07T10:26:35Z</time>
      </trkpt>
      <trkpt lat="44.45989" lon="3.62989">
        <ele>1422</ele>
        <time>2009-07-07T10:26:47Z</time>
      </trkpt>
      <trkpt lat="44.45989" lon="3.62991">
        <ele>1421</ele>
        <time>2009-07-07T10:26:59Z</time>
      </trkpt>
      <trkpt lat="44.45991" lon="3.62995">
        <ele>1420</ele>
        <time>2009-07-07T10:28:48Z</time>
      </trkpt>
      <trkpt lat="44.45993" lon="3.62995">
        <ele>1421</ele>
        <time>2009-07-07T10:29:31Z</time>
      </trkpt>
      <trkpt lat="44.4599" lon="3.62996">
        <ele>1424</ele>
        <time>2009-07-07T10:32:26Z</time>
      </trkpt>
      <trkpt lat="44.4599" lon="3.62994">
        <ele>1421</ele>
        <time>2009-07-07T10:33:44Z</time>
      </trkpt>
      <trkpt lat="44.45989" lon="3.62993">
        <ele>1422</ele>
        <time>2009-07-07T10:35:22Z</time>
      </trkpt>
      <trkpt lat="44.45989" lon="3.62993">
        <ele>1425</ele>
        <time>2009-07-07T10:40:16Z</time>
      </trkpt>
      <trkpt lat="44.45989" lon="3.62992">
        <ele>1423</ele>
        <time>2009-07-07T10:41:47Z</time>
      </trkpt>
      <trkpt lat="44.45986" lon="3.62994">
        <ele>1423</ele>
        <time>2009-07-07T10:45:24Z</time>
      </trkpt>
      <trkpt lat="44.45986" lon="3.62992">
        <ele>1424</ele>
        <time>2009-07-07T10:45:47Z</time>
      </trkpt>
      <trkpt lat="44.45987" lon="3.62991">
        <ele>1424</ele>
        <time>2009-07-07T10:46:55Z</time>
      </trkpt>
      <trkpt lat="44.4597" lon="3.6299">
        <ele>1425</ele>
        <time>2009-07-07T10:47:22Z</time>
      </trkpt>
      <trkpt lat="44.45959" lon="3.62989">
        <ele>1427</ele>
        <time>2009-07-07T10:47:35Z</time>
      </trkpt>
      <trkpt lat="44.45932" lon="3.62985">
        <ele>1428</ele>
        <time>2009-07-07T10:47:53Z</time>
      </trkpt>
      <trkpt lat="44.4591" lon="3.62976">
        <ele>1430</ele>
        <time>2009-07-07T10:48:09Z</time>
      </trkpt>
      <trkpt lat="44.45884" lon="3.62966">
        <ele>1431</ele>
        <time>2009-07-07T10:48:27Z</time>
      </trkpt>
      <trkpt lat="44.45851" lon="3.62952">
        <ele>1432</ele>
        <time>2009-07-07T10:48:50Z</time>
      </trkpt>
      <trkpt lat="44.45826" lon="3.62931">
        <ele>1435</ele>
        <time>2009-07-07T10:49:09Z</time>
      </trkpt>
      <trkpt lat="44.45809" lon="3.62904">
        <ele>1436</ele>
        <time>2009-07-07T10:49:25Z</time>
      </trkpt>
      <trkpt lat="44.4579" lon="3.62867">
        <ele>1437</ele>
        <time>2009-07-07T10:49:44Z</time>
      </trkpt>
      <trkpt lat="44.45767" lon="3.6283">
        <ele>1438</ele>
        <time>2009-07-07T10:50:05Z</time>
      </trkpt>
      <trkpt lat="44.45739" lon="3.62782">
        <ele>1439</ele>
        <time>2009-07-07T10:50:30Z</time>
      </trkpt>
      <trkpt lat="44.45711" lon="3.62753">
        <ele>1441</ele>
        <time>2009-07-07T10:50:51Z</time>
      </trkpt>
      <trkpt lat="44.45704" lon="3.62718">
        <ele>1443</ele>
        <time>2009-07-07T10:51:07Z</time>
      </trkpt>
      <trkpt lat="44.45695" lon="3.62676">
        <ele>1445</ele>
        <time>2009-07-07T10:51:26Z</time>
      </trkpt>
      <trkpt lat="44.45665" lon="3.62656">
        <ele>1445</ele>
        <time>2009-07-07T10:51:40Z</time>
      </trkpt>
      <trkpt lat="44.45653" lon="3.6265">
        <ele>1446</ele>
        <time>2009-07-07T10:51:47Z</time>
      </trkpt>
      <trkpt lat="44.45619" lon="3.62632">
        <ele>1448</ele>
        <time>2009-07-07T10:52:08Z</time>
      </trkpt>
      <trkpt lat="44.45593" lon="3.6263">
        <ele>1451</ele>
        <time>2009-07-07T10:52:24Z</time>
      </trkpt>
      <trkpt lat="44.45562" lon="3.62629">
        <ele>1453</ele>
        <time>2009-07-07T10:52:43Z</time>
      </trkpt>
      <trkpt lat="44.45549" lon="3.62629">
        <ele>1455</ele>
        <time>2009-07-07T10:52:51Z</time>
      </trkpt>
      <trkpt lat="44.45515" lon="3.62628">
        <ele>1456</ele>
        <time>2009-07-07T10:53:10Z</time>
      </trkpt>
      <trkpt lat="44.45484" lon="3.62621">
        <ele>1458</ele>
        <time>2009-07-07T10:53:28Z</time>
      </trkpt>
      <trkpt lat="44.45447" lon="3.62609">
        <ele>1460</ele>
        <time>2009-07-07T10:53:45Z</time>
      </trkpt>
      <trkpt lat="44.45423" lon="3.62603">
        <ele>1460</ele>
        <time>2009-07-07T10:53:58Z</time>
      </trkpt>
      <trkpt lat="44.45421" lon="3.62601">
        <ele>1460</ele>
        <time>2009-07-07T10:54:16Z</time>
      </trkpt>
      <trkpt lat="44.4542" lon="3.62601">
        <ele>1459</ele>
        <time>2009-07-07T10:54:19Z</time>
      </trkpt>
      <trkpt lat="44.45394" lon="3.62602">
        <ele>1459</ele>
        <time>2009-07-07T10:54:29Z</time>
      </trkpt>
      <trkpt lat="44.45333" lon="3.62615">
        <ele>1459</ele>
        <time>2009-07-07T10:54:44Z</time>
      </trkpt>
      <trkpt lat="44.45309" lon="3.62617">
        <ele>1456</ele>
        <time>2009-07-07T10:54:52Z</time>
      </trkpt>
      <trkpt lat="44.45303" lon="3.62618">
        <ele>1456</ele>
        <time>2009-07-07T10:54:54Z</time>
      </trkpt>
      <trkpt lat="44.45286" lon="3.62616">
        <ele>1458</ele>
        <time>2009-07-07T10:55:01Z</time>
      </trkpt>
      <trkpt lat="44.45236" lon="3.62602">
        <ele>1456</ele>
        <time>2009-07-07T10:55:17Z</time>
      </trkpt>
      <trkpt lat="44.45207" lon="3.62573">
        <ele>1455</ele>
        <time>2009-07-07T10:55:27Z</time>
      </trkpt>
      <trkpt lat="44.45168" lon="3.62572">
        <ele>1453</ele>
        <time>2009-07-07T10:55:36Z</time>
      </trkpt>
      <trkpt lat="44.45159" lon="3.6258">
        <ele>1453</ele>
        <time>2009-07-07T10:55:38Z</time>
      </trkpt>
      <trkpt lat="44.45118" lon="3.62624">
        <ele>1449</ele>
        <time>2009-07-07T10:55:50Z</time>
      </trkpt>
      <trkpt lat="44.45083" lon="3.62645">
        <ele>1446</ele>
        <time>2009-07-07T10:56:00Z</time>
      </trkpt>
      <trkpt lat="44.45054" lon="3.62658">
        <ele>1444</ele>
        <time>2009-07-07T10:56:08Z</time>
      </trkpt>
      <trkpt lat="44.45032" lon="3.62664">
        <ele>1443</ele>
        <time>2009-07-07T10:56:12Z</time>
      </trkpt>
      <trkpt lat="44.45021" lon="3.62667">
        <ele>1443</ele>
        <time>2009-07-07T10:56:14Z</time>
      </trkpt>
      <trkpt lat="44.44985" lon="3.62679">
        <ele>1443</ele>
        <time>2009-07-07T10:56:20Z</time>
      </trkpt>
      <trkpt lat="44.44951" lon="3.62704">
        <ele>1443</ele>
        <time>2009-07-07T10:56:31Z</time>
      </trkpt>
      <trkpt lat="44.44943" lon="3.62714">
        <ele>1443</ele>
        <time>2009-07-07T10:56:39Z</time>
      </trkpt>
      <trkpt lat="44.44915" lon="3.62718">
        <ele>1440</ele>
        <time>2009-07-07T10:56:49Z</time>
      </trkpt>
      <trkpt lat="44.44902" lon="3.62724">
        <ele>1439</ele>
        <time>2009-07-07T10:56:53Z</time>
      </trkpt>
      <trkpt lat="44.44889" lon="3.62733">
        <ele>1438</ele>
        <time>2009-07-07T10:56:56Z</time>
      </trkpt>
      <trkpt lat="44.44854" lon="3.62763">
        <ele>1437</ele>
        <time>2009-07-07T10:57:06Z</time>
      </trkpt>
      <trkpt lat="44.44842" lon="3.62766">
        <ele>1435</ele>
        <time>2009-07-07T10:57:09Z</time>
      </trkpt>
      <trkpt lat="44.44798" lon="3.62772">
        <ele>1432</ele>
        <time>2009-07-07T10:57:20Z</time>
      </trkpt>
      <trkpt lat="44.44769" lon="3.6277">
        <ele>1430</ele>
        <time>2009-07-07T10:57:29Z</time>
      </trkpt>
      <trkpt lat="44.44751" lon="3.62757">
        <ele>1428</ele>
        <time>2009-07-07T10:57:34Z</time>
      </trkpt>
      <trkpt lat="44.44746" lon="3.62753">
        <ele>1427</ele>
        <time>2009-07-07T10:57:36Z</time>
      </trkpt>
      <trkpt lat="44.44742" lon="3.6275">
        <ele>1426</ele>
        <time>2009-07-07T10:57:49Z</time>
      </trkpt>
      <trkpt lat="44.44722" lon="3.62729">
        <ele>1422</ele>
        <time>2009-07-07T10:57:56Z</time>
      </trkpt>
      <trkpt lat="44.44705" lon="3.62709">
        <ele>1418</ele>
        <time>2009-07-07T10:58:01Z</time>
      </trkpt>
      <trkpt lat="44.44696" lon="3.627">
        <ele>1417</ele>
        <time>2009-07-07T10:58:03Z</time>
      </trkpt>
      <trkpt lat="44.44676" lon="3.62678">
        <ele>1415</ele>
        <time>2009-07-07T10:58:07Z</time>
      </trkpt>
      <trkpt lat="44.44668" lon="3.62665">
        <ele>1414</ele>
        <time>2009-07-07T10:58:09Z</time>
      </trkpt>
      <trkpt lat="44.44653" lon="3.62642">
        <ele>1414</ele>
        <time>2009-07-07T10:58:13Z</time>
      </trkpt>
      <trkpt lat="44.44633" lon="3.62615">
        <ele>1410</ele>
        <time>2009-07-07T10:58:19Z</time>
      </trkpt>
      <trkpt lat="44.4463" lon="3.62611">
        <ele>1410</ele>
        <time>2009-07-07T10:58:20Z</time>
      </trkpt>
      <trkpt lat="44.44586" lon="3.62545">
        <ele>1410</ele>
        <time>2009-07-07T10:58:37Z</time>
      </trkpt>
      <trkpt lat="44.44565" lon="3.62504">
        <ele>1413</ele>
        <time>2009-07-07T10:58:52Z</time>
      </trkpt>
      <trkpt lat="44.44552" lon="3.62472">
        <ele>1415</ele>
        <time>2009-07-07T10:59:04Z</time>
      </trkpt>
      <trkpt lat="44.44541" lon="3.62434">
        <ele>1417</ele>
        <time>2009-07-07T10:59:20Z</time>
      </trkpt>
      <trkpt lat="44.44529" lon="3.62402">
        <ele>1419</ele>
        <time>2009-07-07T10:59:36Z</time>
      </trkpt>
      <trkpt lat="44.4452" lon="3.62348">
        <ele>1419</ele>
        <time>2009-07-07T10:59:54Z</time>
      </trkpt>
      <trkpt lat="44.44499" lon="3.6231">
        <ele>1420</ele>
        <time>2009-07-07T11:00:08Z</time>
      </trkpt>
      <trkpt lat="44.44483" lon="3.62284">
        <ele>1418</ele>
        <time>2009-07-07T11:00:17Z</time>
      </trkpt>
      <trkpt lat="44.44441" lon="3.62217">
        <ele>1420</ele>
        <time>2009-07-07T11:00:34Z</time>
      </trkpt>
      <trkpt lat="44.44388" lon="3.62142">
        <ele>1420</ele>
        <time>2009-07-07T11:00:53Z</time>
      </trkpt>
      <trkpt lat="44.44344" lon="3.62098">
        <ele>1421</ele>
        <time>2009-07-07T11:01:09Z</time>
      </trkpt>
      <trkpt lat="44.44306" lon="3.62057">
        <ele>1421</ele>
        <time>2009-07-07T11:01:22Z</time>
      </trkpt>
      <trkpt lat="44.4429" lon="3.6203">
        <ele>1420</ele>
        <time>2009-07-07T11:01:28Z</time>
      </trkpt>
      <trkpt lat="44.44274" lon="3.62012">
        <ele>1417</ele>
        <time>2009-07-07T11:01:32Z</time>
      </trkpt>
      <trkpt lat="44.44268" lon="3.61957">
        <ele>1415</ele>
        <time>2009-07-07T11:01:40Z</time>
      </trkpt>
      <trkpt lat="44.44262" lon="3.61942">
        <ele>1414</ele>
        <time>2009-07-07T11:01:42Z</time>
      </trkpt>
      <trkpt lat="44.44254" lon="3.61929">
        <ele>1413</ele>
        <time>2009-07-07T11:01:44Z</time>
      </trkpt>
      <trkpt lat="44.44224" lon="3.61883">
        <ele>1407</ele>
        <time>2009-07-07T11:01:52Z</time>
      </trkpt>
      <trkpt lat="44.4422" lon="3.61876">
        <ele>1407</ele>
        <time>2009-07-07T11:01:53Z</time>
      </trkpt>
      <trkpt lat="44.44212" lon="3.61863">
        <ele>1406</ele>
        <time>2009-07-07T11:01:55Z</time>
      </trkpt>
      <trkpt lat="44.442" lon="3.6184">
        <ele>1405</ele>
        <time>2009-07-07T11:01:58Z</time>
      </trkpt>
      <trkpt lat="44.44185" lon="3.61806">
        <ele>1404</ele>
        <time>2009-07-07T11:02:05Z</time>
      </trkpt>
      <trkpt lat="44.44172" lon="3.6178">
        <ele>1402</ele>
        <time>2009-07-07T11:02:12Z</time>
      </trkpt>
      <trkpt lat="44.44166" lon="3.61753">
        <ele>1399</ele>
        <time>2009-07-07T11:02:17Z</time>
      </trkpt>
      <trkpt lat="44.44146" lon="3.61722">
        <ele>1399</ele>
        <time>2009-07-07T11:02:29Z</time>
      </trkpt>
      <trkpt lat="44.44142" lon="3.61717">
        <ele>1398</ele>
        <time>2009-07-07T11:02:32Z</time>
      </trkpt>
      <trkpt lat="44.44133" lon="3.61695">
        <ele>1395</ele>
        <time>2009-07-07T11:02:40Z</time>
      </trkpt>
      <trkpt lat="44.4413" lon="3.61677">
        <ele>1393</ele>
        <time>2009-07-07T11:02:43Z</time>
      </trkpt>
      <trkpt lat="44.44124" lon="3.61658">
        <ele>1391</ele>
        <time>2009-07-07T11:02:46Z</time>
      </trkpt>
      <trkpt lat="44.44101" lon="3.61616">
        <ele>1391</ele>
        <time>2009-07-07T11:02:57Z</time>
      </trkpt>
      <trkpt lat="44.4409" lon="3.61593">
        <ele>1392</ele>
        <time>2009-07-07T11:03:08Z</time>
      </trkpt>
      <trkpt lat="44.44085" lon="3.61587">
        <ele>1391</ele>
        <time>2009-07-07T11:03:12Z</time>
      </trkpt>
      <trkpt lat="44.44065" lon="3.61552">
        <ele>1392</ele>
        <time>2009-07-07T11:03:25Z</time>
      </trkpt>
      <trkpt lat="44.44054" lon="3.6152">
        <ele>1393</ele>
        <time>2009-07-07T11:03:37Z</time>
      </trkpt>
      <trkpt lat="44.44046" lon="3.61512">
        <ele>1393</ele>
        <time>2009-07-07T11:03:41Z</time>
      </trkpt>
      <trkpt lat="44.44034" lon="3.61495">
        <ele>1393</ele>
        <time>2009-07-07T11:03:49Z</time>
      </trkpt>
      <trkpt lat="44.44019" lon="3.61467">
        <ele>1392</ele>
        <time>2009-07-07T11:03:59Z</time>
      </trkpt>
      <trkpt lat="44.44006" lon="3.61426">
        <ele>1391</ele>
        <time>2009-07-07T11:04:13Z</time>
      </trkpt>
      <trkpt lat="44.43988" lon="3.61393">
        <ele>1389</ele>
        <time>2009-07-07T11:04:23Z</time>
      </trkpt>
      <trkpt lat="44.43982" lon="3.61388">
        <ele>1389</ele>
        <time>2009-07-07T11:04:25Z</time>
      </trkpt>
      <trkpt lat="44.43977" lon="3.61387">
        <ele>1389</ele>
        <time>2009-07-07T11:04:27Z</time>
      </trkpt>
      <trkpt lat="44.43968" lon="3.61379">
        <ele>1388</ele>
        <time>2009-07-07T11:04:32Z</time>
      </trkpt>
      <trkpt lat="44.43947" lon="3.61358">
        <ele>1384</ele>
        <time>2009-07-07T11:04:40Z</time>
      </trkpt>
      <trkpt lat="44.43944" lon="3.61355">
        <ele>1384</ele>
        <time>2009-07-07T11:04:41Z</time>
      </trkpt>
      <trkpt lat="44.43919" lon="3.61323">
        <ele>1381</ele>
        <time>2009-07-07T11:04:52Z</time>
      </trkpt>
      <trkpt lat="44.43919" lon="3.61321">
        <ele>1381</ele>
        <time>2009-07-07T11:04:53Z</time>
      </trkpt>
      <trkpt lat="44.4391" lon="3.61308">
        <ele>1381</ele>
        <time>2009-07-07T11:05:03Z</time>
      </trkpt>
      <trkpt lat="44.43884" lon="3.61298">
        <ele>1378</ele>
        <time>2009-07-07T11:05:16Z</time>
      </trkpt>
      <trkpt lat="44.43882" lon="3.61298">
        <ele>1378</ele>
        <time>2009-07-07T11:05:18Z</time>
      </trkpt>
      <trkpt lat="44.43876" lon="3.61291">
        <ele>1376</ele>
        <time>2009-07-07T11:05:22Z</time>
      </trkpt>
      <trkpt lat="44.4387" lon="3.6128">
        <ele>1376</ele>
        <time>2009-07-07T11:05:26Z</time>
      </trkpt>
      <trkpt lat="44.43862" lon="3.61272">
        <ele>1375</ele>
        <time>2009-07-07T11:05:35Z</time>
      </trkpt>
      <trkpt lat="44.4385" lon="3.61264">
        <ele>1373</ele>
        <time>2009-07-07T11:05:45Z</time>
      </trkpt>
      <trkpt lat="44.43848" lon="3.61262">
        <ele>1373</ele>
        <time>2009-07-07T11:05:46Z</time>
      </trkpt>
      <trkpt lat="44.43826" lon="3.61245">
        <ele>1370</ele>
        <time>2009-07-07T11:05:56Z</time>
      </trkpt>
      <trkpt lat="44.43809" lon="3.61243">
        <ele>1369</ele>
        <time>2009-07-07T11:06:03Z</time>
      </trkpt>
      <trkpt lat="44.43791" lon="3.6123">
        <ele>1366</ele>
        <time>2009-07-07T11:06:10Z</time>
      </trkpt>
      <trkpt lat="44.4377" lon="3.6121">
        <ele>1362</ele>
        <time>2009-07-07T11:06:18Z</time>
      </trkpt>
      <trkpt lat="44.43756" lon="3.61197">
        <ele>1360</ele>
        <time>2009-07-07T11:06:26Z</time>
      </trkpt>
      <trkpt lat="44.43753" lon="3.6119">
        <ele>1360</ele>
        <time>2009-07-07T11:06:30Z</time>
      </trkpt>
      <trkpt lat="44.4374" lon="3.61169">
        <ele>1358</ele>
        <time>2009-07-07T11:06:42Z</time>
      </trkpt>
      <trkpt lat="44.43723" lon="3.6115">
        <ele>1355</ele>
        <time>2009-07-07T11:06:55Z</time>
      </trkpt>
      <trkpt lat="44.43706" lon="3.61134">
        <ele>1353</ele>
        <time>2009-07-07T11:07:08Z</time>
      </trkpt>
      <trkpt lat="44.43685" lon="3.61107">
        <ele>1351</ele>
        <time>2009-07-07T11:07:19Z</time>
      </trkpt>
      <trkpt lat="44.43668" lon="3.61097">
        <ele>1348</ele>
        <time>2009-07-07T11:07:25Z</time>
      </trkpt>
      <trkpt lat="44.43656" lon="3.61084">
        <ele>1346</ele>
        <time>2009-07-07T11:07:31Z</time>
      </trkpt>
      <trkpt lat="44.43652" lon="3.61078">
        <ele>1346</ele>
        <time>2009-07-07T11:07:34Z</time>
      </trkpt>
      <trkpt lat="44.43648" lon="3.61069">
        <ele>1345</ele>
        <time>2009-07-07T11:07:37Z</time>
      </trkpt>
      <trkpt lat="44.4364" lon="3.61061">
        <ele>1344</ele>
        <time>2009-07-07T11:07:41Z</time>
      </trkpt>
      <trkpt lat="44.43617" lon="3.61027">
        <ele>1340</ele>
        <time>2009-07-07T11:07:51Z</time>
      </trkpt>
      <trkpt lat="44.43609" lon="3.61018">
        <ele>1339</ele>
        <time>2009-07-07T11:07:54Z</time>
      </trkpt>
      <trkpt lat="44.43587" lon="3.60992">
        <ele>1337</ele>
        <time>2009-07-07T11:08:03Z</time>
      </trkpt>
      <trkpt lat="44.43564" lon="3.60975">
        <ele>1335</ele>
        <time>2009-07-07T11:08:13Z</time>
      </trkpt>
      <trkpt lat="44.4356" lon="3.60969">
        <ele>1334</ele>
        <time>2009-07-07T11:08:15Z</time>
      </trkpt>
      <trkpt lat="44.43554" lon="3.60963">
        <ele>1332</ele>
        <time>2009-07-07T11:08:18Z</time>
      </trkpt>
      <trkpt lat="44.43546" lon="3.6096">
        <ele>1331</ele>
        <time>2009-07-07T11:08:21Z</time>
      </trkpt>
      <trkpt lat="44.4352" lon="3.60937">
        <ele>1328</ele>
        <time>2009-07-07T11:08:31Z</time>
      </trkpt>
      <trkpt lat="44.43511" lon="3.60931">
        <ele>1327</ele>
        <time>2009-07-07T11:08:34Z</time>
      </trkpt>
      <trkpt lat="44.43489" lon="3.60918">
        <ele>1324</ele>
        <time>2009-07-07T11:08:42Z</time>
      </trkpt>
      <trkpt lat="44.43486" lon="3.60917">
        <ele>1324</ele>
        <time>2009-07-07T11:08:43Z</time>
      </trkpt>
      <trkpt lat="44.43451" lon="3.60907">
        <ele>1320</ele>
        <time>2009-07-07T11:08:53Z</time>
      </trkpt>
      <trkpt lat="44.4344" lon="3.60909">
        <ele>1319</ele>
        <time>2009-07-07T11:08:56Z</time>
      </trkpt>
      <trkpt lat="44.43421" lon="3.60906">
        <ele>1316</ele>
        <time>2009-07-07T11:09:02Z</time>
      </trkpt>
      <trkpt lat="44.4341" lon="3.60906">
        <ele>1314</ele>
        <time>2009-07-07T11:09:05Z</time>
      </trkpt>
      <trkpt lat="44.43389" lon="3.60912">
        <ele>1312</ele>
        <time>2009-07-07T11:09:12Z</time>
      </trkpt>
      <trkpt lat="44.43372" lon="3.60912">
        <ele>1309</ele>
        <time>2009-07-07T11:09:21Z</time>
      </trkpt>
      <trkpt lat="44.43359" lon="3.60908">
        <ele>1306</ele>
        <time>2009-07-07T11:09:27Z</time>
      </trkpt>
      <trkpt lat="44.43347" lon="3.60909">
        <ele>1305</ele>
        <time>2009-07-07T11:09:31Z</time>
      </trkpt>
      <trkpt lat="44.43338" lon="3.60912">
        <ele>1304</ele>
        <time>2009-07-07T11:09:35Z</time>
      </trkpt>
      <trkpt lat="44.43319" lon="3.60905">
        <ele>1302</ele>
        <time>2009-07-07T11:09:42Z</time>
      </trkpt>
      <trkpt lat="44.43291" lon="3.60899">
        <ele>1299</ele>
        <time>2009-07-07T11:09:51Z</time>
      </trkpt>
      <trkpt lat="44.43267" lon="3.60891">
        <ele>1296</ele>
        <time>2009-07-07T11:09:59Z</time>
      </trkpt>
      <trkpt lat="44.43255" lon="3.60889">
        <ele>1295</ele>
        <time>2009-07-07T11:10:03Z</time>
      </trkpt>
      <trkpt lat="44.4325" lon="3.60887">
        <ele>1294</ele>
        <time>2009-07-07T11:10:05Z</time>
      </trkpt>
      <trkpt lat="44.43237" lon="3.6087">
        <ele>1291</ele>
        <time>2009-07-07T11:10:11Z</time>
      </trkpt>
      <trkpt lat="44.43235" lon="3.60868">
        <ele>1291</ele>
        <time>2009-07-07T11:10:12Z</time>
      </trkpt>
      <trkpt lat="44.43219" lon="3.60852">
        <ele>1288</ele>
        <time>2009-07-07T11:10:18Z</time>
      </trkpt>
      <trkpt lat="44.43213" lon="3.60849">
        <ele>1288</ele>
        <time>2009-07-07T11:10:20Z</time>
      </trkpt>
      <trkpt lat="44.432" lon="3.60838">
        <ele>1286</ele>
        <time>2009-07-07T11:10:25Z</time>
      </trkpt>
      <trkpt lat="44.4319" lon="3.6083">
        <ele>1285</ele>
        <time>2009-07-07T11:10:28Z</time>
      </trkpt>
      <trkpt lat="44.4317" lon="3.60811">
        <ele>1283</ele>
        <time>2009-07-07T11:10:33Z</time>
      </trkpt>
      <trkpt lat="44.43141" lon="3.60791">
        <ele>1282</ele>
        <time>2009-07-07T11:10:40Z</time>
      </trkpt>
      <trkpt lat="44.43134" lon="3.60785">
        <ele>1281</ele>
        <time>2009-07-07T11:10:42Z</time>
      </trkpt>
      <trkpt lat="44.43127" lon="3.60779">
        <ele>1280</ele>
        <time>2009-07-07T11:10:44Z</time>
      </trkpt>
      <trkpt lat="44.43112" lon="3.60763">
        <ele>1278</ele>
        <time>2009-07-07T11:10:48Z</time>
      </trkpt>
      <trkpt lat="44.43083" lon="3.60752">
        <ele>1276</ele>
        <time>2009-07-07T11:10:57Z</time>
      </trkpt>
      <trkpt lat="44.43081" lon="3.6075">
        <ele>1275</ele>
        <time>2009-07-07T11:10:58Z</time>
      </trkpt>
      <trkpt lat="44.43077" lon="3.6074">
        <ele>1273</ele>
        <time>2009-07-07T11:11:02Z</time>
      </trkpt>
      <trkpt lat="44.4307" lon="3.60728">
        <ele>1270</ele>
        <time>2009-07-07T11:11:06Z</time>
      </trkpt>
      <trkpt lat="44.43066" lon="3.60724">
        <ele>1267</ele>
        <time>2009-07-07T11:11:07Z</time>
      </trkpt>
      <trkpt lat="44.43028" lon="3.60678">
        <ele>1264</ele>
        <time>2009-07-07T11:11:15Z</time>
      </trkpt>
      <trkpt lat="44.43016" lon="3.60632">
        <ele>1266</ele>
        <time>2009-07-07T11:11:26Z</time>
      </trkpt>
      <trkpt lat="44.43024" lon="3.60605">
        <ele>1263</ele>
        <time>2009-07-07T11:11:38Z</time>
      </trkpt>
      <trkpt lat="44.43026" lon="3.60599">
        <ele>1263</ele>
        <time>2009-07-07T11:11:39Z</time>
      </trkpt>
      <trkpt lat="44.4305" lon="3.60496">
        <ele>1261</ele>
        <time>2009-07-07T11:11:56Z</time>
      </trkpt>
      <trkpt lat="44.43053" lon="3.60484">
        <ele>1261</ele>
        <time>2009-07-07T11:11:58Z</time>
      </trkpt>
      <trkpt lat="44.4307" lon="3.60423">
        <ele>1260</ele>
        <time>2009-07-07T11:12:08Z</time>
      </trkpt>
      <trkpt lat="44.43091" lon="3.6035">
        <ele>1258</ele>
        <time>2009-07-07T11:12:22Z</time>
      </trkpt>
      <trkpt lat="44.431" lon="3.60321">
        <ele>1255</ele>
        <time>2009-07-07T11:12:27Z</time>
      </trkpt>
      <trkpt lat="44.43101" lon="3.60294">
        <ele>1254</ele>
        <time>2009-07-07T11:12:31Z</time>
      </trkpt>
      <trkpt lat="44.43128" lon="3.60187">
        <ele>1252</ele>
        <time>2009-07-07T11:12:47Z</time>
      </trkpt>
      <trkpt lat="44.43144" lon="3.6014">
        <ele>1249</ele>
        <time>2009-07-07T11:12:55Z</time>
      </trkpt>
      <trkpt lat="44.43186" lon="3.60076">
        <ele>1248</ele>
        <time>2009-07-07T11:13:09Z</time>
      </trkpt>
      <trkpt lat="44.43209" lon="3.60035">
        <ele>1245</ele>
        <time>2009-07-07T11:13:17Z</time>
      </trkpt>
      <trkpt lat="44.43231" lon="3.59998">
        <ele>1244</ele>
        <time>2009-07-07T11:13:23Z</time>
      </trkpt>
      <trkpt lat="44.43247" lon="3.59979">
        <ele>1242</ele>
        <time>2009-07-07T11:13:27Z</time>
      </trkpt>
      <trkpt lat="44.43276" lon="3.59941">
        <ele>1237</ele>
        <time>2009-07-07T11:13:34Z</time>
      </trkpt>
      <trkpt lat="44.43299" lon="3.59924">
        <ele>1235</ele>
        <time>2009-07-07T11:13:38Z</time>
      </trkpt>
      <trkpt lat="44.43346" lon="3.59918">
        <ele>1235</ele>
        <time>2009-07-07T11:13:49Z</time>
      </trkpt>
      <trkpt lat="44.43385" lon="3.59926">
        <ele>1232</ele>
        <time>2009-07-07T11:13:57Z</time>
      </trkpt>
      <trkpt lat="44.43389" lon="3.59927">
        <ele>1232</ele>
        <time>2009-07-07T11:13:58Z</time>
      </trkpt>
      <trkpt lat="44.43396" lon="3.5992">
        <ele>1230</ele>
        <time>2009-07-07T11:14:01Z</time>
      </trkpt>
      <trkpt lat="44.43392" lon="3.59914">
        <ele>1230</ele>
        <time>2009-07-07T11:14:03Z</time>
      </trkpt>
      <trkpt lat="44.43385" lon="3.59906">
        <ele>1228</ele>
        <time>2009-07-07T11:14:05Z</time>
      </trkpt>
      <trkpt lat="44.43377" lon="3.59894">
        <ele>1226</ele>
        <time>2009-07-07T11:14:07Z</time>
      </trkpt>
      <trkpt lat="44.4337" lon="3.59881">
        <ele>1225</ele>
        <time>2009-07-07T11:14:09Z</time>
      </trkpt>
      <trkpt lat="44.43358" lon="3.59851">
        <ele>1221</ele>
        <time>2009-07-07T11:14:13Z</time>
      </trkpt>
      <trkpt lat="44.4335" lon="3.59837">
        <ele>1220</ele>
        <time>2009-07-07T11:14:15Z</time>
      </trkpt>
      <trkpt lat="44.43337" lon="3.5982">
        <ele>1217</ele>
        <time>2009-07-07T11:14:18Z</time>
      </trkpt>
      <trkpt lat="44.43334" lon="3.59816">
        <ele>1217</ele>
        <time>2009-07-07T11:14:19Z</time>
      </trkpt>
      <trkpt lat="44.43335" lon="3.59804">
        <ele>1214</ele>
        <time>2009-07-07T11:14:22Z</time>
      </trkpt>
      <trkpt lat="44.4334" lon="3.59802">
        <ele>1213</ele>
        <time>2009-07-07T11:14:29Z</time>
      </trkpt>
      <trkpt lat="44.43368" lon="3.5979">
        <ele>1211</ele>
        <time>2009-07-07T11:14:39Z</time>
      </trkpt>
      <trkpt lat="44.43408" lon="3.59789">
        <ele>1211</ele>
        <time>2009-07-07T11:14:53Z</time>
      </trkpt>
      <trkpt lat="44.43414" lon="3.59752">
        <ele>1211</ele>
        <time>2009-07-07T11:15:05Z</time>
      </trkpt>
      <trkpt lat="44.43387" lon="3.59713">
        <ele>1213</ele>
        <time>2009-07-07T11:15:25Z</time>
      </trkpt>
      <trkpt lat="44.43385" lon="3.59712">
        <ele>1213</ele>
        <time>2009-07-07T11:15:26Z</time>
      </trkpt>
      <trkpt lat="44.43383" lon="3.59714">
        <ele>1213</ele>
        <time>2009-07-07T11:15:37Z</time>
      </trkpt>
    </trkseg>
  </trk>
</gpx>